Provisional Data: Chiques Creek near Route 283


Please select a monitoring station.
Please select start date.
Please select start date.

Toggle Unit: C/F Toggle Unit: C/F
Sample Time Temperature (C) Temperature (F) Specific Conductivity (mS/cm) pH   Turbidity (NTU+) DO (mg/L)
12/23/2022 12:00:00 AM 4.86 40.748 0.444 7.88 4.54 12.3
12/23/2022 12:15:00 AM 4.96 40.928 0.442 7.88 5.77 12.27
12/23/2022 12:30:00 AM 5.04 41.072 0.439 7.87 6.83 12.25
12/23/2022 12:45:00 AM 5.12 41.216 0.436 7.87 7.45 12.23
12/23/2022 1:00:00 AM 5.16 41.288 0.435 7.85 8.7 12.21
12/23/2022 1:15:00 AM 5.17 41.306 0.441 7.85 8.37 12.21
12/23/2022 1:30:00 AM 5.18 41.324 0.448 7.84 8.49 12.19
12/23/2022 1:45:00 AM 5.19 41.342 0.459 7.83 8.75 12.19
12/23/2022 2:00:00 AM 5.21 41.378 0.466 7.85 10.45 12.17
12/23/2022 2:15:00 AM 5.25 41.45 0.48 7.83 11.82 12.15
12/23/2022 2:30:00 AM 5.29 41.522 0.493 7.82 12.89 12.14
12/23/2022 2:45:00 AM 5.34 41.612 0.505 7.81 15.07 12.13
12/23/2022 3:00:00 AM 5.37 41.666 0.505 7.81 17.09 12.13
12/23/2022 3:15:00 AM 5.4 41.72 0.496 7.8 19.77 12.12
12/23/2022 3:30:00 AM 5.41 41.738 0.479 7.8 21.17 12.11
12/23/2022 3:45:00 AM 5.41 41.738 0.456 7.79 28.6 12.1
12/23/2022 4:00:00 AM 5.42 41.756 0.432 7.79 30.75 12.11
12/23/2022 4:15:00 AM 5.42 41.756 0.408 7.77 35.41 12.12
12/23/2022 4:30:00 AM 5.42 41.756 0.395 7.76 41.53 12.12
12/23/2022 4:45:00 AM 5.42 41.756 0.377 7.74 43.52 12.13
12/23/2022 5:00:00 AM 5.42 41.756 0.363 7.73 46.98 12.13
12/23/2022 5:15:00 AM 5.4 41.72 0.346 7.72 50.96 12.14
12/23/2022 5:30:00 AM 5.38 41.684 0.343 7.72 96.07 12.14
12/23/2022 5:45:00 AM 5.32 41.576 0.332 7.69 94.84 12.18
12/23/2022 6:00:00 AM 5.28 41.504 0.327 7.69 85.93 12.18
12/23/2022 6:15:00 AM 5.26 41.468 0.325 7.69 83.02 12.18
12/23/2022 6:30:00 AM 5.25 41.45 0.318 7.69 109.38 12.18
12/23/2022 6:45:00 AM 5.24 41.432 0.311 7.67 137.66 12.18
12/23/2022 7:00:00 AM 5.23 41.414 0.307 7.68 137.41 12.17
12/23/2022 7:15:00 AM 5.21 41.378 0.3 7.67 107.48 12.17
12/23/2022 7:30:00 AM 5.19 41.342 0.3 7.66 127.71 12.18
12/23/2022 7:45:00 AM 5.17 41.306 0.3 7.66 105.63 12.17
12/23/2022 8:00:00 AM 5.16 41.288 0.3 7.65 115.98 12.16
12/23/2022 8:15:00 AM 5.15 41.27 0.304 7.64 160.84 12.15
12/23/2022 8:30:00 AM 5.16 41.288 0.308 7.64 115.99 12.14
12/23/2022 8:45:00 AM 5.18 41.324 0.313 7.64 127.23 12.11
12/23/2022 9:00:00 AM 5.2 41.36 0.315 7.64 123.24 12.09
12/23/2022 9:15:00 AM 5.23 41.414 0.313 7.65 121.53 12.09
12/23/2022 9:30:00 AM 5.26 41.468 0.309 7.65 112.35 12.06
12/23/2022 9:45:00 AM 5.3 41.54 0.303 7.64 107.16 12.05
12/23/2022 10:00:00 AM 5.32 41.576 0.297 7.65 132.67 12.03
12/23/2022 10:15:00 AM 5.34 41.612 0.291 7.63 114.88 12.02
12/23/2022 10:30:00 AM 5.36 41.648 0.285 7.64 135.38 12.01
12/23/2022 10:45:00 AM 5.37 41.666 0.281 7.64 108.19 11.99
12/23/2022 11:00:00 AM 5.38 41.684 0.279 7.64 199.82 11.98
12/23/2022 11:15:00 AM 5.39 41.702 0.278 7.62 127.21 11.98
12/23/2022 11:30:00 AM 5.38 41.684 0.277 7.63 96.99 11.98
12/23/2022 11:45:00 AM 5.38 41.684 0.275 7.62 112.04 11.98
12/23/2022 12:00:00 PM 5.38 41.684 0.276 7.62 115.61 11.98
12/23/2022 12:15:00 PM 5.38 41.684 0.275 7.62 104.34 11.98
12/23/2022 12:30:00 PM 5.38 41.684 0.275 7.6 93.18 11.98
12/23/2022 12:45:00 PM 5.36 41.648 0.274 7.63 101 12
12/23/2022 1:00:00 PM 5.36 41.648 0.274 7.63 112.36 12
12/23/2022 1:15:00 PM 5.33 41.594 0.273 7.62 90.96 12
12/23/2022 1:30:00 PM 5.31 41.558 0.274 7.61 74.7 12.02
12/23/2022 1:45:00 PM 5.28 41.504 0.276 7.61 79.04 12.03
12/23/2022 2:00:00 PM 5.26 41.468 0.28 7.63 73.28 12.04
12/23/2022 2:15:00 PM 5.24 41.432 0.284 7.62 73.95 12.05
12/23/2022 2:30:00 PM 5.19 41.342 0.288 7.63 59.51 12.07
12/23/2022 2:45:00 PM 5.14 41.252 0.291 7.64 73.56 12.09
12/23/2022 3:00:00 PM 5.08 41.144 0.293 7.64 69.5 12.11
12/23/2022 3:15:00 PM 5.04 41.072 0.296 7.63 67.66 12.12
12/23/2022 3:30:00 PM 4.98 40.964 0.303 7.64 54.29 12.14
12/23/2022 3:45:00 PM 4.92 40.856 0.308 7.64 59.99 12.17
12/23/2022 4:00:00 PM 4.85 40.73 0.31 7.64 68.68 12.19
12/23/2022 4:15:00 PM 4.78 40.604 0.308 7.65 55.22 12.22
12/23/2022 4:30:00 PM 4.68 40.424 0.304 7.66 50.36 12.26
12/23/2022 4:45:00 PM 4.59 40.262 0.299 7.66 44.76 12.31
12/23/2022 5:00:00 PM 4.52 40.136 0.296 7.67 71.48 12.33
12/23/2022 5:15:00 PM 4.45 40.01 0.295 7.67 36.35 12.36
12/23/2022 5:30:00 PM 4.36 39.848 0.294 7.66 67.87 12.4
12/23/2022 5:45:00 PM 4.26 39.668 0.292 7.66 56.16 12.43
12/23/2022 6:00:00 PM 4.16 39.488 0.29 7.66 37.88 12.47
12/23/2022 6:15:00 PM 4.06 39.308 0.289 7.67 47.92 12.5
12/23/2022 6:30:00 PM 3.96 39.128 0.289 7.67 42.66 12.54
12/23/2022 6:45:00 PM 3.86 38.948 0.29 7.67 43 12.59
12/23/2022 7:00:00 PM 3.78 38.804 0.29 7.66 38.91 12.6
12/23/2022 7:15:00 PM 3.69 38.642 0.289 7.66 38.3 12.64
12/23/2022 7:30:00 PM 3.6 38.48 0.288 7.66 45.55 12.68
12/23/2022 7:45:00 PM 3.52 38.336 0.287 7.66 38.78 12.71
12/23/2022 8:00:00 PM 3.44 38.192 0.288 7.67 46.18 12.73
12/23/2022 8:15:00 PM 3.36 38.048 0.289 7.66 39.19 12.78
12/23/2022 8:30:00 PM 3.29 37.922 0.291 7.66 38.34 12.8
12/23/2022 8:45:00 PM 3.21 37.778 0.291 7.66 47.45 12.84
12/23/2022 9:00:00 PM 3.13 37.634 0.292 7.67 42.78 12.87
12/23/2022 9:15:00 PM 3.06 37.508 0.292 7.66 36.14 12.9
12/23/2022 9:30:00 PM 3.01 37.418 0.293 7.65 32.07 12.88
12/23/2022 9:45:00 PM 2.93 37.274 0.294 7.65 31.42 12.91
12/23/2022 10:00:00 PM 2.86 37.148 0.296 7.65 27.68 12.95
12/23/2022 10:15:00 PM 2.79 37.022 0.298 7.65 36.32 12.97
12/23/2022 10:30:00 PM 2.72 36.896 0.3 7.66 35.29 12.99
12/23/2022 10:45:00 PM 2.64 36.752 0.301 7.66 40.83 13.01
12/23/2022 11:00:00 PM 2.57 36.626 0.302 7.67 39.67 13.02
12/23/2022 11:15:00 PM 2.5 36.5 0.303 7.67 28.98 13.03
12/23/2022 11:30:00 PM 2.43 36.374 0.305 7.67 32.37 13.04
12/23/2022 11:45:00 PM 2.35 36.23 0.308 7.67 25.59 13.08
12/24/2022 12:00:00 AM 2.27 36.086 0.311 7.67 28.72 13.12
12/24/2022 12:15:00 AM 2.18 35.924 0.316 7.67 36.72 13.18
12/24/2022 12:30:00 AM 2.12 35.816 0.317 7.68 27.95 13.19
12/24/2022 12:45:00 AM 2.04 35.672 0.319 7.69 26.88 13.2
12/24/2022 1:00:00 AM 1.96 35.528 0.32 7.67 37.53 13.22
12/24/2022 1:15:00 AM 1.88 35.384 0.323 7.67 24.96 13.28
12/24/2022 1:30:00 AM 1.8 35.24 0.325 7.69 23.77 13.29
12/24/2022 1:45:00 AM 1.71 35.078 0.327 7.69 31.44 13.33
12/24/2022 2:00:00 AM 1.64 34.952 0.33 7.67 25.35 13.36
12/24/2022 2:15:00 AM 1.57 34.826 0.331 7.66 25.15 13.38
12/24/2022 2:30:00 AM 1.49 34.682 0.333 7.66 28.6 13.44
12/24/2022 2:45:00 AM 1.42 34.556 0.334 7.68 21.2 13.48
12/24/2022 3:00:00 AM 1.35 34.43 0.334 7.69 35.29 13.51
12/24/2022 3:15:00 AM 1.28 34.304 0.335 7.68 25.34 13.52
12/24/2022 3:30:00 AM 1.2 34.16 0.337 7.69 22.21 13.57
12/24/2022 3:45:00 AM 1.12 34.016 0.339 7.71 21.35 13.6
12/24/2022 4:00:00 AM 1.06 33.908 0.341 7.7 18.15 13.63
12/24/2022 4:15:00 AM 0.99 33.782 0.343 7.72 19.36 13.66
12/24/2022 4:30:00 AM 0.93 33.674 0.344 7.74 20.22 13.7
12/24/2022 4:45:00 AM 0.87 33.566 0.346 7.73 21.26 13.73
12/24/2022 5:00:00 AM 0.8 33.44 0.347 7.75 19.26 13.78
12/24/2022 5:15:00 AM 0.74 33.332 0.348 7.74 17.39 13.8
12/24/2022 5:30:00 AM 0.67 33.206 0.349 7.74 17.7 13.84
12/24/2022 5:45:00 AM 0.6 33.08 0.35 7.74 18.77 13.86
12/24/2022 6:00:00 AM 0.55 32.99 0.351 7.74 16.79 13.88
12/24/2022 6:15:00 AM 0.48 32.864 0.352 7.75 17.1 13.92
12/24/2022 6:30:00 AM 0.42 32.756 0.352 7.75 16.11 13.95
12/24/2022 6:45:00 AM 0.37 32.666 0.353 7.75 14.49 13.97
12/24/2022 7:00:00 AM 0.31 32.558 0.354 7.76 14.31 14.01
12/24/2022 7:15:00 AM 0.26 32.468 0.355 7.76 16.13 14.01
12/24/2022 7:30:00 AM 0.22 32.396 0.357 7.75 15.84 14.02
12/24/2022 7:45:00 AM 0.17 32.306 0.359 7.76 14.67 14.06
12/24/2022 8:00:00 AM 0.13 32.234 0.362 7.76 14.41 14.07
12/24/2022 8:15:00 AM 0.1 32.18 0.363 7.76 15.12 14.1
12/24/2022 8:30:00 AM 0.07 32.126 0.365 7.76 13.94 14.12
12/24/2022 8:45:00 AM 0.06 32.108 0.367 7.76 13.97 14.13
12/24/2022 9:00:00 AM 0.05 32.09 0.368 7.76 12.9 14.13
12/24/2022 9:15:00 AM 0.04 32.072 0.37 7.76 13.33 14.14
12/24/2022 9:30:00 AM 0.04 32.072 0.372 7.78 12.86 14.17
12/24/2022 9:45:00 AM 0.06 32.108 0.374 7.78 12.73 14.17
12/24/2022 10:00:00 AM 0.08 32.144 0.377 7.78 12 14.18
12/24/2022 10:15:00 AM 0.09 32.162 0.378 7.78 11.27 14.19
12/24/2022 10:30:00 AM 0.11 32.198 0.38 7.78 10.93 14.19
12/24/2022 10:45:00 AM 0.13 32.234 0.382 7.78 11.43 14.19
12/24/2022 11:00:00 AM 0.17 32.306 0.383 7.78 10.97 14.19
12/24/2022 11:15:00 AM 0.2 32.36 0.385 7.78 9.8 14.2
12/24/2022 11:30:00 AM 0.21 32.378 0.387 7.78 10.13 14.18
12/24/2022 11:45:00 AM 0.24 32.432 0.388 7.78 9.66 14.21
12/24/2022 12:00:00 PM 0.25 32.45 0.389 7.78 10.11 14.21
12/24/2022 12:15:00 PM 0.29 32.522 0.39 7.79 9.76 14.22
12/24/2022 12:30:00 PM 0.32 32.576 0.391 7.79 9.17 14.21
12/24/2022 12:45:00 PM 0.36 32.648 0.392 7.8 9.31 14.21
12/24/2022 1:00:00 PM 0.39 32.702 0.393 7.79 9.39 14.22
12/24/2022 1:15:00 PM 0.41 32.738 0.393 7.79 9.29 14.22
12/24/2022 1:30:00 PM 0.43 32.774 0.393 7.79 9.58 14.23
12/24/2022 1:45:00 PM 0.45 32.81 0.393 7.8 8.17 14.23
12/24/2022 2:00:00 PM 0.46 32.828 0.393 7.8 8.04 14.24
12/24/2022 2:15:00 PM 0.46 32.828 0.393 7.81 8.06 14.25
12/24/2022 2:30:00 PM 0.47 32.846 0.394 7.81 7.75 14.26
12/24/2022 2:45:00 PM 0.47 32.846 0.394 7.82 9.13 14.27
12/24/2022 3:00:00 PM 0.47 32.846 0.396 7.83 8.6 14.28
12/24/2022 3:15:00 PM 0.46 32.828 0.397 7.82 8.13 14.29
12/24/2022 3:30:00 PM 0.46 32.828 0.398 7.82 7.95 14.28
12/24/2022 3:45:00 PM 0.45 32.81 0.399 7.83 7.74 14.28
12/24/2022 4:00:00 PM 0.44 32.792 0.4 7.83 7.64 14.29
12/24/2022 4:15:00 PM 0.44 32.792 0.401 7.84 7.84 14.29
12/24/2022 4:30:00 PM 0.44 32.792 0.401 7.83 8.14 14.29
12/24/2022 4:45:00 PM 0.43 32.774 0.402 7.85 7.43 14.29
12/24/2022 5:00:00 PM 0.43 32.774 0.403 7.85 7.44 14.29
12/24/2022 5:15:00 PM 0.44 32.792 0.403 7.86 7.44 14.28
12/24/2022 5:30:00 PM 0.44 32.792 0.404 7.87 7.16 14.29
12/24/2022 5:45:00 PM 0.43 32.774 0.405 7.86 7.65 14.29
12/24/2022 6:00:00 PM -99999.99 -179968 -99999.99 -99999.99 -99999.99 -99999.99
12/24/2022 6:15:00 PM 0.42 32.756 0.407 7.85 6.99 14.28
12/24/2022 6:30:00 PM 0.4 32.72 0.408 7.85 7.4 14.28
12/24/2022 6:45:00 PM 0.38 32.684 0.409 7.85 6.84 14.28
12/24/2022 7:00:00 PM -99999.99 -179968 -99999.99 -99999.99 -99999.99 -99999.99
12/24/2022 7:15:00 PM 0.33 32.594 0.41 7.85 6.91 14.29
12/24/2022 7:30:00 PM 0.31 32.558 0.411 7.85 6.7 14.3
12/24/2022 7:45:00 PM 0.29 32.522 0.412 7.85 6.31 14.29
12/24/2022 8:00:00 PM -99999.99 -179968 -99999.99 -99999.99 -99999.99 -99999.99
12/24/2022 8:15:00 PM 0.24 32.432 0.415 7.85 6.43 14.29
12/24/2022 8:30:00 PM 0.23 32.414 0.416 7.85 6.02 14.29
12/24/2022 8:45:00 PM 0.21 32.378 0.417 7.85 6.53 14.28
12/24/2022 9:00:00 PM -99999.99 -179968 -99999.99 -99999.99 -99999.99 -99999.99
12/24/2022 9:15:00 PM 0.2 32.36 0.418 7.94 6.33 14.27
12/24/2022 9:30:00 PM 0.2 32.36 0.419 7.88 6.83 14.27
12/24/2022 9:45:00 PM 0.2 32.36 0.419 7.86 6.52 14.27
12/24/2022 10:00:00 PM -99999.99 -179968 -99999.99 -99999.99 -99999.99 -99999.99
12/24/2022 10:15:00 PM 0.21 32.378 0.42 7.87 6.04 14.25
12/24/2022 10:30:00 PM 0.22 32.396 0.42 7.86 5.7 14.25
12/24/2022 10:45:00 PM 0.23 32.414 0.42 7.85 6.04 14.24
12/24/2022 11:00:00 PM -99999.99 -179968 -99999.99 -99999.99 -99999.99 -99999.99
12/24/2022 11:15:00 PM 0.25 32.45 0.42 7.85 6.01 14.22
12/24/2022 11:30:00 PM 0.27 32.486 0.42 7.84 6.58 14.21
12/24/2022 11:45:00 PM 0.28 32.504 0.419 7.83 5.11 14.2
12/25/2022 12:00:00 AM -99999.99 -179968 -99999.99 -99999.99 -99999.99 -99999.99
12/25/2022 12:15:00 AM 0.3 32.54 0.418 7.85 5.66 14.18
12/25/2022 12:30:00 AM 0.31 32.558 0.417 7.84 5.96 14.18
12/25/2022 12:45:00 AM 0.33 32.594 0.417 7.83 5.91 14.17
12/25/2022 1:00:00 AM 0.34 32.612 0.416 7.84 6.34 14.16
12/25/2022 1:15:00 AM 0.36 32.648 0.417 7.85 5.57 14.15
12/25/2022 1:30:00 AM 0.38 32.684 0.417 7.84 5.13 14.15
12/25/2022 1:45:00 AM 0.39 32.702 0.417 7.83 5.49 14.14
12/25/2022 2:00:00 AM 0.4 32.72 0.418 7.82 5.6 14.13
12/25/2022 2:15:00 AM 0.41 32.738 0.418 7.83 5.63 14.12
12/25/2022 2:30:00 AM 0.42 32.756 0.418 7.83 5.52 14.11
12/25/2022 2:45:00 AM 0.44 32.792 0.419 7.83 5.78 14.11
12/25/2022 3:00:00 AM 0.44 32.792 0.419 7.82 5.26 14.11
12/25/2022 3:15:00 AM 0.45 32.81 0.42 7.82 5.14 14.1
12/25/2022 3:30:00 AM 0.45 32.81 0.42 7.82 6.1 14.1
12/25/2022 3:45:00 AM 0.46 32.828 0.421 7.82 6.59 14.1
12/25/2022 4:00:00 AM 0.46 32.828 0.421 7.83 5.37 14.08
12/25/2022 4:15:00 AM 0.46 32.828 0.421 7.82 5.68 14.08
12/25/2022 4:30:00 AM 0.46 32.828 0.421 7.82 5.73 14.09
12/25/2022 4:45:00 AM 0.46 32.828 0.422 7.83 5.49 14.08
12/25/2022 5:00:00 AM 0.46 32.828 0.422 7.83 5.45 14.08
12/25/2022 5:15:00 AM 0.46 32.828 0.422 7.82 5.53 14.08
12/25/2022 5:30:00 AM 0.46 32.828 0.423 7.82 5.56 14.08
12/25/2022 5:45:00 AM 0.46 32.828 0.423 7.82 5.36 14.08
12/25/2022 6:00:00 AM 0.45 32.81 0.423 7.81 4.99 14.08
12/25/2022 6:15:00 AM 0.45 32.81 0.424 7.82 5.61 14.08
12/25/2022 6:30:00 AM 0.45 32.81 0.424 7.82 5.42 14.09
12/25/2022 6:45:00 AM 0.45 32.81 0.424 7.82 5.69 14.08
12/25/2022 7:00:00 AM 0.45 32.81 0.424 7.83 5.29 14.09
12/25/2022 7:15:00 AM 0.44 32.792 0.424 7.82 4.94 14.09
12/25/2022 7:30:00 AM 0.44 32.792 0.425 7.82 5.68 14.1
12/25/2022 7:45:00 AM 0.44 32.792 0.425 7.83 5 14.1
12/25/2022 8:00:00 AM 0.44 32.792 0.426 7.83 4.79 14.08
12/25/2022 8:15:00 AM 0.44 32.792 0.427 7.83 4.9 14.1
12/25/2022 8:30:00 AM 0.45 32.81 0.428 7.82 4.22 14.1
12/25/2022 8:45:00 AM 0.46 32.828 0.429 7.84 5.07 14.11
12/25/2022 9:00:00 AM 0.46 32.828 0.43 7.85 9.95 14.09
12/25/2022 9:15:00 AM 0.49 32.882 0.431 7.85 4.99 14.11
12/25/2022 9:30:00 AM 0.51 32.918 0.431 7.86 4.54 14.11
12/25/2022 9:45:00 AM 0.53 32.954 0.432 7.87 4.32 14.12
12/25/2022 10:00:00 AM 0.56 33.008 0.432 7.86 4.55 14.11
12/25/2022 10:15:00 AM 0.61 33.098 0.433 7.88 4.74 14.11
12/25/2022 10:30:00 AM 0.63 33.134 0.433 7.86 4.11 14.09
12/25/2022 10:45:00 AM 0.65 33.17 0.433 7.87 4.17 14.09
12/25/2022 11:00:00 AM 0.68 33.224 0.434 7.87 3.85 14.09
12/25/2022 11:15:00 AM 0.72 33.296 0.434 7.87 4.27 14.09
12/25/2022 11:30:00 AM 0.76 33.368 0.435 7.88 4.26 14.09
12/25/2022 11:45:00 AM 0.79 33.422 0.435 7.87 4.12 14.07
12/25/2022 12:00:00 PM 0.84 33.512 0.435 7.87 4 14.07
12/25/2022 12:15:00 PM 0.91 33.638 0.436 7.87 4.26 14.07
12/25/2022 12:30:00 PM 0.97 33.746 0.435 7.86 3.66 14.06
12/25/2022 12:45:00 PM 1.04 33.872 0.435 7.86 3.49 14.06
12/25/2022 1:00:00 PM 1.1 33.98 0.435 7.86 3.43 14.04
12/25/2022 1:15:00 PM 1.14 34.052 0.435 7.87 3.75 14.03
12/25/2022 1:30:00 PM 1.19 34.142 0.435 7.86 3.84 14.03
12/25/2022 1:45:00 PM 1.23 34.214 0.434 7.86 3.6 14.02
12/25/2022 2:00:00 PM 1.28 34.304 0.435 7.87 3.42 14.02
12/25/2022 2:15:00 PM 1.32 34.376 0.435 7.87 3.49 14.01
12/25/2022 2:30:00 PM 1.35 34.43 0.435 7.88 3.6 14
12/25/2022 2:45:00 PM 1.37 34.466 0.435 7.87 4.16 14
12/25/2022 3:00:00 PM 1.4 34.52 0.435 7.88 3.89 14
12/25/2022 3:15:00 PM 1.43 34.574 0.434 7.89 4.01 14
12/25/2022 3:30:00 PM 1.45 34.61 0.434 7.89 3.89 13.98
12/25/2022 3:45:00 PM 1.47 34.646 0.434 7.9 3.98 13.98
12/25/2022 4:00:00 PM 1.49 34.682 0.434 7.9 3.75 13.96
12/25/2022 4:15:00 PM 1.5 34.7 0.433 7.9 3.11 13.95
12/25/2022 4:30:00 PM 1.51 34.718 0.434 7.9 3.54 13.96
12/25/2022 4:45:00 PM 1.52 34.736 0.434 7.9 3.69 13.95
12/25/2022 5:00:00 PM 1.52 34.736 0.434 7.89 4.18 13.94
12/25/2022 5:15:00 PM 1.53 34.754 0.434 7.9 4.11 13.94
12/25/2022 5:30:00 PM 1.53 34.754 0.435 7.89 3.7 13.93
12/25/2022 5:45:00 PM 1.53 34.754 0.434 7.89 4.84 13.91
12/25/2022 6:00:00 PM 1.52 34.736 0.434 7.9 3.75 13.91
12/25/2022 6:15:00 PM 1.52 34.736 0.434 7.92 4.36 13.91
12/25/2022 6:30:00 PM 1.51 34.718 0.433 7.92 3.92 13.9
12/25/2022 6:45:00 PM 1.51 34.718 0.433 7.93 4.15 13.9
12/25/2022 7:00:00 PM 1.51 34.718 0.433 7.93 4.18 13.9
12/25/2022 7:15:00 PM 1.5 34.7 0.433 7.92 4.32 13.9
12/25/2022 7:30:00 PM 1.49 34.682 0.433 7.91 4.26 13.89
12/25/2022 7:45:00 PM 1.48 34.664 0.433 7.91 4.32 13.88
12/25/2022 8:00:00 PM 1.47 34.646 0.433 7.92 4.13 13.87
12/25/2022 8:15:00 PM 1.46 34.628 0.433 7.92 4.55 13.87
12/25/2022 8:30:00 PM 1.45 34.61 0.433 7.9 4.54 13.85
12/25/2022 8:45:00 PM 1.45 34.61 0.432 7.9 4.15 13.84
12/25/2022 9:00:00 PM 1.44 34.592 0.432 7.89 4.76 13.85
12/25/2022 9:15:00 PM 1.44 34.592 0.432 7.89 4.51 13.82
12/25/2022 9:30:00 PM 1.43 34.574 0.432 7.88 4.75 13.83
12/25/2022 9:45:00 PM 1.42 34.556 0.433 7.88 4.69 13.82
12/25/2022 10:00:00 PM 1.41 34.538 0.433 7.88 4.93 13.82
12/25/2022 10:15:00 PM 1.4 34.52 0.434 7.88 4.38 13.82
12/25/2022 10:30:00 PM 1.39 34.502 0.434 7.88 4.69 13.82
12/25/2022 10:45:00 PM 1.38 34.484 0.435 7.89 5.07 13.81
12/25/2022 11:00:00 PM 1.38 34.484 0.435 7.88 4.78 13.81
12/25/2022 11:15:00 PM 1.38 34.484 0.435 7.88 4.54 13.81
12/25/2022 11:30:00 PM 1.37 34.466 0.435 7.87 4.74 13.8
12/25/2022 11:45:00 PM 1.37 34.466 0.435 7.87 5.14 13.8
12/26/2022 12:00:00 AM 1.36 34.448 0.435 7.88 4.93 13.79
12/26/2022 12:15:00 AM 1.36 34.448 0.434 7.88 4.71 13.79
12/26/2022 12:30:00 AM 1.36 34.448 0.434 7.87 4.38 13.78
12/26/2022 12:45:00 AM 1.36 34.448 0.434 7.87 4.56 13.79
12/26/2022 1:00:00 AM 1.36 34.448 0.434 7.86 4.93 13.78
12/26/2022 1:15:00 AM 1.35 34.43 0.434 7.85 4.62 13.79
12/26/2022 1:30:00 AM 1.35 34.43 0.434 7.85 5.01 13.79
12/26/2022 1:45:00 AM 1.35 34.43 0.434 7.85 4.61 13.8
12/26/2022 2:00:00 AM 1.35 34.43 0.435 7.84 4.87 13.79
12/26/2022 2:15:00 AM 1.34 34.412 0.435 7.86 5.59 13.8
12/26/2022 2:30:00 AM 1.34 34.412 0.436 7.86 5.34 13.8
12/26/2022 2:45:00 AM 1.34 34.412 0.436 7.85 4.75 13.78
12/26/2022 3:00:00 AM 1.32 34.376 0.437 7.85 5.05 13.78
12/26/2022 3:15:00 AM 1.31 34.358 0.438 7.85 4.82 13.8
12/26/2022 3:30:00 AM 1.31 34.358 0.438 7.85 4.89 13.8
12/26/2022 3:45:00 AM 1.29 34.322 0.439 7.85 5.78 13.8
12/26/2022 4:00:00 AM 1.29 34.322 0.44 7.87 4.61 13.8
12/26/2022 4:15:00 AM 1.28 34.304 0.44 7.87 5.03 13.81
12/26/2022 4:30:00 AM 1.27 34.286 0.441 7.86 4.68 13.8
12/26/2022 4:45:00 AM 1.26 34.268 0.442 7.87 4.74 13.8
12/26/2022 5:00:00 AM 1.25 34.25 0.442 7.87 5.28 13.81
12/26/2022 5:15:00 AM 1.23 34.214 0.443 7.87 4.86 13.83
12/26/2022 5:30:00 AM 1.21 34.178 0.443 7.88 4.65 13.83
12/26/2022 5:45:00 AM -99999.99 -179968 -99999.99 -99999.99 -99999.99 -99999.99
12/26/2022 6:00:00 AM -99999.99 -179968 -99999.99 -99999.99 -99999.99 -99999.99
12/26/2022 6:15:00 AM -99999.99 -179968 -99999.99 -99999.99 -99999.99 -99999.99
12/26/2022 6:30:00 AM -99999.99 -179968 -99999.99 -99999.99 -99999.99 -99999.99
12/26/2022 6:45:00 AM -99999.99 -179968 -99999.99 -99999.99 -99999.99 -99999.99
12/26/2022 7:00:00 AM -99999.99 -179968 -99999.99 -99999.99 -99999.99 -99999.99
12/26/2022 7:15:00 AM -99999.99 -179968 -99999.99 -99999.99 -99999.99 -99999.99
12/26/2022 7:30:00 AM -99999.99 -179968 -99999.99 -99999.99 -99999.99 -99999.99
12/26/2022 7:45:00 AM -99999.99 -179968 -99999.99 -99999.99 -99999.99 -99999.99
12/26/2022 8:00:00 AM -99999.99 -179968 -99999.99 -99999.99 -99999.99 -99999.99
12/26/2022 8:15:00 AM -99999.99 -179968 -99999.99 -99999.99 -99999.99 -99999.99
12/26/2022 8:30:00 AM -99999.99 -179968 -99999.99 -99999.99 -99999.99 -99999.99
12/26/2022 8:45:00 AM -99999.99 -179968 -99999.99 -99999.99 -99999.99 -99999.99
12/26/2022 9:00:00 AM -99999.99 -179968 -99999.99 -99999.99 -99999.99 -99999.99
12/26/2022 9:15:00 AM -99999.99 -179968 -99999.99 -99999.99 -99999.99 -99999.99
12/26/2022 9:30:00 AM -99999.99 -179968 -99999.99 -99999.99 -99999.99 -99999.99
12/26/2022 9:45:00 AM -99999.99 -179968 -99999.99 -99999.99 -99999.99 -99999.99
12/26/2022 10:00:00 AM -99999.99 -179968 -99999.99 -99999.99 -99999.99 -99999.99
12/26/2022 10:15:00 AM -99999.99 -179968 -99999.99 -99999.99 -99999.99 -99999.99
12/26/2022 10:30:00 AM -99999.99 -179968 -99999.99 -99999.99 -99999.99 -99999.99
12/26/2022 10:45:00 AM -99999.99 -179968 -99999.99 -99999.99 -99999.99 -99999.99
12/26/2022 11:00:00 AM -99999.99 -179968 -99999.99 -99999.99 -99999.99 -99999.99
12/26/2022 11:15:00 AM -99999.99 -179968 -99999.99 -99999.99 -99999.99 -99999.99
12/26/2022 11:30:00 AM -99999.99 -179968 -99999.99 -99999.99 -99999.99 -99999.99
12/26/2022 11:45:00 AM -99999.99 -179968 -99999.99 -99999.99 -99999.99 -99999.99
12/26/2022 12:00:00 PM -99999.99 -179968 -99999.99 -99999.99 -99999.99 -99999.99
12/26/2022 12:15:00 PM -99999.99 -179968 -99999.99 -99999.99 -99999.99 -99999.99
12/26/2022 12:30:00 PM -99999.99 -179968 -99999.99 -99999.99 -99999.99 -99999.99
12/26/2022 12:45:00 PM -99999.99 -179968 -99999.99 -99999.99 -99999.99 -99999.99
12/26/2022 1:00:00 PM -99999.99 -179968 -99999.99 -99999.99 -99999.99 -99999.99
12/26/2022 1:15:00 PM -99999.99 -179968 -99999.99 -99999.99 -99999.99 -99999.99
12/26/2022 1:30:00 PM -99999.99 -179968 -99999.99 -99999.99 -99999.99 -99999.99
12/26/2022 1:45:00 PM -99999.99 -179968 -99999.99 -99999.99 -99999.99 -99999.99
12/26/2022 2:00:00 PM -99999.99 -179968 -99999.99 -99999.99 -99999.99 -99999.99
12/26/2022 2:15:00 PM -99999.99 -179968 -99999.99 -99999.99 -99999.99 -99999.99
12/26/2022 2:30:00 PM -99999.99 -179968 -99999.99 -99999.99 -99999.99 -99999.99
12/26/2022 2:45:00 PM -99999.99 -179968 -99999.99 -99999.99 -99999.99 -99999.99
12/26/2022 3:00:00 PM -99999.99 -179968 -99999.99 -99999.99 -99999.99 -99999.99
12/26/2022 3:15:00 PM -99999.99 -179968 -99999.99 -99999.99 -99999.99 -99999.99
12/26/2022 3:30:00 PM -99999.99 -179968 -99999.99 -99999.99 -99999.99 -99999.99
12/26/2022 3:45:00 PM -99999.99 -179968 -99999.99 -99999.99 -99999.99 -99999.99
12/26/2022 4:00:00 PM -99999.99 -179968 -99999.99 -99999.99 -99999.99 -99999.99
12/26/2022 4:15:00 PM -99999.99 -179968 -99999.99 -99999.99 -99999.99 -99999.99
12/26/2022 4:30:00 PM 1.85 35.33 0.448 8.01 3.38 13.95
12/26/2022 4:45:00 PM 1.88 35.384 0.448 7.96 3.42 13.94
12/26/2022 5:00:00 PM 1.9 35.42 0.447 7.97 3.14 13.91
12/26/2022 5:15:00 PM 1.93 35.474 0.447 7.97 3.29 13.89
12/26/2022 5:30:00 PM 1.95 35.51 0.447 7.97 3.27 13.88
12/26/2022 5:45:00 PM 1.98 35.564 0.446 7.97 3.13 13.86
12/26/2022 6:00:00 PM 2 35.6 0.446 7.96 3.44 13.87
12/26/2022 6:15:00 PM 2.02 35.636 0.446 7.98 3.32 13.85
12/26/2022 6:30:00 PM 2.04 35.672 0.446 7.97 3.28 13.84
12/26/2022 6:45:00 PM 2.06 35.708 0.447 7.97 3.82 13.82
12/26/2022 7:00:00 PM 2.08 35.744 0.447 7.98 3.7 13.81
12/26/2022 7:15:00 PM 2.09 35.762 0.447 7.96 3.7 13.82
12/26/2022 7:30:00 PM 2.1 35.78 0.448 7.95 3.79 13.78
12/26/2022 7:45:00 PM 2.12 35.816 0.448 7.95 3.57 13.77
12/26/2022 8:00:00 PM 2.14 35.852 0.449 7.95 3.94 13.77
12/26/2022 8:15:00 PM 2.15 35.87 0.449 7.95 4.17 13.74
12/26/2022 8:30:00 PM 2.16 35.888 0.449 7.95 3.86 13.73
12/26/2022 8:45:00 PM 2.16 35.888 0.449 7.95 3.55 13.71
12/26/2022 9:00:00 PM 2.17 35.906 0.449 7.94 4.01 13.7
12/26/2022 9:15:00 PM 2.18 35.924 0.449 7.94 4.19 13.67
12/26/2022 9:30:00 PM 2.19 35.942 0.449 7.94 3.38 13.66
12/26/2022 9:45:00 PM 2.2 35.96 0.449 7.94 3.92 13.63
12/26/2022 10:00:00 PM 2.21 35.978 0.449 7.93 3.13 13.62
12/26/2022 10:15:00 PM 2.21 35.978 0.449 7.92 3.83 13.6
12/26/2022 10:30:00 PM 2.22 35.996 0.448 7.93 3.22 13.59
12/26/2022 10:45:00 PM 2.23 36.014 0.448 7.92 4.27 13.57
12/26/2022 11:00:00 PM 2.23 36.014 0.448 7.92 4.13 13.57
12/26/2022 11:15:00 PM 2.23 36.014 0.448 7.93 3.79 13.56
12/26/2022 11:30:00 PM 2.24 36.032 0.448 7.92 4.1 13.56
12/26/2022 11:45:00 PM 2.24 36.032 0.448 7.93 3.65 13.55
12/27/2022 12:00:00 AM 2.25 36.05 0.448 7.92 3.56 13.53
12/27/2022 12:15:00 AM 2.26 36.068 0.449 7.93 3.78 13.51
12/27/2022 12:30:00 AM 2.27 36.086 0.449 7.93 3.73 13.51
12/27/2022 12:45:00 AM 2.28 36.104 0.449 7.92 3.65 13.5
12/27/2022 1:00:00 AM 2.3 36.14 0.45 7.91 3.68 13.49
12/27/2022 1:15:00 AM 2.32 36.176 0.45 7.93 4.29 13.47
12/27/2022 1:30:00 AM 2.34 36.212 0.45 7.93 4.74 13.42
12/27/2022 1:45:00 AM 2.35 36.23 0.451 7.92 4.03 13.42
12/27/2022 2:00:00 AM 2.37 36.266 0.451 7.92 4.8 13.44
12/27/2022 2:15:00 AM 2.4 36.32 0.451 7.92 4.65 13.44
12/27/2022 2:30:00 AM 2.42 36.356 0.45 7.92 4.18 13.43
12/27/2022 2:45:00 AM 2.44 36.392 0.45 7.91 4.56 13.41
12/27/2022 3:00:00 AM 2.46 36.428 0.45 7.9 3.83 13.4
12/27/2022 3:15:00 AM 2.47 36.446 0.45 7.91 4.54 13.36
12/27/2022 3:30:00 AM 2.5 36.5 0.45 7.9 3.95 13.37
12/27/2022 3:45:00 AM 2.52 36.536 0.45 7.9 3.5 13.38
12/27/2022 4:00:00 AM 2.54 36.572 0.45 7.89 4.18 13.36
12/27/2022 4:15:00 AM 2.56 36.608 0.45 7.9 4.14 13.34
12/27/2022 4:30:00 AM 2.57 36.626 0.449 7.89 3.84 13.33
12/27/2022 4:45:00 AM 2.59 36.662 0.45 7.9 4.33 13.33
12/27/2022 5:00:00 AM 2.61 36.698 0.45 7.89 4.9 13.31
12/27/2022 5:15:00 AM 2.62 36.716 0.45 7.91 3.88 13.3
12/27/2022 5:30:00 AM 2.64 36.752 0.452 7.9 3.97 13.3
12/27/2022 5:45:00 AM 2.65 36.77 0.453 7.89 3.29 13.29
12/27/2022 6:00:00 AM 2.67 36.806 0.454 7.88 3.15 13.28
12/27/2022 6:15:00 AM 2.69 36.842 0.455 7.88 3.63 13.27
12/27/2022 6:30:00 AM 2.7 36.86 0.456 7.88 2.95 13.27
12/27/2022 6:45:00 AM 2.71 36.878 0.457 7.88 2.91 13.25
12/27/2022 7:00:00 AM 2.72 36.896 0.458 7.88 3.19 13.26
12/27/2022 7:15:00 AM 2.73 36.914 0.459 7.88 3.1 13.27
12/27/2022 7:30:00 AM 2.73 36.914 0.46 7.87 3.27 13.25
12/27/2022 7:45:00 AM 2.74 36.932 0.46 7.87 3.52 13.23
12/27/2022 8:00:00 AM 2.75 36.95 0.46 7.87 3.33 13.26
12/27/2022 8:15:00 AM 2.75 36.95 0.46 7.87 3.53 13.25
12/27/2022 8:30:00 AM 2.76 36.968 0.459 7.86 3.72 13.27
12/27/2022 8:45:00 AM 2.77 36.986 0.459 7.87 3.73 13.25
12/27/2022 9:00:00 AM 2.77 36.986 0.459 7.86 3.99 13.29
12/27/2022 9:15:00 AM 2.78 37.004 0.458 7.88 3.75 13.28
12/27/2022 9:30:00 AM 2.79 37.022 0.458 7.88 3.4 13.3
12/27/2022 9:45:00 AM 2.81 37.058 0.457 7.89 3.64 13.29
12/27/2022 10:00:00 AM 2.82 37.076 0.457 7.88 2.83 13.3
12/27/2022 10:15:00 AM 2.83 37.094 0.456 7.88 3.16 13.3
12/27/2022 10:30:00 AM 2.85 37.13 0.456 7.89 3.25 13.3
12/27/2022 10:45:00 AM 2.87 37.166 0.455 7.88 3.02 13.3
12/27/2022 11:00:00 AM 2.89 37.202 0.455 7.87 3.41 13.31
12/27/2022 11:15:00 AM 2.9 37.22 0.455 7.9 2.67 13.3
12/27/2022 11:30:00 AM 2.92 37.256 0.455 7.9 3.3 13.32
12/27/2022 11:45:00 AM 2.95 37.31 0.456 7.89 3.13 13.32
12/27/2022 12:00:00 PM 2.97 37.346 0.456 7.89 2.94 13.33
12/27/2022 12:15:00 PM 3 37.4 0.457 7.89 3.37 13.32
12/27/2022 12:30:00 PM 3.03 37.454 0.457 7.89 2.64 13.32
12/27/2022 12:45:00 PM 3.07 37.526 0.457 7.89 2.66 13.33
12/27/2022 1:00:00 PM 3.1 37.58 0.457 7.9 3.16 13.32
12/27/2022 1:15:00 PM 3.14 37.652 0.457 7.9 2.54 13.33
12/27/2022 1:30:00 PM 3.17 37.706 0.457 7.91 3.33 13.33
12/27/2022 1:45:00 PM 3.2 37.76 0.457 7.91 2.68 13.31
12/27/2022 2:00:00 PM 3.25 37.85 0.456 7.91 2.5 13.34
12/27/2022 2:15:00 PM 3.3 37.94 0.456 7.91 2.85 13.34
12/27/2022 2:30:00 PM 3.33 37.994 0.456 7.92 3.09 13.34
12/27/2022 2:45:00 PM 3.36 38.048 0.455 7.91 3.27 13.33
12/27/2022 3:00:00 PM 3.38 38.084 0.455 7.91 2.65 13.32
12/27/2022 3:15:00 PM 3.41 38.138 0.454 7.91 3.16 13.32
12/27/2022 3:30:00 PM 3.44 38.192 0.454 7.92 2.62 13.32
12/27/2022 3:45:00 PM 3.46 38.228 0.453 7.93 2.8 13.3
12/27/2022 4:00:00 PM 3.48 38.264 0.453 7.94 3.38 13.32
12/27/2022 4:15:00 PM 3.5 38.3 0.452 7.94 2.89 13.31
12/27/2022 4:30:00 PM 3.51 38.318 0.452 7.94 3 13.27
12/27/2022 4:45:00 PM 3.54 38.372 0.452 7.96 2.64 13.29
12/27/2022 5:00:00 PM 3.56 38.408 0.452 7.95 3.08 13.28
12/27/2022 5:15:00 PM 3.57 38.426 0.452 7.95 4.14 13.26
12/27/2022 5:30:00 PM 3.6 38.48 0.452 7.95 3 13.24
12/27/2022 5:45:00 PM 3.61 38.498 0.452 7.96 2.88 13.22
12/27/2022 6:00:00 PM 3.63 38.534 0.452 7.97 2.76 13.25
12/27/2022 6:15:00 PM 3.65 38.57 0.451 7.98 3.07 13.23
12/27/2022 6:30:00 PM 3.67 38.606 0.451 7.97 2.55 13.21
12/27/2022 6:45:00 PM 3.68 38.624 0.451 7.97 2.88 13.18
12/27/2022 7:00:00 PM 3.69 38.642 0.45 7.97 4.64 13.17
12/27/2022 7:15:00 PM 3.7 38.66 0.45 7.97 3.11 13.22
12/27/2022 7:30:00 PM 3.7 38.66 0.45 7.96 2.78 13.21
12/27/2022 7:45:00 PM 3.71 38.678 0.45 7.96 2.78 13.19
12/27/2022 8:00:00 PM 3.71 38.678 0.449 7.96 2.73 13.18
12/27/2022 8:15:00 PM 3.71 38.678 0.449 7.95 3.14 13.12
12/27/2022 8:30:00 PM 3.71 38.678 0.449 7.94 3.08 13.15
12/27/2022 8:45:00 PM 3.71 38.678 0.448 7.95 2.74 13.14
12/27/2022 9:00:00 PM 3.72 38.696 0.448 7.94 3.12 13.13
12/27/2022 9:15:00 PM 3.72 38.696 0.448 7.93 3.63 13.05
12/27/2022 9:30:00 PM 3.72 38.696 0.447 7.93 2.94 12.99
12/27/2022 9:45:00 PM 3.73 38.714 0.447 7.91 3.4 12.98
12/27/2022 10:00:00 PM 3.73 38.714 0.447 7.89 3.16 13.03
12/27/2022 10:15:00 PM 3.74 38.732 0.446 7.9 3.31 13.05
12/27/2022 10:30:00 PM 3.74 38.732 0.446 7.91 2.54 13.03
12/27/2022 10:45:00 PM 3.74 38.732 0.446 7.91 3.29 13.01
12/27/2022 11:00:00 PM 3.74 38.732 0.446 7.93 3.55 13
12/27/2022 11:15:00 PM 3.75 38.75 0.446 7.92 3.84 12.98
12/27/2022 11:30:00 PM 3.75 38.75 0.446 7.92 3.09 12.92
12/27/2022 11:45:00 PM 3.75 38.75 0.446 7.91 2.68 12.95
12/28/2022 12:00:00 AM 3.75 38.75 0.446 7.91 3.66 12.94
12/28/2022 12:15:00 AM 3.75 38.75 0.447 7.91 3.09 12.94
12/28/2022 12:30:00 AM 3.75 38.75 0.447 7.91 3.48 12.92
12/28/2022 12:45:00 AM 3.75 38.75 0.447 7.9 3.53 12.91
12/28/2022 1:00:00 AM 3.74 38.732 0.448 7.9 2.68 12.91
12/28/2022 1:15:00 AM 3.74 38.732 0.448 7.91 3.31 12.89
12/28/2022 1:30:00 AM 3.74 38.732 0.448 7.9 3.23 12.9
12/28/2022 1:45:00 AM 3.73 38.714 0.448 7.91 3.29 12.82
12/28/2022 2:00:00 AM 3.73 38.714 0.449 7.91 3.39 12.89
12/28/2022 2:15:00 AM 3.72 38.696 0.449 7.9 3.19 12.9
12/28/2022 2:30:00 AM 3.72 38.696 0.449 7.89 3.71 12.88
12/28/2022 2:45:00 AM 3.71 38.678 0.449 7.88 3.31 12.86
12/28/2022 3:00:00 AM 3.71 38.678 0.45 7.89 3.2 12.89
12/28/2022 3:15:00 AM 3.7 38.66 0.45 7.88 3.39 12.88
12/28/2022 3:30:00 AM 3.69 38.642 0.451 7.87 4.11 12.85
12/28/2022 3:45:00 AM 3.68 38.624 0.451 7.87 2.85 12.9
12/28/2022 4:00:00 AM 3.67 38.606 0.452 7.88 3.4 12.88
12/28/2022 4:15:00 AM 3.66 38.588 0.452 7.89 3.6 12.86
12/28/2022 4:30:00 AM 3.65 38.57 0.453 7.88 3.53 12.9
12/28/2022 4:45:00 AM 3.63 38.534 0.454 7.89 3.49 12.89
12/28/2022 5:00:00 AM 3.61 38.498 0.454 7.88 3.53 12.84
12/28/2022 5:15:00 AM 3.6 38.48 0.454 7.88 2.53 12.87
12/28/2022 5:30:00 AM 3.58 38.444 0.454 7.88 3.49 12.9
12/28/2022 5:45:00 AM 3.56 38.408 0.455 7.88 3.28 12.88
12/28/2022 6:00:00 AM 3.54 38.372 0.455 7.87 3.04 12.84
12/28/2022 6:15:00 AM 3.51 38.318 0.455 7.88 3.65 12.91
12/28/2022 6:30:00 AM 3.49 38.282 0.456 7.88 2.93 12.89
12/28/2022 6:45:00 AM 3.47 38.246 0.456 7.89 3.3 12.92
12/28/2022 7:00:00 AM 3.45 38.21 0.456 7.88 3.32 12.88
12/28/2022 7:15:00 AM 3.43 38.174 0.457 7.89 4.03 12.9
12/28/2022 7:30:00 AM 3.41 38.138 0.457 7.87 2.58 12.93
12/28/2022 7:45:00 AM 3.39 38.102 0.457 7.88 3.38 12.94
12/28/2022 8:00:00 AM 3.36 38.048 0.457 7.88 3.56 12.97
12/28/2022 8:15:00 AM 3.34 38.012 0.457 7.89 3.74 12.99
12/28/2022 8:30:00 AM 3.32 37.976 0.457 7.89 3.7 13
12/28/2022 8:45:00 AM 3.31 37.958 0.457 7.89 3.77 13.01
12/28/2022 9:00:00 AM 3.29 37.922 0.457 7.89 3.11 13.03
12/28/2022 9:15:00 AM 3.29 37.922 0.457 7.88 3.05 13.04
12/28/2022 9:30:00 AM 3.28 37.904 0.458 7.88 2.73 13.06
12/28/2022 9:45:00 AM 3.29 37.922 0.458 7.89 3.08 13.09
12/28/2022 10:00:00 AM 3.29 37.922 0.458 7.9 3.18 13.1
12/28/2022 10:15:00 AM 3.3 37.94 0.458 7.9 2.75 13.1
12/28/2022 10:30:00 AM 3.31 37.958 0.459 7.9 3.07 13.12
12/28/2022 10:45:00 AM 3.32 37.976 0.459 7.9 2.73 13.12
12/28/2022 11:00:00 AM 3.32 37.976 0.459 7.9 2.57 13.13
12/28/2022 11:15:00 AM 3.33 37.994 0.46 7.91 3.48 13.14
12/28/2022 11:30:00 AM 3.34 38.012 0.46 7.91 2.86 13.15
12/28/2022 11:45:00 AM 3.37 38.066 0.46 7.92 2.73 13.14
12/28/2022 12:00:00 PM 3.4 38.12 0.461 7.91 2.66 13.15
12/28/2022 12:15:00 PM 3.44 38.192 0.461 7.91 3.04 13.14
12/28/2022 12:30:00 PM 3.48 38.264 0.461 7.91 2.89 13.14
12/28/2022 12:45:00 PM 3.52 38.336 0.461 7.91 2.68 13.14
12/28/2022 1:00:00 PM 3.57 38.426 0.461 7.91 2.92 13.14
12/28/2022 1:15:00 PM 3.63 38.534 0.461 7.92 2.54 13.12
12/28/2022 1:30:00 PM 3.69 38.642 0.46 7.92 3.13 13.13
12/28/2022 1:45:00 PM 3.75 38.75 0.459 7.91 2.52 13.12
12/28/2022 2:00:00 PM 3.8 38.84 0.458 7.92 2.81 13.12
12/28/2022 2:15:00 PM 3.85 38.93 0.458 7.92 2.47 13.11
12/28/2022 2:30:00 PM 3.91 39.038 0.457 7.94 2.67 13.1
12/28/2022 2:45:00 PM 3.96 39.128 0.457 7.92 2.77 13.1
12/28/2022 3:00:00 PM 4.01 39.218 0.456 7.93 2.42 13.09
12/28/2022 3:15:00 PM 4.05 39.29 0.455 7.94 2.78 13.07
12/28/2022 3:30:00 PM 4.1 39.38 0.455 7.95 2.65 13.08
12/28/2022 3:45:00 PM 4.13 39.434 0.455 7.94 2.43 13.08
12/28/2022 4:00:00 PM 4.18 39.524 0.455 7.96 2.67 13.06
12/28/2022 4:15:00 PM 4.21 39.578 0.455 7.95 2.93 13.05
12/28/2022 4:30:00 PM 4.24 39.632 0.455 7.95 2.41 13.03
12/28/2022 4:45:00 PM 4.27 39.686 0.455 7.95 2.24 13.03
12/28/2022 5:00:00 PM 4.3 39.74 0.455 7.93 2.85 12.99
12/28/2022 5:15:00 PM 4.33 39.794 0.454 7.96 2.35 12.98
12/28/2022 5:30:00 PM 4.35 39.83 0.454 7.93 2.72 12.92
12/28/2022 5:45:00 PM 4.38 39.884 0.455 7.95 2.61 12.97
12/28/2022 6:00:00 PM 4.41 39.938 0.455 7.96 2.66 12.94
12/28/2022 6:15:00 PM 4.43 39.974 0.455 7.97 2.56 12.92
12/28/2022 6:30:00 PM 4.44 39.992 0.455 7.94 2.2 12.95
12/28/2022 6:45:00 PM 4.46 40.028 0.455 7.95 2.93 12.9
12/28/2022 7:00:00 PM 4.47 40.046 0.455 7.93 2.46 12.87
12/28/2022 7:15:00 PM 4.48 40.064 0.454 7.94 2.55 12.87
12/28/2022 7:30:00 PM 4.49 40.082 0.454 7.93 2.53 12.87
12/28/2022 7:45:00 PM 4.5 40.1 0.453 7.92 2.62 12.84
12/28/2022 8:00:00 PM 4.5 40.1 0.453 7.93 2.98 12.85
12/28/2022 8:15:00 PM 4.5 40.1 0.452 7.92 2.95 12.82
12/28/2022 8:30:00 PM 4.5 40.1 0.452 7.92 2.81 12.83
12/28/2022 8:45:00 PM 4.49 40.082 0.452 7.9 2.55 12.86
12/28/2022 9:00:00 PM 4.48 40.064 0.452 7.9 4.07 12.78
12/28/2022 9:15:00 PM 4.47 40.046 0.452 7.9 3.59 12.78
12/28/2022 9:30:00 PM 4.45 40.01 0.451 7.9 2.74 12.81
12/28/2022 9:45:00 PM 4.44 39.992 0.451 7.91 3.24 12.81
12/28/2022 10:00:00 PM 4.42 39.956 0.451 7.92 2.84 12.75
12/28/2022 10:15:00 PM 4.4 39.92 0.451 7.91 3.29 12.71
12/28/2022 10:30:00 PM 4.38 39.884 0.451 7.91 3.25 12.77
12/28/2022 10:45:00 PM 4.35 39.83 0.451 7.91 3.1 12.77
12/28/2022 11:00:00 PM 4.33 39.794 0.451 7.91 3.26 12.76
12/28/2022 11:15:00 PM 4.3 39.74 0.451 7.91 3.3 12.68
12/28/2022 11:30:00 PM 4.27 39.686 0.45 7.91 3.83 12.72
12/28/2022 11:45:00 PM 4.24 39.632 0.45 7.91 4.14 12.71
12/29/2022 12:00:00 AM 4.2 39.56 0.449 7.91 2.95 12.72
12/29/2022 12:15:00 AM 4.17 39.506 0.449 7.91 3.74 12.72
12/29/2022 12:30:00 AM 4.13 39.434 0.448 7.91 3.48 12.77
12/29/2022 12:45:00 AM 4.1 39.38 0.448 7.91 2.93 12.8
12/29/2022 1:00:00 AM 4.06 39.308 0.447 7.9 3.82 12.78
12/29/2022 1:15:00 AM 4.02 39.236 0.447 7.9 3.33 12.79
12/29/2022 1:30:00 AM 3.99 39.182 0.447 7.9 3.56 12.79
12/29/2022 1:45:00 AM 3.96 39.128 0.447 7.91 3.5 12.74
12/29/2022 2:00:00 AM 3.92 39.056 0.447 7.92 3.68 12.8
12/29/2022 2:15:00 AM 3.9 39.02 0.448 7.91 3.21 12.8
12/29/2022 2:30:00 AM 3.87 38.966 0.448 7.92 3.57 12.82
12/29/2022 2:45:00 AM 3.84 38.912 0.449 7.92 4.02 12.82
12/29/2022 3:00:00 AM 3.82 38.876 0.449 7.92 3.5 12.79
12/29/2022 3:15:00 AM 3.8 38.84 0.45 7.91 3.93 12.82
12/29/2022 3:30:00 AM 3.77 38.786 0.45 7.89 3.81 12.85
12/29/2022 3:45:00 AM 3.75 38.75 0.451 7.9 3.01 12.82
12/29/2022 4:00:00 AM 3.74 38.732 0.451 7.9 3.47 12.84
12/29/2022 4:15:00 AM 3.72 38.696 0.452 7.92 3.65 12.83
12/29/2022 4:30:00 AM 3.7 38.66 0.453 7.9 3.9 12.85
12/29/2022 4:45:00 AM 3.69 38.642 0.454 7.91 3.67 12.84
12/29/2022 5:00:00 AM 3.67 38.606 0.455 7.9 3.68 12.85
12/29/2022 5:15:00 AM 3.66 38.588 0.456 7.9 3.19 12.85
12/29/2022 5:30:00 AM 3.64 38.552 0.456 7.91 3.87 12.85
12/29/2022 5:45:00 AM 3.63 38.534 0.457 7.9 3.89 12.85
12/29/2022 6:00:00 AM 3.62 38.516 0.459 7.91 3.92 12.86
12/29/2022 6:15:00 AM 3.6 38.48 0.46 7.9 3.24 12.81
12/29/2022 6:30:00 AM 3.59 38.462 0.461 7.91 3.81 12.83
12/29/2022 6:45:00 AM 3.58 38.444 0.462 7.92 3.22 12.84
12/29/2022 7:00:00 AM 3.57 38.426 0.464 7.93 3.35 12.88
12/29/2022 7:15:00 AM 3.56 38.408 0.464 7.92 3.81 12.81
12/29/2022 7:30:00 AM 3.55 38.39 0.466 7.91 4.62 12.83
12/29/2022 7:45:00 AM 3.53 38.354 0.468 7.92 3.73 12.85
12/29/2022 8:00:00 AM 3.52 38.336 0.468 7.92 4.29 12.84
12/29/2022 8:15:00 AM 3.51 38.318 0.47 7.91 4.24 12.89
12/29/2022 8:30:00 AM 3.51 38.318 0.471 7.91 3.98 12.9
12/29/2022 8:45:00 AM 3.5 38.3 0.472 7.91 3.71 12.91
12/29/2022 9:00:00 AM 3.5 38.3 0.472 7.91 3.38 12.95
12/29/2022 9:15:00 AM 3.5 38.3 0.473 7.91 3.43 12.96
12/29/2022 9:30:00 AM 3.51 38.318 0.473 7.91 3.54 12.98
12/29/2022 9:45:00 AM 3.52 38.336 0.473 7.9 3.62 13
12/29/2022 10:00:00 AM 3.54 38.372 0.472 7.91 3.74 13
12/29/2022 10:15:00 AM 3.55 38.39 0.472 7.91 3.38 13
12/29/2022 10:30:00 AM 3.57 38.426 0.471 7.91 2.89 13.02
12/29/2022 10:45:00 AM 3.58 38.444 0.471 7.92 2.9 13.05
12/29/2022 11:00:00 AM 3.6 38.48 0.47 7.92 3.53 13.04
12/29/2022 11:15:00 AM 3.62 38.516 0.469 7.92 3.16 13.04
12/29/2022 11:30:00 AM 3.63 38.534 0.468 7.92 3.24 13.05
12/29/2022 11:45:00 AM 3.66 38.588 0.468 7.91 3.19 13.04
12/29/2022 12:00:00 PM 3.69 38.642 0.467 7.92 3.36 13.04
12/29/2022 12:15:00 PM 3.73 38.714 0.465 7.91 2.59 13.03
12/29/2022 12:30:00 PM 3.76 38.768 0.465 7.92 3.42 13.06
12/29/2022 12:45:00 PM 3.8 38.84 0.464 7.93 2.83 13.03
12/29/2022 1:00:00 PM 3.85 38.93 0.464 7.92 3.3 13.06
12/29/2022 1:15:00 PM 3.89 39.002 0.464 7.91 3.31 13.03
12/29/2022 1:30:00 PM 3.95 39.11 0.463 7.93 4.56 12.97
12/29/2022 1:45:00 PM 4 39.2 0.463 7.93 3.63 12.97
12/29/2022 2:00:00 PM 4.05 39.29 0.463 7.94 2.72 12.96
12/29/2022 2:15:00 PM 4.11 39.398 0.463 7.94 2.78 12.97
12/29/2022 2:30:00 PM 4.17 39.506 0.462 7.93 2.32 12.95
12/29/2022 2:45:00 PM 4.23 39.614 0.462 7.92 5.11 12.95
12/29/2022 3:00:00 PM 4.27 39.686 0.456 7.94 3.32 12.91
12/29/2022 3:15:00 PM 4.31 39.758 0.456 7.93 3.28 12.88
12/29/2022 3:30:00 PM 4.35 39.83 0.455 7.94 2.78 12.78
12/29/2022 3:45:00 PM 4.39 39.902 0.461 7.94 8.08 12.83
12/29/2022 4:00:00 PM 4.44 39.992 0.46 7.94 5.88 12.88
12/29/2022 4:15:00 PM 4.47 40.046 0.46 7.95 2.43 12.92
12/29/2022 4:30:00 PM 4.5 40.1 0.459 7.95 2.29 12.91
12/29/2022 4:45:00 PM 4.53 40.154 0.459 7.95 2.67 12.93
12/29/2022 5:00:00 PM 4.54 40.172 0.459 7.95 2.61 12.87
12/29/2022 5:15:00 PM 4.57 40.226 0.458 7.96 2.35 12.89
12/29/2022 5:30:00 PM 4.6 40.28 0.458 7.96 2.21 12.93
12/29/2022 5:45:00 PM 4.62 40.316 0.457 7.96 1.91 12.94
12/29/2022 6:00:00 PM 4.65 40.37 0.457 7.97 2.36 12.93
12/29/2022 6:15:00 PM 4.67 40.406 0.457 7.98 2.07 12.92
12/29/2022 6:30:00 PM 4.7 40.46 0.457 7.98 2.25 12.92
12/29/2022 6:45:00 PM 4.72 40.496 0.457 7.98 1.82 12.92
12/29/2022 7:00:00 PM 4.74 40.532 0.457 7.98 2.01 12.9
12/29/2022 7:15:00 PM 4.75 40.55 0.457 7.98 1.93 12.89
12/29/2022 7:30:00 PM 4.77 40.586 0.457 7.97 2.38 12.88
12/29/2022 7:45:00 PM 4.78 40.604 0.457 7.97 2.48 12.87
12/29/2022 8:00:00 PM 4.78 40.604 0.457 7.97 2.33 12.86
12/29/2022 8:15:00 PM 4.79 40.622 0.456 7.94 2.34 12.84
12/29/2022 8:30:00 PM 4.79 40.622 0.456 7.95 2.94 12.83
12/29/2022 8:45:00 PM 4.79 40.622 0.456 7.94 2.29 12.82
12/29/2022 9:00:00 PM 4.78 40.604 0.456 7.95 2.22 12.81
12/29/2022 9:15:00 PM 4.77 40.586 0.456 7.95 2.29 12.8
12/29/2022 9:30:00 PM 4.75 40.55 0.456 7.95 2.12 12.78
12/29/2022 9:45:00 PM 4.74 40.532 0.455 7.94 2.08 12.78
12/29/2022 10:00:00 PM 4.72 40.496 0.455 7.95 2.41 12.76
12/29/2022 10:15:00 PM 4.71 40.478 0.455 7.95 2.59 12.75
12/29/2022 10:30:00 PM 4.7 40.46 0.455 7.94 3.01 12.74
12/29/2022 10:45:00 PM 4.69 40.442 0.455 7.95 2.89 12.73
12/29/2022 11:00:00 PM 4.67 40.406 0.454 7.96 2.52 12.71
12/29/2022 11:15:00 PM 4.65 40.37 0.454 7.93 2.29 12.7
12/29/2022 11:30:00 PM 4.64 40.352 0.454 7.92 2.51 12.7
12/29/2022 11:45:00 PM 4.62 40.316 0.453 7.92 2.64 12.7
12/30/2022 12:00:00 AM 4.6 40.28 0.453 7.92 3.21 12.69
12/30/2022 12:15:00 AM 4.59 40.262 0.453 7.92 2.38 12.68
12/30/2022 12:30:00 AM 4.57 40.226 0.452 7.91 2.58 12.68
12/30/2022 12:45:00 AM 4.55 40.19 0.452 7.91 2.72 12.68
12/30/2022 1:00:00 AM 4.52 40.136 0.452 7.9 2.21 12.68
12/30/2022 1:15:00 AM 4.5 40.1 0.452 7.91 2.41 12.66
12/30/2022 1:30:00 AM 4.48 40.064 0.452 7.92 2.46 12.68
12/30/2022 1:45:00 AM 4.45 40.01 0.453 7.91 3.08 12.68
12/30/2022 2:00:00 AM 4.43 39.974 0.453 7.9 2.3 12.67
12/30/2022 2:15:00 AM 4.41 39.938 0.454 7.9 2.51 12.67
12/30/2022 2:30:00 AM 4.4 39.92 0.455 7.9 2.25 12.68
12/30/2022 2:45:00 AM 4.39 39.902 0.456 7.9 2.52 12.68
12/30/2022 3:00:00 AM 4.38 39.884 0.457 7.89 2.67 12.67
12/30/2022 3:15:00 AM 4.38 39.884 0.457 7.9 2.05 12.67
12/30/2022 3:30:00 AM 4.38 39.884 0.458 7.9 2.64 12.67
12/30/2022 3:45:00 AM 4.38 39.884 0.458 7.9 2.85 12.67
12/30/2022 4:00:00 AM 4.38 39.884 0.459 7.9 2.95 12.65
12/30/2022 4:15:00 AM 4.38 39.884 0.459 7.91 2.81 12.65
12/30/2022 4:30:00 AM 4.38 39.884 0.459 7.89 2.87 12.65
12/30/2022 4:45:00 AM 4.39 39.902 0.459 7.89 2.68 12.65
12/30/2022 5:00:00 AM 4.4 39.92 0.459 7.89 2.8 12.64
12/30/2022 5:15:00 AM 4.41 39.938 0.46 7.88 3.13 12.64
12/30/2022 5:30:00 AM 4.42 39.956 0.459 7.87 3 12.63
12/30/2022 5:45:00 AM 4.43 39.974 0.46 7.88 3.04 12.63
12/30/2022 6:00:00 AM 4.43 39.974 0.46 7.88 3.09 12.63
12/30/2022 6:15:00 AM 4.44 39.992 0.46 7.89 2.95 12.63
12/30/2022 6:30:00 AM 4.46 40.028 0.46 7.88 2.57 12.61
12/30/2022 6:45:00 AM 4.47 40.046 0.46 7.86 3.03 12.61
12/30/2022 7:00:00 AM 4.48 40.064 0.461 7.88 2.74 12.61
12/30/2022 7:15:00 AM 4.5 40.1 0.462 7.89 2.87 12.61
12/30/2022 7:30:00 AM 4.51 40.118 0.462 7.87 2.94 12.6
12/30/2022 7:45:00 AM 4.53 40.154 0.463 7.88 3.12 12.57
12/30/2022 8:00:00 AM 4.54 40.172 0.464 7.88 3.73 12.54
12/30/2022 8:15:00 AM 4.56 40.208 0.464 7.89 3.45 12.56
12/30/2022 8:30:00 AM 4.58 40.244 0.464 7.88 3.38 12.51
12/30/2022 8:45:00 AM 4.61 40.298 0.466 7.88 3.4 12.59
12/30/2022 9:00:00 AM 4.65 40.37 0.466 7.9 3.24 12.55
12/30/2022 9:15:00 AM 4.68 40.424 0.467 7.89 3.29 12.52
12/30/2022 9:30:00 AM 4.71 40.478 0.468 7.89 2.87 12.52
12/30/2022 9:45:00 AM 4.73 40.514 0.468 7.89 3.28 12.52
12/30/2022 10:00:00 AM 4.76 40.568 0.468 7.88 3.59 12.53
12/30/2022 10:15:00 AM 4.79 40.622 0.469 7.88 3.54 12.48
12/30/2022 10:30:00 AM 4.83 40.694 0.469 7.88 3.75 12.49
12/30/2022 10:45:00 AM 4.86 40.748 0.469 7.88 3.46 12.54
12/30/2022 11:00:00 AM 4.9 40.82 0.469 7.89 2.99 12.5
12/30/2022 11:15:00 AM 4.96 40.928 0.469 7.89 2.05 12.54
12/30/2022 11:30:00 AM 5.03 41.054 0.469 7.88 3.31 12.55
12/30/2022 11:45:00 AM 5.09 41.162 0.469 7.89 3.05 12.53
12/30/2022 12:00:00 PM 5.14 41.252 0.469 7.89 3.17 12.5
12/30/2022 12:15:00 PM 5.19 41.342 0.469 7.89 2.39 12.48
12/30/2022 12:30:00 PM 5.26 41.468 0.469 7.89 3.21 12.5
12/30/2022 12:45:00 PM 5.32 41.576 0.469 7.89 3.47 12.51
12/30/2022 1:00:00 PM 5.39 41.702 0.469 7.9 3.17 12.48
12/30/2022 1:15:00 PM 5.46 41.828 0.469 7.9 3.01 12.47
12/30/2022 1:30:00 PM 5.51 41.918 0.469 7.91 2.99 12.47
12/30/2022 1:45:00 PM 5.56 42.008 0.468 7.91 3.12 12.46
12/30/2022 2:00:00 PM 5.63 42.134 0.468 7.93 3.29 12.45
12/30/2022 2:15:00 PM 5.68 42.224 0.468 7.92 3.07 12.45
12/30/2022 2:30:00 PM 5.74 42.332 0.467 7.94 3.12 12.45
12/30/2022 2:45:00 PM 5.79 42.422 0.467 7.94 3.95 12.46
12/30/2022 3:00:00 PM 5.84 42.512 0.466 7.93 3.16 12.45
12/30/2022 3:15:00 PM 5.89 42.602 0.466 7.93 2.79 12.46
12/30/2022 3:30:00 PM 5.93 42.674 0.465 7.93 2.51 12.44
12/30/2022 3:45:00 PM 5.97 42.746 0.464 7.95 2.98 12.42
12/30/2022 4:00:00 PM 6.02 42.836 0.463 7.95 3.38 12.43
12/30/2022 4:15:00 PM 6.05 42.89 0.463 7.94 2.82 12.42
12/30/2022 4:30:00 PM 6.08 42.944 0.462 7.93 2.82 12.41
12/30/2022 4:45:00 PM 6.11 42.998 0.462 7.95 2.93 12.4
12/30/2022 5:00:00 PM 6.13 43.034 0.462 7.95 2.49 12.39
12/30/2022 5:15:00 PM 6.16 43.088 0.462 7.94 2.72 12.38
12/30/2022 5:30:00 PM 6.19 43.142 0.462 7.95 2.44 12.42
12/30/2022 5:45:00 PM 6.21 43.178 0.462 7.95 3.3 12.4
12/30/2022 6:00:00 PM 6.24 43.232 0.462 7.96 2.71 12.42
12/30/2022 6:15:00 PM 6.26 43.268 0.462 7.97 2.43 12.43
12/30/2022 6:30:00 PM 6.28 43.304 0.462 7.96 6.67 12.31
12/30/2022 6:45:00 PM 6.3 43.34 0.462 7.97 2.44 12.36
12/30/2022 7:00:00 PM 6.32 43.376 0.462 7.96 3 12.33
12/30/2022 7:15:00 PM 6.34 43.412 0.462 7.96 2.96 12.32
12/30/2022 7:30:00 PM 6.35 43.43 0.461 7.96 2.6 12.29
12/30/2022 7:45:00 PM 6.36 43.448 0.461 7.97 2.45 12.28
12/30/2022 8:00:00 PM 6.37 43.466 0.461 7.96 1.98 12.3
12/30/2022 8:15:00 PM 6.37 43.466 0.461 7.97 2.45 12.3
12/30/2022 8:30:00 PM 6.37 43.466 0.46 7.96 2.36 12.3
12/30/2022 8:45:00 PM 6.37 43.466 0.46 7.96 2.2 12.27
12/30/2022 9:00:00 PM 6.36 43.448 0.459 7.96 2.41 12.25
12/30/2022 9:15:00 PM 6.35 43.43 0.458 7.95 2.27 12.24
12/30/2022 9:30:00 PM 6.34 43.412 0.458 7.96 2.56 12.23
12/30/2022 9:45:00 PM 6.32 43.376 0.458 7.95 2.16 12.2
12/30/2022 10:00:00 PM 6.31 43.358 0.457 7.95 2 12.19
12/30/2022 10:15:00 PM 6.29 43.322 0.457 7.94 2.42 12.17
12/30/2022 10:30:00 PM 6.26 43.268 0.457 7.93 2.48 12.16
12/30/2022 10:45:00 PM 6.24 43.232 0.457 7.94 2.44 12.14
12/30/2022 11:00:00 PM 6.21 43.178 0.457 7.95 2.17 12.13
12/30/2022 11:15:00 PM 6.19 43.142 0.457 7.94 2.3 12.12
12/30/2022 11:30:00 PM 6.16 43.088 0.456 7.93 2.62 12.11
12/30/2022 11:45:00 PM 6.14 43.052 0.456 7.93 2.41 12.12
12/31/2022 12:00:00 AM 6.11 42.998 0.456 7.93 2.15 12.1
12/31/2022 12:15:00 AM 6.08 42.944 0.455 7.93 2.36 12.11
12/31/2022 12:30:00 AM 6.06 42.908 0.455 7.95 1.78 12.09
12/31/2022 12:45:00 AM 6.02 42.836 0.454 7.94 2.5 12.1
12/31/2022 1:00:00 AM 5.99 42.782 0.454 7.94 2.46 12.09
12/31/2022 1:15:00 AM 5.96 42.728 0.454 7.93 2.7 12.1
12/31/2022 1:30:00 AM 5.94 42.692 0.453 7.93 1.87 12.09
12/31/2022 1:45:00 AM 5.91 42.638 0.453 7.93 2.44 12.09
12/31/2022 2:00:00 AM 5.88 42.584 0.453 7.92 2.53 12.1
12/31/2022 2:15:00 AM 5.86 42.548 0.453 7.93 2.53 12.12
12/31/2022 2:30:00 AM 5.84 42.512 0.453 7.92 2.19 12.1
12/31/2022 2:45:00 AM 5.82 42.476 0.453 7.92 2.34 12.1
12/31/2022 3:00:00 AM 5.8 42.44 0.453 7.92 2.16 12.1
12/31/2022 3:15:00 AM 5.79 42.422 0.453 7.92 2.27 12.11
12/31/2022 3:30:00 AM 5.77 42.386 0.453 7.92 2.65 12.1
12/31/2022 3:45:00 AM 5.76 42.368 0.454 7.92 2.88 12.11
12/31/2022 4:00:00 AM 5.75 42.35 0.454 7.92 2.72 12.1
12/31/2022 4:15:00 AM 5.75 42.35 0.454 7.92 2.41 12.1
12/31/2022 4:30:00 AM 5.75 42.35 0.454 7.92 2.76 12.11
12/31/2022 4:45:00 AM 5.76 42.368 0.454 7.92 2.23 12.09
12/31/2022 5:00:00 AM 5.76 42.368 0.454 7.91 2.77 12.09
12/31/2022 5:15:00 AM 5.77 42.386 0.454 7.91 3.2 12.09
12/31/2022 5:30:00 AM 5.78 42.404 0.455 7.9 2.97 12.07
12/31/2022 5:45:00 AM 5.79 42.422 0.455 7.91 2.99 12.08
12/31/2022 6:00:00 AM 5.8 42.44 0.455 7.91 3.08 12.08
12/31/2022 6:15:00 AM 5.82 42.476 0.456 7.91 2.79 12.07
12/31/2022 6:30:00 AM 5.83 42.494 0.456 7.9 2.85 12.05
12/31/2022 6:45:00 AM 5.85 42.53 0.457 7.9 3.03 12.06
12/31/2022 7:00:00 AM 5.86 42.548 0.458 7.9 2.77 12.05
12/31/2022 7:15:00 AM 5.88 42.584 0.458 7.9 2.88 12.03
12/31/2022 7:30:00 AM 5.89 42.602 0.459 7.9 2.75 12.02
12/31/2022 7:45:00 AM 5.91 42.638 0.46 7.9 2.97 12.02
12/31/2022 8:00:00 AM 5.93 42.674 0.461 7.91 2.69 12.01
12/31/2022 8:15:00 AM 5.95 42.71 0.462 7.92 2.7 12
12/31/2022 8:30:00 AM 5.97 42.746 0.462 7.91 3.09 11.99
12/31/2022 8:45:00 AM 6 42.8 0.463 7.91 3.02 12
12/31/2022 9:00:00 AM 6.02 42.836 0.464 7.91 2.9 11.98
12/31/2022 9:15:00 AM 6.05 42.89 0.464 7.93 3.03 11.99
12/31/2022 9:30:00 AM 6.08 42.944 0.465 7.94 2.9 11.99
12/31/2022 9:45:00 AM 6.11 42.998 0.466 7.94 2.99 11.99
12/31/2022 10:00:00 AM 6.14 43.052 0.467 7.95 2.93 11.98
12/31/2022 10:15:00 AM 6.17 43.106 0.467 7.93 2.76 11.97
12/31/2022 10:30:00 AM 6.19 43.142 0.468 7.93 2.76 11.99
12/31/2022 10:45:00 AM 6.23 43.214 0.468 7.94 2.72 11.98
12/31/2022 11:00:00 AM 6.26 43.268 0.468 7.95 2.46 11.98
12/31/2022 11:15:00 AM 6.29 43.322 0.468 7.94 2.72 11.97
12/31/2022 11:30:00 AM 6.32 43.376 0.469 7.93 2.86 11.97
12/31/2022 11:45:00 AM 6.36 43.448 0.469 7.93 2.38 11.96
12/31/2022 12:00:00 PM 6.38 43.484 0.469 7.93 2.84 11.95
12/31/2022 12:15:00 PM 6.41 43.538 0.469 7.94 2.17 11.93
12/31/2022 12:30:00 PM 6.43 43.574 0.469 7.94 2.65 11.92
12/31/2022 12:45:00 PM 6.45 43.61 0.469 7.93 2.84 11.91
12/31/2022 1:00:00 PM 6.48 43.664 0.469 7.92 2.72 11.92
12/31/2022 1:15:00 PM 6.5 43.7 0.468 7.93 2.32 11.91
12/31/2022 1:30:00 PM 6.52 43.736 0.468 7.92 2.61 11.9
12/31/2022 1:45:00 PM 6.53 43.754 0.468 7.92 3.72 11.87
12/31/2022 2:00:00 PM 6.55 43.79 0.467 7.91 4.35 11.88
12/31/2022 2:15:00 PM 6.57 43.826 0.466 7.91 3.24 11.88
12/31/2022 2:30:00 PM 6.6 43.88 0.466 7.92 2.47 11.88
12/31/2022 2:45:00 PM 6.63 43.934 0.465 7.92 2.64 11.88
12/31/2022 3:00:00 PM 6.65 43.97 0.464 7.92 2.74 11.89
12/31/2022 3:15:00 PM 6.68 44.024 0.463 7.93 2.67 11.89
12/31/2022 3:30:00 PM 6.7 44.06 0.462 7.93 2.67 11.88
12/31/2022 3:45:00 PM 6.72 44.096 0.462 7.92 2.4 11.89
12/31/2022 4:00:00 PM 6.74 44.132 0.461 7.93 2.68 11.89
12/31/2022 4:15:00 PM 6.76 44.168 0.461 7.94 2.03 11.86
12/31/2022 4:30:00 PM 6.78 44.204 0.46 7.92 2.86 11.85
12/31/2022 4:45:00 PM 6.8 44.24 0.459 7.92 2.19 11.84
12/31/2022 5:00:00 PM 6.81 44.258 0.459 7.93 2.65 11.86
12/31/2022 5:15:00 PM 6.83 44.294 0.458 7.94 2.2 11.88
12/31/2022 5:30:00 PM 6.84 44.312 0.458 7.93 1.9 11.89
12/31/2022 5:45:00 PM 6.86 44.348 0.458 7.94 2.01 11.88
12/31/2022 6:00:00 PM 6.87 44.366 0.457 7.93 2.04 11.89
12/31/2022 6:15:00 PM 6.89 44.402 0.457 7.93 2.14 11.88
12/31/2022 6:30:00 PM 6.9 44.42 0.457 7.94 2.23 11.88
12/31/2022 6:45:00 PM 6.91 44.438 0.457 7.92 2.06 11.88
12/31/2022 7:00:00 PM 6.92 44.456 0.454 7.93 1.92 11.87
12/31/2022 7:15:00 PM 6.93 44.474 0.454 7.94 2.06 11.87
12/31/2022 7:30:00 PM 6.95 44.51 0.454 7.95 1.61 11.85
12/31/2022 7:45:00 PM 6.96 44.528 0.453 7.94 1.55 11.84
12/31/2022 8:00:00 PM 6.97 44.546 0.452 7.94 1.74 11.84
12/31/2022 8:15:00 PM 6.98 44.564 0.452 7.94 1.93 11.83
12/31/2022 8:30:00 PM 6.99 44.582 0.451 7.94 1.9 11.82
12/31/2022 8:45:00 PM 6.99 44.582 0.451 7.95 1.88 11.82
12/31/2022 9:00:00 PM 7 44.6 0.45 7.94 1.81 11.8
12/31/2022 9:15:00 PM 7 44.6 0.45 7.92 1.81 11.78
12/31/2022 9:30:00 PM 7.01 44.618 0.449 7.93 1.32 11.77
12/31/2022 9:45:00 PM 7.01 44.618 0.449 7.92 1.78 11.76
12/31/2022 10:00:00 PM 7.01 44.618 0.449 7.92 2.04 11.74
12/31/2022 10:15:00 PM 7.01 44.618 0.449 7.92 2.05 11.74
12/31/2022 10:30:00 PM 7.02 44.636 0.449 7.92 1.72 11.72
12/31/2022 10:45:00 PM 7.02 44.636 0.449 7.91 1.71 11.72
12/31/2022 11:00:00 PM 7.02 44.636 0.448 7.91 1.91 11.7
12/31/2022 11:15:00 PM 7.02 44.636 0.448 7.91 1.76 11.68
12/31/2022 11:30:00 PM 7.03 44.654 0.448 7.91 1.9 11.68
12/31/2022 11:45:00 PM 7.03 44.654 0.447 7.91 1.56 11.67
1/1/2023 12:00:00 AM 7.04 44.672 0.447 7.9 1.74 11.67
1/1/2023 12:15:00 AM 7.04 44.672 0.447 7.89 2.01 11.66
1/1/2023 12:30:00 AM 7.04 44.672 0.446 7.9 2.07 11.67
1/1/2023 12:45:00 AM 7.05 44.69 0.446 7.89 2.33 11.66
1/1/2023 1:00:00 AM 7.06 44.708 0.446 7.89 2.17 11.66
1/1/2023 1:15:00 AM 7.06 44.708 0.447 7.89 2.4 11.64
1/1/2023 1:30:00 AM 7.07 44.726 0.447 7.88 2.36 11.64
1/1/2023 1:45:00 AM 7.08 44.744 0.448 7.89 2.4 11.64
1/1/2023 2:00:00 AM 7.08 44.744 0.448 7.9 2.46 11.64
1/1/2023 2:15:00 AM 7.08 44.744 0.447 7.89 2.78 11.64
1/1/2023 2:30:00 AM 7.08 44.744 0.447 7.89 2.6 11.63
1/1/2023 2:45:00 AM 7.07 44.726 0.446 7.9 3.04 11.63
1/1/2023 3:00:00 AM 7.07 44.726 0.444 7.89 2.84 11.64
1/1/2023 3:15:00 AM 7.06 44.708 0.443 7.89 2.73 11.64
1/1/2023 3:30:00 AM 7.06 44.708 0.442 7.87 3.36 11.64
1/1/2023 3:45:00 AM 7.05 44.69 0.441 7.88 3.2 11.65
1/1/2023 4:00:00 AM 7.04 44.672 0.441 7.89 3.27 11.66
1/1/2023 4:15:00 AM 7.04 44.672 0.441 7.88 3.63 11.66
1/1/2023 4:30:00 AM 7.03 44.654 0.442 7.88 2.89 11.67
1/1/2023 4:45:00 AM 7.03 44.654 0.442 7.88 3.64 11.66
1/1/2023 5:00:00 AM 7.02 44.636 0.443 7.88 3.85 11.67
1/1/2023 5:15:00 AM 7.01 44.618 0.444 7.87 3.7 11.68
1/1/2023 5:30:00 AM 7 44.6 0.445 7.88 3.52 11.69
1/1/2023 5:45:00 AM 6.98 44.564 0.446 7.88 3.67 11.69
1/1/2023 6:00:00 AM 6.96 44.528 0.446 7.89 4.7 11.7
1/1/2023 6:15:00 AM 6.94 44.492 0.447 7.88 4.74 11.71
1/1/2023 6:30:00 AM 6.92 44.456 0.448 7.88 4.88 11.72
1/1/2023 6:45:00 AM 6.9 44.42 0.449 7.88 5.4 11.72
1/1/2023 7:00:00 AM 6.87 44.366 0.45 7.88 6.42 11.73
1/1/2023 7:15:00 AM 6.84 44.312 0.451 7.87 6.16 11.73
1/1/2023 7:30:00 AM 6.82 44.276 0.451 7.88 7.34 11.71
1/1/2023 7:45:00 AM 6.78 44.204 0.451 7.88 8.53 11.72
1/1/2023 8:00:00 AM 6.75 44.15 0.451 7.87 7.63 11.72
1/1/2023 8:15:00 AM 6.72 44.096 0.45 7.87 8.08 11.74
1/1/2023 8:30:00 AM 6.7 44.06 0.45 7.87 7.91 11.74
1/1/2023 8:45:00 AM 6.68 44.024 0.449 7.87 7.33 11.75
1/1/2023 9:00:00 AM 6.66 43.988 0.446 7.86 8.71 11.76
1/1/2023 9:15:00 AM 6.65 43.97 0.442 7.86 8.73 11.78
1/1/2023 9:30:00 AM 6.64 43.952 0.436 7.87 6.98 11.8
1/1/2023 9:45:00 AM 6.63 43.934 0.43 7.85 7.78 11.8
1/1/2023 10:00:00 AM 6.61 43.898 0.425 7.86 7.61 11.81
1/1/2023 10:15:00 AM 6.61 43.898 0.418 7.86 7.63 11.85
1/1/2023 10:30:00 AM 6.61 43.898 0.414 7.87 7.8 11.86
1/1/2023 10:45:00 AM 6.61 43.898 0.41 7.86 7.81 11.89
1/1/2023 11:00:00 AM 6.6 43.88 0.406 7.85 8.15 11.9
1/1/2023 11:15:00 AM 6.6 43.88 0.403 7.86 9.08 11.92
1/1/2023 11:30:00 AM 6.6 43.88 0.401 7.87 8.6 11.95
1/1/2023 11:45:00 AM 6.6 43.88 0.398 7.89 9.79 11.96
1/1/2023 12:00:00 PM 6.61 43.898 0.396 7.89 9.53 11.97
1/1/2023 12:15:00 PM 6.63 43.934 0.395 7.89 10.69 11.98
1/1/2023 12:30:00 PM 6.65 43.97 0.394 7.89 10.16 11.98
1/1/2023 12:45:00 PM 6.66 43.988 0.392 7.89 11.24 11.99
1/1/2023 1:00:00 PM 6.66 43.988 0.391 7.89 12.14 11.98
1/1/2023 1:15:00 PM 6.69 44.042 0.39 7.89 10.84 12
1/1/2023 1:30:00 PM 6.71 44.078 0.388 7.91 12.45 12
1/1/2023 1:45:00 PM 6.72 44.096 0.386 7.92 16.1 12.03
1/1/2023 2:00:00 PM 6.73 44.114 0.385 7.92 15.98 12.01
1/1/2023 2:15:00 PM 6.75 44.15 0.383 7.91 13.57 12.03
1/1/2023 2:30:00 PM 6.76 44.168 0.382 7.92 17.44 12.03
1/1/2023 2:45:00 PM 6.79 44.222 0.38 7.91 14.94 12.04
1/1/2023 3:00:00 PM 6.81 44.258 0.379 7.91 17.34 12.04
1/1/2023 3:15:00 PM 6.83 44.294 0.378 7.93 14.57 12.03
1/1/2023 3:30:00 PM 6.85 44.33 0.378 7.94 17.8 12.02
1/1/2023 3:45:00 PM 6.88 44.384 0.378 7.93 16.4 12.02
1/1/2023 4:00:00 PM 6.89 44.402 0.378 7.92 14.99 12.03
1/1/2023 4:15:00 PM 6.9 44.42 0.378 7.93 13.91 12.02
1/1/2023 4:30:00 PM 6.91 44.438 0.379 7.93 11.33 12.02
1/1/2023 4:45:00 PM 6.91 44.438 0.379 7.91 16.85 12.01
1/1/2023 5:00:00 PM 6.91 44.438 0.38 7.93 15 12.01
1/1/2023 5:15:00 PM 6.9 44.42 0.381 7.93 14.61 11.99
1/1/2023 5:30:00 PM 6.9 44.42 0.381 7.93 16.54 11.98
1/1/2023 5:45:00 PM 6.89 44.402 0.381 7.94 14 12
1/1/2023 6:00:00 PM 6.89 44.402 0.382 7.89 15.67 11.97
1/1/2023 6:15:00 PM 6.88 44.384 0.382 7.86 15.06 11.96
1/1/2023 6:30:00 PM 6.88 44.384 0.383 7.86 14.19 11.96
1/1/2023 6:45:00 PM 6.87 44.366 0.383 7.87 15.72 11.94
1/1/2023 7:00:00 PM 6.87 44.366 0.384 7.88 14.22 11.92
1/1/2023 7:15:00 PM 6.86 44.348 0.384 7.87 14.4 11.94
1/1/2023 7:30:00 PM 6.86 44.348 0.385 7.88 15.68 11.93
1/1/2023 7:45:00 PM 6.84 44.312 0.386 7.87 15.68 11.91
1/1/2023 8:00:00 PM 6.83 44.294 0.386 7.84 13.11 11.89
1/1/2023 8:15:00 PM 6.81 44.258 0.387 7.84 12.96 11.88
1/1/2023 8:30:00 PM 6.79 44.222 0.388 7.85 12.77 11.87
1/1/2023 8:45:00 PM 6.77 44.186 0.389 7.85 13.32 11.86
1/1/2023 9:00:00 PM 6.74 44.132 0.389 7.85 13.31 11.85
1/1/2023 9:15:00 PM 6.71 44.078 0.39 7.84 13.22 11.85
1/1/2023 9:30:00 PM 6.67 44.006 0.391 7.83 12.73 11.86
1/1/2023 9:45:00 PM 6.65 43.97 0.392 7.83 11.84 11.85
1/1/2023 10:00:00 PM 6.62 43.916 0.392 7.84 11.78 11.84
1/1/2023 10:15:00 PM 6.6 43.88 0.394 7.84 11.38 11.85
1/1/2023 10:30:00 PM 6.58 43.844 0.395 7.84 12.13 11.87
1/1/2023 10:45:00 PM 6.56 43.808 0.396 7.83 11.59 11.81
1/1/2023 11:00:00 PM 6.54 43.772 0.397 7.82 9.6 11.8
1/1/2023 11:15:00 PM 6.52 43.736 0.398 7.81 11.21 11.82
1/1/2023 11:30:00 PM 6.5 43.7 0.4 7.82 9.66 11.8
1/1/2023 11:45:00 PM 6.49 43.682 0.401 7.83 10.32 11.81
1/2/2023 12:00:00 AM 6.47 43.646 0.402 7.83 10.85 11.82
1/2/2023 12:15:00 AM 6.45 43.61 0.403 7.82 10.69 11.8
1/2/2023 12:30:00 AM 6.44 43.592 0.404 7.83 9.61 11.79
1/2/2023 12:45:00 AM 6.43 43.574 0.405 7.84 10.21 11.77
1/2/2023 1:00:00 AM 6.41 43.538 0.405 7.81 10.11 11.8
1/2/2023 1:15:00 AM 6.39 43.502 0.406 7.8 10.35 11.79
1/2/2023 1:30:00 AM 6.38 43.484 0.407 7.81 9.33 11.78
1/2/2023 1:45:00 AM 6.37 43.466 0.407 7.79 8.88 11.79
1/2/2023 2:00:00 AM 6.36 43.448 0.408 7.8 9.82 11.76
1/2/2023 2:15:00 AM 6.35 43.43 0.409 7.82 9.72 11.75
1/2/2023 2:30:00 AM 6.34 43.412 0.41 7.8 9.54 11.77
1/2/2023 2:45:00 AM 6.34 43.412 0.411 7.79 8.37 11.74
1/2/2023 3:00:00 AM 6.34 43.412 0.412 7.8 9.18 11.77
1/2/2023 3:15:00 AM 6.35 43.43 0.413 7.8 7.69 11.76
1/2/2023 3:30:00 AM 6.35 43.43 0.413 7.8 8.26 11.73
1/2/2023 3:45:00 AM 6.35 43.43 0.414 7.81 7.27 11.74
1/2/2023 4:00:00 AM 6.35 43.43 0.414 7.8 7.85 11.74
1/2/2023 4:15:00 AM 6.35 43.43 0.414 7.77 7.28 11.72
1/2/2023 4:30:00 AM 6.36 43.448 0.415 7.76 7.56 11.72
1/2/2023 4:45:00 AM 6.35 43.43 0.414 7.75 7.43 11.71
1/2/2023 5:00:00 AM 6.35 43.43 0.415 7.76 7.44 11.74
1/2/2023 5:15:00 AM 6.35 43.43 0.415 7.78 6.55 11.74
1/2/2023 5:30:00 AM 6.35 43.43 0.416 7.77 7.41 11.72
1/2/2023 5:45:00 AM 6.35 43.43 0.416 7.77 7.13 11.74
1/2/2023 6:00:00 AM 6.35 43.43 0.417 7.75 6.26 11.73
1/2/2023 6:15:00 AM 6.35 43.43 0.418 7.77 6.55 11.74
1/2/2023 6:30:00 AM 6.35 43.43 0.418 7.73 5.53 11.78
1/2/2023 6:45:00 AM 6.35 43.43 0.419 7.75 5.96 11.74
1/2/2023 7:00:00 AM 6.34 43.412 0.418 7.77 5.54 11.75
1/2/2023 7:15:00 AM 6.34 43.412 0.419 7.76 5.8 11.73
1/2/2023 7:30:00 AM 6.33 43.394 0.419 7.74 6.85 11.77
1/2/2023 7:45:00 AM 6.33 43.394 0.419 7.75 6.74 11.75
1/2/2023 8:00:00 AM 6.32 43.376 0.419 7.76 6.01 11.79
1/2/2023 8:15:00 AM 6.32 43.376 0.419 7.76 5.67 11.81
1/2/2023 8:30:00 AM 6.32 43.376 0.42 7.74 6.02 11.81
1/2/2023 8:45:00 AM 6.33 43.394 0.421 7.76 5.25 11.82
1/2/2023 9:00:00 AM 6.33 43.394 0.422 7.77 5.38 11.85
1/2/2023 9:15:00 AM 6.34 43.412 0.423 7.78 5.1 11.85
1/2/2023 9:30:00 AM 6.34 43.412 0.423 7.75 5.52 11.86
1/2/2023 9:45:00 AM 6.35 43.43 0.424 7.75 4.88 11.87
1/2/2023 10:00:00 AM 6.35 43.43 0.424 7.75 5.25 11.86
1/2/2023 10:15:00 AM 6.36 43.448 0.424 7.77 5.27 11.89
1/2/2023 10:30:00 AM 6.37 43.466 0.425 7.76 4.81 11.9
1/2/2023 10:45:00 AM 6.38 43.484 0.424 7.76 4.97 11.91
1/2/2023 11:00:00 AM 6.4 43.52 0.424 7.74 4.72 11.93
1/2/2023 11:15:00 AM 6.43 43.574 0.424 7.74 4.87 11.94
1/2/2023 11:30:00 AM 6.45 43.61 0.424 7.75 4.57 11.93
1/2/2023 11:45:00 AM 6.46 43.628 0.424 7.77 4.77 11.92
1/2/2023 12:00:00 PM 6.48 43.664 0.424 7.77 4.78 11.93
1/2/2023 12:15:00 PM 6.5 43.7 0.424 7.78 5 11.9
1/2/2023 12:30:00 PM 6.52 43.736 0.424 7.78 4.7 11.93
1/2/2023 12:45:00 PM 6.55 43.79 0.424 7.78 4.69 11.96
1/2/2023 1:00:00 PM 6.57 43.826 0.424 7.78 4.17 11.95
1/2/2023 1:15:00 PM 6.6 43.88 0.424 7.78 4.64 11.96
1/2/2023 1:30:00 PM 6.62 43.916 0.423 7.78 3.86 11.95
1/2/2023 1:45:00 PM 6.64 43.952 0.423 7.78 3.93 11.95
1/2/2023 2:00:00 PM 6.67 44.006 0.423 7.78 3.96 11.95
1/2/2023 2:15:00 PM 6.7 44.06 0.423 7.79 4.02 11.95
1/2/2023 2:30:00 PM 6.73 44.114 0.423 7.79 3.76 11.96
1/2/2023 2:45:00 PM 6.75 44.15 0.424 7.78 3.43 11.96
1/2/2023 3:00:00 PM 6.77 44.186 0.424 7.79 4.14 11.94
1/2/2023 3:15:00 PM 6.8 44.24 0.424 7.8 3.48 11.95
1/2/2023 3:30:00 PM 6.83 44.294 0.424 7.81 3.78 11.96
1/2/2023 3:45:00 PM 6.86 44.348 0.425 7.8 3.58 11.97
1/2/2023 4:00:00 PM 6.89 44.402 0.425 7.81 3.81 11.95
1/2/2023 4:15:00 PM 6.92 44.456 0.425 7.81 3.62 11.95
1/2/2023 4:30:00 PM 6.94 44.492 0.424 7.82 3.81 11.94
1/2/2023 4:45:00 PM 6.97 44.546 0.424 7.82 3.46 11.95
1/2/2023 5:00:00 PM 6.99 44.582 0.424 7.84 3.37 11.95
1/2/2023 5:15:00 PM 7.02 44.636 0.424 7.83 3.7 11.94
1/2/2023 5:30:00 PM 7.04 44.672 0.424 7.82 4.31 11.93
1/2/2023 5:45:00 PM 7.06 44.708 0.424 7.83 3.73 11.92
1/2/2023 6:00:00 PM 7.08 44.744 0.424 7.8 3.77 11.92
1/2/2023 6:15:00 PM 7.1 44.78 0.424 7.83 3.57 11.96
1/2/2023 6:30:00 PM 7.12 44.816 0.425 7.83 3.63 11.92
1/2/2023 6:45:00 PM 7.14 44.852 0.425 7.83 3.75 11.91
1/2/2023 7:00:00 PM 7.15 44.87 0.425 7.82 3.43 11.9
1/2/2023 7:15:00 PM 7.17 44.906 0.426 7.83 3.59 11.88
1/2/2023 7:30:00 PM 7.18 44.924 0.426 7.83 3.44 11.86
1/2/2023 7:45:00 PM 7.19 44.942 0.426 7.81 3.36 11.85
1/2/2023 8:00:00 PM 7.21 44.978 0.426 7.81 3.57 11.82
1/2/2023 8:15:00 PM 7.22 44.996 0.426 7.81 3.14 11.79
1/2/2023 8:30:00 PM 7.23 45.014 0.426 7.8 2.99 11.79
1/2/2023 8:45:00 PM 7.23 45.014 0.426 7.81 3.18 11.78
1/2/2023 9:00:00 PM 7.24 45.032 0.426 7.8 3.02 11.76
1/2/2023 9:15:00 PM 7.25 45.05 0.426 7.82 3.06 11.75
1/2/2023 9:30:00 PM 7.25 45.05 0.425 7.84 2.83 11.72
1/2/2023 9:45:00 PM 7.26 45.068 0.425 7.82 3.21 11.7
1/2/2023 10:00:00 PM 7.27 45.086 0.425 7.8 3.14 11.7
1/2/2023 10:15:00 PM 7.27 45.086 0.424 7.79 3.18 11.68
1/2/2023 10:30:00 PM 7.27 45.086 0.424 7.8 3.1 11.68
1/2/2023 10:45:00 PM 7.28 45.104 0.424 7.8 3.3 11.64
1/2/2023 11:00:00 PM 7.28 45.104 0.423 7.78 3.33 11.64
1/2/2023 11:15:00 PM 7.28 45.104 0.424 7.8 3.36 11.61
1/2/2023 11:30:00 PM 7.28 45.104 0.424 7.81 2.94 11.6
1/2/2023 11:45:00 PM 7.28 45.104 0.424 7.81 2.97 11.62
1/3/2023 12:00:00 AM 7.29 45.122 0.425 7.79 2.86 11.6
1/3/2023 12:15:00 AM 7.29 45.122 0.425 7.79 2.83 11.59
1/3/2023 12:30:00 AM 7.29 45.122 0.425 7.78 3.22 11.58
1/3/2023 12:45:00 AM 7.29 45.122 0.426 7.78 3.01 11.58
1/3/2023 1:00:00 AM 7.29 45.122 0.426 7.78 3.1 11.59
1/3/2023 1:15:00 AM 7.29 45.122 0.426 7.8 3.19 11.57
1/3/2023 1:30:00 AM 7.29 45.122 0.426 7.81 3.12 11.56
1/3/2023 1:45:00 AM 7.29 45.122 0.426 7.81 2.76 11.55
1/3/2023 2:00:00 AM 7.3 45.14 0.426 7.81 2.99 11.55
1/3/2023 2:15:00 AM 7.3 45.14 0.427 7.81 2.75 11.54
1/3/2023 2:30:00 AM 7.3 45.14 0.427 7.82 3.01 11.55
1/3/2023 2:45:00 AM 7.3 45.14 0.427 7.79 3.21 11.53
1/3/2023 3:00:00 AM 7.3 45.14 0.427 7.8 2.7 11.54
1/3/2023 3:15:00 AM 7.31 45.158 0.427 7.81 2.86 11.53
1/3/2023 3:30:00 AM 7.31 45.158 0.428 7.8 2.94 11.52
1/3/2023 3:45:00 AM 7.32 45.176 0.428 7.8 2.94 11.53
1/3/2023 4:00:00 AM 7.32 45.176 0.429 7.78 3 11.53
1/3/2023 4:15:00 AM 7.33 45.194 0.429 7.78 3.1 11.52
1/3/2023 4:30:00 AM 7.33 45.194 0.431 7.78 3.25 11.52
1/3/2023 4:45:00 AM 7.34 45.212 0.432 7.78 2.82 11.51
1/3/2023 5:00:00 AM 7.35 45.23 0.434 7.79 3.01 11.49
1/3/2023 5:15:00 AM 7.35 45.23 0.435 7.8 2.91 11.5
1/3/2023 5:30:00 AM 7.36 45.248 0.436 7.79 2.81 11.49
1/3/2023 5:45:00 AM 7.36 45.248 0.437 7.77 2.54 11.49
1/3/2023 6:00:00 AM 7.37 45.266 0.437 7.77 3.14 11.48
1/3/2023 6:15:00 AM 7.38 45.284 0.438 7.78 2.73 11.47
1/3/2023 6:30:00 AM 7.38 45.284 0.438 7.77 2.8 11.47
1/3/2023 6:45:00 AM 7.39 45.302 0.437 7.78 2.64 11.47
1/3/2023 7:00:00 AM 7.39 45.302 0.437 7.76 3.29 11.46
1/3/2023 7:15:00 AM 7.4 45.32 0.437 7.76 3.13 11.48
1/3/2023 7:30:00 AM 7.41 45.338 0.438 7.77 3.08 11.47
1/3/2023 7:45:00 AM 7.41 45.338 0.438 7.76 3.37 11.48
1/3/2023 8:00:00 AM 7.42 45.356 0.439 7.76 3.24 11.45
1/3/2023 8:15:00 AM 7.42 45.356 0.44 7.76 3.06 11.45
1/3/2023 8:30:00 AM 7.43 45.374 0.44 7.76 3.08 11.45
1/3/2023 8:45:00 AM 7.44 45.392 0.441 7.75 2.98 11.45
1/3/2023 9:00:00 AM 7.45 45.41 0.442 7.74 3.02 11.47
1/3/2023 9:15:00 AM 7.45 45.41 0.442 7.79 3.26 11.46
1/3/2023 9:30:00 AM 7.46 45.428 0.442 7.77 3.16 11.47
1/3/2023 9:45:00 AM 7.47 45.446 0.442 7.79 3.12 11.49
1/3/2023 10:00:00 AM 7.48 45.464 0.442 7.8 3.04 11.5
1/3/2023 10:15:00 AM 7.49 45.482 0.442 7.79 2.99 11.49
1/3/2023 10:30:00 AM 7.5 45.5 0.442 7.8 3.03 11.5
1/3/2023 10:45:00 AM 7.51 45.518 0.442 7.79 2.8 11.49
1/3/2023 11:00:00 AM 7.52 45.536 0.442 7.79 2.43 11.49
1/3/2023 11:15:00 AM 7.53 45.554 0.442 7.79 2.93 11.49
1/3/2023 11:30:00 AM 7.55 45.59 0.441 7.79 2.72 11.48
1/3/2023 11:45:00 AM 7.56 45.608 0.44 7.79 2.65 11.49
1/3/2023 12:00:00 PM 7.58 45.644 0.44 7.78 2.78 11.48
1/3/2023 12:15:00 PM 7.6 45.68 0.439 7.8 2.64 11.5
1/3/2023 12:30:00 PM 7.63 45.734 0.438 7.81 2.81 11.52
1/3/2023 12:45:00 PM 7.65 45.77 0.438 7.81 2.45 11.51
1/3/2023 1:00:00 PM 7.68 45.824 0.437 7.79 2.49 11.53
1/3/2023 1:15:00 PM 7.7 45.86 0.437 7.8 2.84 11.53
1/3/2023 1:30:00 PM 7.74 45.932 0.436 7.81 4.44 11.55
1/3/2023 1:45:00 PM 7.76 45.968 0.436 7.82 2.81 11.54
1/3/2023 2:00:00 PM 7.78 46.004 0.436 7.81 2.69 11.49
1/3/2023 2:15:00 PM 7.82 46.076 0.435 7.8 2.93 11.53
1/3/2023 2:30:00 PM 7.85 46.13 0.435 7.79 2.92 11.55
1/3/2023 2:45:00 PM 7.88 46.184 0.435 7.81 3.1 11.53
1/3/2023 3:00:00 PM 7.93 46.274 0.436 7.81 3.11 11.56
1/3/2023 3:15:00 PM 7.96 46.328 0.436 7.8 5.02 11.53
1/3/2023 3:30:00 PM 8 46.4 0.404 7.81 5.88 11.55
1/3/2023 3:45:00 PM 8.03 46.454 0.435 7.81 4.75 11.53
1/3/2023 4:00:00 PM 8.06 46.508 0.434 7.81 3.26 11.54
1/3/2023 4:15:00 PM 8.09 46.562 0.432 7.83 2.59 11.57
1/3/2023 4:30:00 PM 8.11 46.598 0.43 7.84 2.5 11.6
1/3/2023 4:45:00 PM 8.14 46.652 0.427 7.85 2.84 11.6
1/3/2023 5:00:00 PM 8.16 46.688 0.426 7.86 2.63 11.61
1/3/2023 5:15:00 PM 8.18 46.724 0.424 7.84 2.79 11.6
1/3/2023 5:30:00 PM 8.19 46.742 0.423 7.84 3.08 11.61
1/3/2023 5:45:00 PM 8.2 46.76 0.422 7.85 3.22 11.61
1/3/2023 6:00:00 PM 8.21 46.778 0.42 7.85 3.04 11.6
1/3/2023 6:15:00 PM 8.21 46.778 0.419 7.84 3.5 11.6
1/3/2023 6:30:00 PM 8.21 46.778 0.417 7.83 3.37 11.59
1/3/2023 6:45:00 PM 8.2 46.76 0.414 7.82 3.67 11.57
1/3/2023 7:00:00 PM 8.18 46.724 0.411 7.83 4.09 11.57
1/3/2023 7:15:00 PM 8.15 46.67 0.408 7.81 4.14 11.56
1/3/2023 7:30:00 PM 8.13 46.634 0.405 7.83 4.77 11.55
1/3/2023 7:45:00 PM 8.1 46.58 0.403 7.81 5.55 11.55
1/3/2023 8:00:00 PM 8.06 46.508 0.399 7.79 6.89 11.55
1/3/2023 8:15:00 PM 8.03 46.454 0.396 7.79 7.9 11.52
1/3/2023 8:30:00 PM 8 46.4 0.391 7.79 8.35 11.51
1/3/2023 8:45:00 PM 7.97 46.346 0.385 7.78 9.19 11.51
1/3/2023 9:00:00 PM 7.96 46.328 0.38 7.76 9.27 11.5
1/3/2023 9:15:00 PM 7.95 46.31 0.378 7.76 9.68 11.48
1/3/2023 9:30:00 PM 7.94 46.292 0.373 7.77 10.41 11.49
1/3/2023 9:45:00 PM 7.94 46.292 0.371 7.75 10.52 11.47
1/3/2023 10:00:00 PM 7.93 46.274 0.37 7.76 11.31 11.47
1/3/2023 10:15:00 PM 7.92 46.256 0.369 7.75 13.1 11.46
1/3/2023 10:30:00 PM 7.91 46.238 0.366 7.76 12.67 11.46
1/3/2023 10:45:00 PM 7.89 46.202 0.365 7.77 13.43 11.46
1/3/2023 11:00:00 PM 7.87 46.166 0.363 7.75 14.16 11.46
1/3/2023 11:15:00 PM 7.85 46.13 0.359 7.76 13.22 11.47
1/3/2023 11:30:00 PM 7.82 46.076 0.357 7.74 21.18 11.47
1/3/2023 11:45:00 PM 7.79 46.022 0.352 7.72 19.4 11.5
1/4/2023 12:00:00 AM 7.77 45.986 0.349 7.72 18.86 11.51
1/4/2023 12:15:00 AM 7.74 45.932 0.345 7.71 20.76 11.51
1/4/2023 12:30:00 AM 7.71 45.878 0.342 7.69 27.73 11.51
1/4/2023 12:45:00 AM 7.68 45.824 0.338 7.69 19.74 11.51
1/4/2023 1:00:00 AM 7.66 45.788 0.336 7.68 20.82 11.51
1/4/2023 1:15:00 AM 7.63 45.734 0.335 7.68 20.37 11.52
1/4/2023 1:30:00 AM 7.61 45.698 0.335 7.68 22.69 11.52
1/4/2023 1:45:00 AM 7.59 45.662 0.334 7.7 26.42 11.53
1/4/2023 2:00:00 AM 7.57 45.626 0.335 7.67 37.54 11.52
1/4/2023 2:15:00 AM 7.56 45.608 0.336 7.67 20.72 11.52
1/4/2023 2:30:00 AM 7.54 45.572 0.336 7.69 25.05 11.52
1/4/2023 2:45:00 AM 7.53 45.554 0.337 7.68 26.79 11.52
1/4/2023 3:00:00 AM 7.52 45.536 0.337 7.68 30.19 11.54
1/4/2023 3:15:00 AM 7.51 45.518 0.337 7.68 22.95 11.55
1/4/2023 3:30:00 AM 7.5 45.5 0.338 7.68 30.63 11.54
1/4/2023 3:45:00 AM 7.49 45.482 0.338 7.69 29.35 11.55
1/4/2023 4:00:00 AM 7.48 45.464 0.338 7.68 29.09 11.55
1/4/2023 4:15:00 AM 7.47 45.446 0.338 7.68 22.85 11.54
1/4/2023 4:30:00 AM 7.46 45.428 0.338 7.67 38.04 11.54
1/4/2023 4:45:00 AM 7.45 45.41 0.338 7.64 28.83 11.54
1/4/2023 5:00:00 AM 7.44 45.392 0.339 7.66 27.05 11.53
1/4/2023 5:15:00 AM 7.44 45.392 0.341 7.67 24.88 11.52
1/4/2023 5:30:00 AM 7.43 45.374 0.343 7.67 24.05 11.53
1/4/2023 5:45:00 AM 7.43 45.374 0.345 7.67 24.87 11.51
1/4/2023 6:00:00 AM 7.43 45.374 0.346 7.64 25.47 11.51
1/4/2023 6:15:00 AM 7.42 45.356 0.348 7.67 22.3 11.5
1/4/2023 6:30:00 AM 7.42 45.356 0.349 7.67 24.61 11.5
1/4/2023 6:45:00 AM 7.41 45.338 0.35 7.69 25.06 11.5
1/4/2023 7:00:00 AM 7.41 45.338 0.351 7.7 23.98 11.47
1/4/2023 7:15:00 AM 7.4 45.32 0.352 7.68 23.98 11.47
1/4/2023 7:30:00 AM 7.4 45.32 0.353 7.67 24.59 11.47
1/4/2023 7:45:00 AM 7.4 45.32 0.354 7.67 22.1 11.44
1/4/2023 8:00:00 AM 7.4 45.32 0.354 7.66 22.68 11.46
1/4/2023 8:15:00 AM 7.39 45.302 0.355 7.68 23.06 11.44
1/4/2023 8:30:00 AM 7.4 45.32 0.356 7.67 21.68 11.45
1/4/2023 8:45:00 AM 7.4 45.32 0.357 7.68 22.4 11.47
1/4/2023 9:00:00 AM 7.41 45.338 0.358 7.66 21.07 11.47
1/4/2023 9:15:00 AM 7.42 45.356 0.359 7.68 20.6 11.46
1/4/2023 9:30:00 AM 7.43 45.374 0.36 7.69 20.62 11.49
1/4/2023 9:45:00 AM 7.45 45.41 0.361 7.7 18.69 11.49
1/4/2023 10:00:00 AM 7.47 45.446 0.361 7.72 19.53 11.5
1/4/2023 10:15:00 AM 7.49 45.482 0.361 7.7 21.26 11.5
1/4/2023 10:30:00 AM 7.52 45.536 0.362 7.76 18.4 11.5
1/4/2023 10:45:00 AM 7.56 45.608 0.362 7.71 17.65 11.51
1/4/2023 11:00:00 AM 7.6 45.68 0.362 7.7 16.23 11.52
1/4/2023 11:15:00 AM 7.64 45.752 0.361 7.7 14.9 11.51
1/4/2023 11:30:00 AM 7.69 45.842 0.361 7.71 15.3 11.52
1/4/2023 11:45:00 AM 7.73 45.914 0.361 7.71 15.18 11.51
1/4/2023 12:00:00 PM 7.77 45.986 0.361 7.71 14.07 11.52
1/4/2023 12:15:00 PM 7.82 46.076 0.361 7.74 14.14 11.49
1/4/2023 12:30:00 PM 7.88 46.184 0.361 7.75 14.51 11.46
1/4/2023 12:45:00 PM 7.94 46.292 0.363 7.74 14.87 11.47
1/4/2023 1:00:00 PM 7.99 46.382 0.364 7.73 13.8 11.46
1/4/2023 1:15:00 PM 8.05 46.49 0.365 7.75 14.47 11.48
1/4/2023 1:30:00 PM 8.1 46.58 0.366 7.76 12.43 11.46
1/4/2023 1:45:00 PM 8.15 46.67 0.367 7.77 11.33 11.47
1/4/2023 2:00:00 PM 8.21 46.778 0.367 7.79 11.99 11.46
1/4/2023 2:15:00 PM 8.26 46.868 0.368 7.8 10.68 11.48
1/4/2023 2:30:00 PM 8.32 46.976 0.368 7.8 11.39 11.47
1/4/2023 2:45:00 PM 8.37 47.066 0.368 7.78 9.6 11.48
1/4/2023 3:00:00 PM 8.42 47.156 0.368 7.77 10.65 11.46
1/4/2023 3:15:00 PM 8.47 47.246 0.368 7.76 9.55 11.45
1/4/2023 3:30:00 PM 8.52 47.336 0.368 7.8 9.23 11.45
1/4/2023 3:45:00 PM 8.57 47.426 0.367 7.8 10.69 11.43
1/4/2023 4:00:00 PM 8.62 47.516 0.367 7.82 14.5 11.37
1/4/2023 4:15:00 PM 8.67 47.606 0.367 7.82 10.41 11.36
1/4/2023 4:30:00 PM 8.71 47.678 0.368 7.82 9.4 11.37
1/4/2023 4:45:00 PM 8.75 47.75 0.368 7.81 8.17 11.34
1/4/2023 5:00:00 PM 8.78 47.804 0.368 7.82 8.47 11.34
1/4/2023 5:15:00 PM 8.82 47.876 0.368 7.81 12.25 11.33
1/4/2023 5:30:00 PM 8.84 47.912 0.367 7.83 9.35 11.32
1/4/2023 5:45:00 PM 8.86 47.948 0.367 7.82 8.05 11.34
1/4/2023 6:00:00 PM 8.89 48.002 0.367 7.81 7.93 11.34
1/4/2023 6:15:00 PM 8.91 48.038 0.366 7.82 7.63 11.34
1/4/2023 6:30:00 PM 8.93 48.074 0.366 7.81 7.43 11.32
1/4/2023 6:45:00 PM 8.95 48.11 0.366 7.8 7.29 11.32
1/4/2023 7:00:00 PM 8.97 48.146 0.367 7.8 7.67 11.29
1/4/2023 7:15:00 PM 8.99 48.182 0.367 7.83 7.6 11.26
1/4/2023 7:30:00 PM 9.01 48.218 0.368 7.83 6.98 11.24
1/4/2023 7:45:00 PM 9.02 48.236 0.369 7.83 6.94 11.23
1/4/2023 8:00:00 PM 9.04 48.272 0.37 7.83 6.96 11.2
1/4/2023 8:15:00 PM 9.05 48.29 0.371 7.84 6.42 11.19
1/4/2023 8:30:00 PM 9.06 48.308 0.372 7.82 6.58 11.18
1/4/2023 8:45:00 PM 9.06 48.308 0.373 7.81 5.92 11.18
1/4/2023 9:00:00 PM 9.07 48.326 0.373 7.81 6.18 11.15
1/4/2023 9:15:00 PM 9.07 48.326 0.374 7.82 6.27 11.14
1/4/2023 9:30:00 PM 9.07 48.326 0.374 7.82 6.09 11.11
1/4/2023 9:45:00 PM 9.07 48.326 0.375 7.82 5.9 11.11
1/4/2023 10:00:00 PM 9.08 48.344 0.375 7.81 5.8 11.09
1/4/2023 10:15:00 PM 9.08 48.344 0.376 7.8 6.74 11.05
1/4/2023 10:30:00 PM 9.07 48.326 0.377 7.81 5.44 11.06
1/4/2023 10:45:00 PM 9.07 48.326 0.377 7.81 5.6 11.05
1/4/2023 11:00:00 PM 9.07 48.326 0.378 7.81 5.41 11.05
1/4/2023 11:15:00 PM 9.07 48.326 0.378 7.81 5.52 11.04
1/4/2023 11:30:00 PM 9.08 48.344 0.379 7.8 5.86 11.05
1/4/2023 11:45:00 PM 9.08 48.344 0.38 7.79 5.33 11.03
1/5/2023 12:00:00 AM 9.08 48.344 0.38 7.82 6.31 11.04
1/5/2023 12:15:00 AM 9.08 48.344 0.381 7.82 5.47 11.04
1/5/2023 12:30:00 AM 9.08 48.344 0.382 7.81 5.55 11.04
1/5/2023 12:45:00 AM 9.09 48.362 0.382 7.81 5.32 11.04
1/5/2023 1:00:00 AM 9.09 48.362 0.383 7.82 5.65 11.04
1/5/2023 1:15:00 AM 9.09 48.362 0.384 7.83 5.43 11.01
1/5/2023 1:30:00 AM 9.1 48.38 0.385 7.82 4.84 11
1/5/2023 1:45:00 AM 9.1 48.38 0.386 7.81 5.34 10.99
1/5/2023 2:00:00 AM 9.11 48.398 0.389 7.83 5.38 11
1/5/2023 2:15:00 AM 9.11 48.398 0.39 7.81 5.28 11.02
1/5/2023 2:30:00 AM 9.12 48.416 0.391 7.81 4.94 10.99
1/5/2023 2:45:00 AM 9.12 48.416 0.392 7.79 5.11 10.99
1/5/2023 3:00:00 AM 9.13 48.434 0.393 7.79 4.53 10.97
1/5/2023 3:15:00 AM 9.13 48.434 0.394 7.79 4.62 10.98
1/5/2023 3:30:00 AM 9.14 48.452 0.395 7.8 4.76 10.97
1/5/2023 3:45:00 AM 9.14 48.452 0.395 7.79 4.8 10.98
1/5/2023 4:00:00 AM 9.14 48.452 0.396 7.8 4.75 10.97
1/5/2023 4:15:00 AM 9.14 48.452 0.396 7.79 4.65 10.96
1/5/2023 4:30:00 AM 9.14 48.452 0.397 7.79 4.36 10.96
1/5/2023 4:45:00 AM 9.14 48.452 0.398 7.78 4.51 10.98
1/5/2023 5:00:00 AM 9.13 48.434 0.398 7.79 4 10.97
1/5/2023 5:15:00 AM 9.12 48.416 0.399 7.8 4.28 10.96
1/5/2023 5:30:00 AM 9.12 48.416 0.399 7.79 3.96 10.97
1/5/2023 5:45:00 AM 9.1 48.38 0.4 7.8 3.65 10.97
1/5/2023 6:00:00 AM 9.09 48.362 0.4 7.79 4.15 10.98
1/5/2023 6:15:00 AM 9.08 48.344 0.401 7.81 4.73 10.98
1/5/2023 6:30:00 AM 9.06 48.308 0.401 7.8 4.08 10.98
1/5/2023 6:45:00 AM 9.05 48.29 0.401 7.8 4.39 10.97
1/5/2023 7:00:00 AM 9.04 48.272 0.402 7.8 4.5 10.98
1/5/2023 7:15:00 AM 9.02 48.236 0.403 7.8 4.35 10.99
1/5/2023 7:30:00 AM 9 48.2 0.404 7.8 4.3 11.01
1/5/2023 7:45:00 AM 8.99 48.182 0.405 7.82 4.43 11.03
1/5/2023 8:00:00 AM 8.98 48.164 0.405 7.81 4.47 11.02
1/5/2023 8:15:00 AM 8.96 48.128 0.406 7.82 4.1 11.02
1/5/2023 8:30:00 AM 8.94 48.092 0.407 7.81 4.66 11.05
1/5/2023 8:45:00 AM 8.93 48.074 0.407 7.81 4.03 11.06
1/5/2023 9:00:00 AM 8.92 48.056 0.407 7.81 3.8 11.05
1/5/2023 9:15:00 AM 8.91 48.038 0.407 7.81 4.39 11.07
1/5/2023 9:30:00 AM 8.9 48.02 0.407 7.81 4.14 11.09
1/5/2023 9:45:00 AM 8.89 48.002 0.407 7.83 4.08 11.11
1/5/2023 10:00:00 AM 8.88 47.984 0.407 7.82 3.41 11.11
1/5/2023 10:15:00 AM 8.88 47.984 0.408 7.8 4.05 11.15
1/5/2023 10:30:00 AM 8.9 48.02 0.408 7.83 3.76 11.17
1/5/2023 10:45:00 AM 8.91 48.038 0.409 7.83 3.73 11.15
1/5/2023 11:00:00 AM 8.94 48.092 0.409 7.86 8.12 11.09
1/5/2023 11:15:00 AM 8.97 48.146 0.41 7.86 3.97 11.19
1/5/2023 11:30:00 AM 8.99 48.182 0.41 7.86 3.85 11.21
1/5/2023 11:45:00 AM 9.02 48.236 0.411 7.88 3.67 11.25
1/5/2023 12:00:00 PM 9.06 48.308 0.41 7.85 4.43 11.17
1/5/2023 12:15:00 PM 9.08 48.344 0.41 7.86 5.02 11.12
1/5/2023 12:30:00 PM 9.11 48.398 0.41 7.87 3.9 11.15
1/5/2023 12:45:00 PM 9.14 48.452 0.411 7.88 3.47 11.11
1/5/2023 1:00:00 PM 9.17 48.506 0.411 7.87 3.77 11.15
1/5/2023 1:15:00 PM 9.21 48.578 0.411 7.88 3.68 11.22
1/5/2023 1:30:00 PM 9.26 48.668 0.411 7.87 3.04 11.17
1/5/2023 1:45:00 PM 9.28 48.704 0.412 7.88 3.43 11.19
1/5/2023 2:00:00 PM 9.32 48.776 0.413 7.9 3.36 11.21
1/5/2023 2:15:00 PM 9.36 48.848 0.413 7.9 3.02 11.21
1/5/2023 2:30:00 PM 9.41 48.938 0.414 7.91 2.93 11.24
1/5/2023 2:45:00 PM 9.44 48.992 0.414 7.9 2.86 11.19
1/5/2023 3:00:00 PM 9.47 49.046 0.414 7.88 2.92 11.2
1/5/2023 3:15:00 PM 9.49 49.082 0.414 7.9 3.54 11.18
1/5/2023 3:30:00 PM 9.52 49.136 0.414 7.9 2.66 11.19
1/5/2023 3:45:00 PM 9.55 49.19 0.415 7.92 2.87 11.22
1/5/2023 4:00:00 PM 9.58 49.244 0.415 7.91 2.85 11.19
1/5/2023 4:15:00 PM 9.6 49.28 0.415 7.9 2.62 11.05
1/5/2023 4:30:00 PM 9.62 49.316 0.416 7.91 3.02 11.15
1/5/2023 4:45:00 PM 9.63 49.334 0.416 7.91 3.09 11.17
1/5/2023 5:00:00 PM 9.64 49.352 0.416 7.92 3.01 11.11
1/5/2023 5:15:00 PM 9.64 49.352 0.417 7.93 2.91 11.14
1/5/2023 5:30:00 PM 9.65 49.37 0.417 7.96 2.64 11.19
1/5/2023 5:45:00 PM 9.66 49.388 0.416 7.95 2.93 11.2
1/5/2023 6:00:00 PM 9.67 49.406 0.416 7.96 3.14 11.17
1/5/2023 6:15:00 PM 9.69 49.442 0.416 7.96 2.42 11.18
1/5/2023 6:30:00 PM 9.7 49.46 0.416 7.95 2.2 11.18
1/5/2023 6:45:00 PM 9.71 49.478 0.415 7.96 1.97 11.19
1/5/2023 7:00:00 PM 9.71 49.478 0.415 7.97 2.54 11.17
1/5/2023 7:15:00 PM 9.72 49.496 0.415 7.94 2.91 11.18
1/5/2023 7:30:00 PM 9.71 49.478 0.415 7.95 2.72 11.16
1/5/2023 7:45:00 PM 9.7 49.46 0.415 7.96 2.53 11.14
1/5/2023 8:00:00 PM 9.7 49.46 0.415 7.96 2.69 11.13
1/5/2023 8:15:00 PM 9.68 49.424 0.415 7.98 2.51 11.13
1/5/2023 8:30:00 PM 9.67 49.406 0.415 7.97 1.93 11.12
1/5/2023 8:45:00 PM 9.65 49.37 0.415 7.96 2.53 11.1
1/5/2023 9:00:00 PM 9.63 49.334 0.415 7.96 2.69 11.08
1/5/2023 9:15:00 PM 9.62 49.316 0.415 7.93 2.38 11.07
1/5/2023 9:30:00 PM 9.59 49.262 0.415 7.95 3.38 11.06
1/5/2023 9:45:00 PM 9.58 49.244 0.416 7.95 2.8 11.04
1/5/2023 10:00:00 PM 9.56 49.208 0.416 7.95 3.65 11.02
1/5/2023 10:15:00 PM 9.55 49.19 0.416 7.95 3.84 10.98
1/5/2023 10:30:00 PM 9.53 49.154 0.416 7.96 3.18 11.02
1/5/2023 10:45:00 PM 9.51 49.118 0.415 7.93 2.94 11.01
1/5/2023 11:00:00 PM 9.5 49.1 0.415 7.91 2.63 11
1/5/2023 11:15:00 PM 9.48 49.064 0.415 7.93 2.17 10.99
1/5/2023 11:30:00 PM 9.45 49.01 0.415 7.91 2.63 11
1/5/2023 11:45:00 PM 9.42 48.956 0.414 7.92 2.76 10.97
1/6/2023 12:00:00 AM 9.39 48.902 0.414 7.92 2.27 11
1/6/2023 12:15:00 AM 9.36 48.848 0.414 7.93 3.08 10.97
1/6/2023 12:30:00 AM 9.34 48.812 0.414 7.95 2.21 10.98
1/6/2023 12:45:00 AM 9.3 48.74 0.414 7.91 2.73 10.98
1/6/2023 1:00:00 AM 9.27 48.686 0.415 7.89 2.72 10.97
1/6/2023 1:15:00 AM 9.24 48.632 0.415 7.9 2.07 10.97
1/6/2023 1:30:00 AM 9.21 48.578 0.416 7.92 2.94 10.95
1/6/2023 1:45:00 AM 9.17 48.506 0.416 7.9 2.54 10.94
1/6/2023 2:00:00 AM 9.14 48.452 0.416 7.91 2.63 10.96
1/6/2023 2:15:00 AM 9.12 48.416 0.417 7.89 2.31 10.97
1/6/2023 2:30:00 AM 9.1 48.38 0.417 7.89 2.19 10.97
1/6/2023 2:45:00 AM 9.07 48.326 0.417 7.91 2.65 10.96
1/6/2023 3:00:00 AM 9.05 48.29 0.418 7.93 2.62 10.99
1/6/2023 3:15:00 AM 9.03 48.254 0.418 7.9 2.71 10.88
1/6/2023 3:30:00 AM 9.01 48.218 0.418 7.9 2.95 10.99
1/6/2023 3:45:00 AM 9 48.2 0.419 7.93 2.29 11
1/6/2023 4:00:00 AM 8.98 48.164 0.42 7.94 2.52 10.99
1/6/2023 4:15:00 AM 8.96 48.128 0.421 7.92 2.32 11
1/6/2023 4:30:00 AM 8.94 48.092 0.421 7.92 1.7 11
1/6/2023 4:45:00 AM 8.92 48.056 0.422 7.9 2.74 11.01
1/6/2023 5:00:00 AM 8.91 48.038 0.423 7.9 2.59 11.02
1/6/2023 5:15:00 AM 8.89 48.002 0.425 7.89 2.58 11.02
1/6/2023 5:30:00 AM 8.86 47.948 0.425 7.91 2.53 11.04
1/6/2023 5:45:00 AM 8.85 47.93 0.426 7.9 2.88 11.03
1/6/2023 6:00:00 AM 8.83 47.894 0.427 7.92 2.85 11.05
1/6/2023 6:15:00 AM 8.81 47.858 0.428 7.92 2.65 11.04
1/6/2023 6:30:00 AM 8.79 47.822 0.43 7.88 2.69 11.04
1/6/2023 6:45:00 AM 8.78 47.804 0.43 7.87 2.81 11.05
1/6/2023 7:00:00 AM 8.76 47.768 0.431 7.89 2.76 11.06
1/6/2023 7:15:00 AM 8.74 47.732 0.433 7.87 2.64 11.05
1/6/2023 7:30:00 AM 8.73 47.714 0.433 7.91 2.97 11.06
1/6/2023 7:45:00 AM 8.71 47.678 0.434 7.91 2.5 11.06
1/6/2023 8:00:00 AM 8.69 47.642 0.435 7.93 2.92 11.09
1/6/2023 8:15:00 AM 8.67 47.606 0.435 7.91 3.13 11.09
1/6/2023 8:30:00 AM 8.65 47.57 0.435 7.91 2.73 11.09
1/6/2023 8:45:00 AM 8.63 47.534 0.435 7.9 2.64 11.12
1/6/2023 9:00:00 AM 8.62 47.516 0.435 7.89 2.68 11.13
1/6/2023 9:15:00 AM 8.6 47.48 0.435 7.94 2.69 11.17
1/6/2023 9:30:00 AM 8.59 47.462 0.435 7.89 2.55 11.19
1/6/2023 9:45:00 AM 8.57 47.426 0.435 7.89 2.83 11.18
1/6/2023 10:00:00 AM 8.57 47.426 0.434 7.9 2.87 11.24
1/6/2023 10:15:00 AM 8.58 47.444 0.436 7.91 2.84 11.24
1/6/2023 10:30:00 AM 8.59 47.462 0.435 7.9 2.47 11.27
1/6/2023 10:45:00 AM 8.6 47.48 0.433 7.92 2.5 11.25
1/6/2023 11:00:00 AM 8.58 47.444 0.433 7.89 2.58 11.24
1/6/2023 11:15:00 AM 8.57 47.426 0.433 7.89 2.36 11.28
1/6/2023 11:30:00 AM 8.57 47.426 0.433 7.91 2.32 11.3
1/6/2023 11:45:00 AM 8.58 47.444 0.433 7.89 2.63 11.3
1/6/2023 12:00:00 PM 8.61 47.498 0.433 7.92 2.06 11.34
1/6/2023 12:15:00 PM 8.61 47.498 0.435 7.9 2.39 11.35
1/6/2023 12:30:00 PM 8.65 47.57 0.435 7.92 2.7 11.34
1/6/2023 12:45:00 PM 8.66 47.588 0.436 7.91 2.47 11.37
1/6/2023 1:00:00 PM 8.67 47.606 0.436 7.93 2.35 11.36
1/6/2023 1:15:00 PM 8.67 47.606 0.436 7.96 2.45 11.37
1/6/2023 1:30:00 PM 8.7 47.66 0.437 7.95 1.7 11.41
1/6/2023 1:45:00 PM 8.7 47.66 0.437 7.95 2.38 11.43
1/6/2023 2:00:00 PM 8.7 47.66 0.437 7.96 2.67 11.4
1/6/2023 2:15:00 PM 8.7 47.66 0.437 7.99 2.48 11.44
1/6/2023 2:30:00 PM -99999.99 -179968 -99999.99 -99999.99 -99999.99 -99999.99
1/6/2023 2:45:00 PM 8.7 47.66 0.437 8.02 2.09 11.44
1/6/2023 3:00:00 PM -99999.99 -179968 -99999.99 -99999.99 -99999.99 -99999.99
1/6/2023 3:15:00 PM -99999.99 -179968 -99999.99 -99999.99 -99999.99 -99999.99
1/6/2023 3:30:00 PM -99999.99 -179968 -99999.99 -99999.99 -99999.99 -99999.99
1/6/2023 3:45:00 PM -99999.99 -179968 -99999.99 -99999.99 -99999.99 -99999.99
1/6/2023 4:00:00 PM -99999.99 -179968 -99999.99 -99999.99 -99999.99 -99999.99
1/6/2023 4:15:00 PM 8.63 47.534 0.435 8.04 1.99 11.53
1/6/2023 4:30:00 PM -99999.99 -179968 -99999.99 -99999.99 -99999.99 -99999.99
1/6/2023 4:45:00 PM 8.6 47.48 0.435 7.97 1.86 11.52
1/6/2023 5:00:00 PM -99999.99 -179968 -99999.99 -99999.99 -99999.99 -99999.99
1/6/2023 5:15:00 PM -99999.99 -179968 -99999.99 -99999.99 -99999.99 -99999.99
1/6/2023 5:30:00 PM -99999.99 -179968 -99999.99 -99999.99 -99999.99 -99999.99
1/6/2023 5:45:00 PM -99999.99 -179968 -99999.99 -99999.99 -99999.99 -99999.99
1/6/2023 6:00:00 PM -99999.99 -179968 -99999.99 -99999.99 -99999.99 -99999.99
1/6/2023 6:15:00 PM -99999.99 -179968 -99999.99 -99999.99 -99999.99 -99999.99
1/6/2023 6:30:00 PM -99999.99 -179968 -99999.99 -99999.99 -99999.99 -99999.99
1/6/2023 6:45:00 PM -99999.99 -179968 -99999.99 -99999.99 -99999.99 -99999.99
1/6/2023 7:00:00 PM -99999.99 -179968 -99999.99 -99999.99 -99999.99 -99999.99
1/6/2023 7:15:00 PM -99999.99 -179968 -99999.99 -99999.99 -99999.99 -99999.99
1/6/2023 7:30:00 PM -99999.99 -179968 -99999.99 -99999.99 -99999.99 -99999.99
1/6/2023 7:45:00 PM -99999.99 -179968 -99999.99 -99999.99 -99999.99 -99999.99
1/6/2023 8:00:00 PM -99999.99 -179968 -99999.99 -99999.99 -99999.99 -99999.99
1/6/2023 8:15:00 PM -99999.99 -179968 -99999.99 -99999.99 -99999.99 -99999.99
1/6/2023 8:30:00 PM -99999.99 -179968 -99999.99 -99999.99 -99999.99 -99999.99
1/6/2023 8:45:00 PM -99999.99 -179968 -99999.99 -99999.99 -99999.99 -99999.99
1/6/2023 9:00:00 PM -99999.99 -179968 -99999.99 -99999.99 -99999.99 -99999.99
1/6/2023 9:15:00 PM -99999.99 -179968 -99999.99 -99999.99 -99999.99 -99999.99
1/6/2023 9:30:00 PM -99999.99 -179968 -99999.99 -99999.99 -99999.99 -99999.99
1/6/2023 9:45:00 PM -99999.99 -179968 -99999.99 -99999.99 -99999.99 -99999.99
1/6/2023 10:00:00 PM -99999.99 -179968 -99999.99 -99999.99 -99999.99 -99999.99
1/6/2023 10:15:00 PM -99999.99 -179968 -99999.99 -99999.99 -99999.99 -99999.99
1/6/2023 10:30:00 PM -99999.99 -179968 -99999.99 -99999.99 -99999.99 -99999.99
1/6/2023 10:45:00 PM -99999.99 -179968 -99999.99 -99999.99 -99999.99 -99999.99
1/6/2023 11:00:00 PM -99999.99 -179968 -99999.99 -99999.99 -99999.99 -99999.99
1/6/2023 11:15:00 PM -99999.99 -179968 -99999.99 -99999.99 -99999.99 -99999.99
1/6/2023 11:30:00 PM -99999.99 -179968 -99999.99 -99999.99 -99999.99 -99999.99
1/6/2023 11:45:00 PM -99999.99 -179968 -99999.99 -99999.99 -99999.99 -99999.99
1/7/2023 12:00:00 AM -99999.99 -179968 -99999.99 -99999.99 -99999.99 -99999.99
1/7/2023 12:15:00 AM -99999.99 -179968 -99999.99 -99999.99 -99999.99 -99999.99
1/7/2023 12:30:00 AM -99999.99 -179968 -99999.99 -99999.99 -99999.99 -99999.99
1/7/2023 12:45:00 AM -99999.99 -179968 -99999.99 -99999.99 -99999.99 -99999.99
1/7/2023 1:00:00 AM -99999.99 -179968 -99999.99 -99999.99 -99999.99 -99999.99
1/7/2023 1:15:00 AM -99999.99 -179968 -99999.99 -99999.99 -99999.99 -99999.99
1/7/2023 1:30:00 AM -99999.99 -179968 -99999.99 -99999.99 -99999.99 -99999.99
1/7/2023 1:45:00 AM -99999.99 -179968 -99999.99 -99999.99 -99999.99 -99999.99
1/7/2023 2:00:00 AM -99999.99 -179968 -99999.99 -99999.99 -99999.99 -99999.99
1/7/2023 2:15:00 AM -99999.99 -179968 -99999.99 -99999.99 -99999.99 -99999.99
1/7/2023 2:30:00 AM -99999.99 -179968 -99999.99 -99999.99 -99999.99 -99999.99
1/7/2023 2:45:00 AM -99999.99 -179968 -99999.99 -99999.99 -99999.99 -99999.99
1/7/2023 3:00:00 AM -99999.99 -179968 -99999.99 -99999.99 -99999.99 -99999.99
1/7/2023 3:15:00 AM -99999.99 -179968 -99999.99 -99999.99 -99999.99 -99999.99
1/7/2023 3:30:00 AM -99999.99 -179968 -99999.99 -99999.99 -99999.99 -99999.99
1/7/2023 3:45:00 AM -99999.99 -179968 -99999.99 -99999.99 -99999.99 -99999.99
1/7/2023 4:00:00 AM -99999.99 -179968 -99999.99 -99999.99 -99999.99 -99999.99
1/7/2023 4:15:00 AM -99999.99 -179968 -99999.99 -99999.99 -99999.99 -99999.99
1/7/2023 4:30:00 AM -99999.99 -179968 -99999.99 -99999.99 -99999.99 -99999.99
1/7/2023 4:45:00 AM -99999.99 -179968 -99999.99 -99999.99 -99999.99 -99999.99
1/7/2023 5:00:00 AM -99999.99 -179968 -99999.99 -99999.99 -99999.99 -99999.99
1/7/2023 5:15:00 AM -99999.99 -179968 -99999.99 -99999.99 -99999.99 -99999.99
1/7/2023 5:30:00 AM -99999.99 -179968 -99999.99 -99999.99 -99999.99 -99999.99
1/7/2023 5:45:00 AM -99999.99 -179968 -99999.99 -99999.99 -99999.99 -99999.99
1/7/2023 6:00:00 AM -99999.99 -179968 -99999.99 -99999.99 -99999.99 -99999.99
1/7/2023 6:15:00 AM -99999.99 -179968 -99999.99 -99999.99 -99999.99 -99999.99
1/7/2023 6:30:00 AM -99999.99 -179968 -99999.99 -99999.99 -99999.99 -99999.99
1/7/2023 6:45:00 AM -99999.99 -179968 -99999.99 -99999.99 -99999.99 -99999.99
1/7/2023 7:00:00 AM -99999.99 -179968 -99999.99 -99999.99 -99999.99 -99999.99
1/7/2023 7:15:00 AM -99999.99 -179968 -99999.99 -99999.99 -99999.99 -99999.99
1/7/2023 7:30:00 AM -99999.99 -179968 -99999.99 -99999.99 -99999.99 -99999.99
1/7/2023 7:45:00 AM -99999.99 -179968 -99999.99 -99999.99 -99999.99 -99999.99
1/7/2023 8:00:00 AM -99999.99 -179968 -99999.99 -99999.99 -99999.99 -99999.99
1/7/2023 8:15:00 AM -99999.99 -179968 -99999.99 -99999.99 -99999.99 -99999.99
1/7/2023 8:30:00 AM -99999.99 -179968 -99999.99 -99999.99 -99999.99 -99999.99
1/7/2023 8:45:00 AM -99999.99 -179968 -99999.99 -99999.99 -99999.99 -99999.99
1/7/2023 9:00:00 AM -99999.99 -179968 -99999.99 -99999.99 -99999.99 -99999.99
1/7/2023 9:15:00 AM -99999.99 -179968 -99999.99 -99999.99 -99999.99 -99999.99
1/7/2023 9:30:00 AM -99999.99 -179968 -99999.99 -99999.99 -99999.99 -99999.99
1/7/2023 9:45:00 AM -99999.99 -179968 -99999.99 -99999.99 -99999.99 -99999.99
1/7/2023 10:00:00 AM -99999.99 -179968 -99999.99 -99999.99 -99999.99 -99999.99
1/7/2023 10:15:00 AM -99999.99 -179968 -99999.99 -99999.99 -99999.99 -99999.99
1/7/2023 10:30:00 AM -99999.99 -179968 -99999.99 -99999.99 -99999.99 -99999.99
1/7/2023 10:45:00 AM -99999.99 -179968 -99999.99 -99999.99 -99999.99 -99999.99
1/7/2023 11:00:00 AM -99999.99 -179968 -99999.99 -99999.99 -99999.99 -99999.99
1/7/2023 11:15:00 AM -99999.99 -179968 -99999.99 -99999.99 -99999.99 -99999.99
1/7/2023 11:30:00 AM -99999.99 -179968 -99999.99 -99999.99 -99999.99 -99999.99
1/7/2023 11:45:00 AM -99999.99 -179968 -99999.99 -99999.99 -99999.99 -99999.99
1/7/2023 12:00:00 PM -99999.99 -179968 -99999.99 -99999.99 -99999.99 -99999.99
1/7/2023 12:15:00 PM -99999.99 -179968 -99999.99 -99999.99 -99999.99 -99999.99
1/7/2023 12:30:00 PM -99999.99 -179968 -99999.99 -99999.99 -99999.99 -99999.99
1/7/2023 12:45:00 PM -99999.99 -179968 -99999.99 -99999.99 -99999.99 -99999.99
1/7/2023 1:00:00 PM -99999.99 -179968 -99999.99 -99999.99 -99999.99 -99999.99
1/7/2023 1:15:00 PM -99999.99 -179968 -99999.99 -99999.99 -99999.99 -99999.99
1/7/2023 1:30:00 PM -99999.99 -179968 -99999.99 -99999.99 -99999.99 -99999.99
1/7/2023 1:45:00 PM -99999.99 -179968 -99999.99 -99999.99 -99999.99 -99999.99
1/7/2023 2:00:00 PM -99999.99 -179968 -99999.99 -99999.99 -99999.99 -99999.99
1/7/2023 2:15:00 PM -99999.99 -179968 -99999.99 -99999.99 -99999.99 -99999.99
1/7/2023 2:30:00 PM -99999.99 -179968 -99999.99 -99999.99 -99999.99 -99999.99
1/7/2023 2:45:00 PM -99999.99 -179968 -99999.99 -99999.99 -99999.99 -99999.99
1/7/2023 3:00:00 PM -99999.99 -179968 -99999.99 -99999.99 -99999.99 -99999.99
1/7/2023 3:15:00 PM -99999.99 -179968 -99999.99 -99999.99 -99999.99 -99999.99
1/7/2023 3:30:00 PM -99999.99 -179968 -99999.99 -99999.99 -99999.99 -99999.99
1/7/2023 3:45:00 PM -99999.99 -179968 -99999.99 -99999.99 -99999.99 -99999.99
1/7/2023 4:00:00 PM -99999.99 -179968 -99999.99 -99999.99 -99999.99 -99999.99
1/7/2023 4:15:00 PM -99999.99 -179968 -99999.99 -99999.99 -99999.99 -99999.99
1/7/2023 4:30:00 PM -99999.99 -179968 -99999.99 -99999.99 -99999.99 -99999.99
1/7/2023 4:45:00 PM -99999.99 -179968 -99999.99 -99999.99 -99999.99 -99999.99
1/7/2023 5:00:00 PM -99999.99 -179968 -99999.99 -99999.99 -99999.99 -99999.99
1/7/2023 5:15:00 PM -99999.99 -179968 -99999.99 -99999.99 -99999.99 -99999.99
1/7/2023 5:30:00 PM -99999.99 -179968 -99999.99 -99999.99 -99999.99 -99999.99
1/7/2023 5:45:00 PM -99999.99 -179968 -99999.99 -99999.99 -99999.99 -99999.99
1/7/2023 6:00:00 PM -99999.99 -179968 -99999.99 -99999.99 -99999.99 -99999.99
1/7/2023 6:15:00 PM -99999.99 -179968 -99999.99 -99999.99 -99999.99 -99999.99
1/7/2023 6:30:00 PM -99999.99 -179968 -99999.99 -99999.99 -99999.99 -99999.99
1/7/2023 6:45:00 PM -99999.99 -179968 -99999.99 -99999.99 -99999.99 -99999.99
1/7/2023 7:00:00 PM -99999.99 -179968 -99999.99 -99999.99 -99999.99 -99999.99
1/7/2023 7:15:00 PM -99999.99 -179968 -99999.99 -99999.99 -99999.99 -99999.99
1/7/2023 7:30:00 PM -99999.99 -179968 -99999.99 -99999.99 -99999.99 -99999.99
1/7/2023 7:45:00 PM -99999.99 -179968 -99999.99 -99999.99 -99999.99 -99999.99
1/7/2023 8:00:00 PM -99999.99 -179968 -99999.99 -99999.99 -99999.99 -99999.99
1/7/2023 8:15:00 PM -99999.99 -179968 -99999.99 -99999.99 -99999.99 -99999.99
1/7/2023 8:30:00 PM -99999.99 -179968 -99999.99 -99999.99 -99999.99 -99999.99
1/7/2023 8:45:00 PM -99999.99 -179968 -99999.99 -99999.99 -99999.99 -99999.99
1/7/2023 9:00:00 PM -99999.99 -179968 -99999.99 -99999.99 -99999.99 -99999.99
1/7/2023 9:15:00 PM -99999.99 -179968 -99999.99 -99999.99 -99999.99 -99999.99
1/7/2023 9:30:00 PM -99999.99 -179968 -99999.99 -99999.99 -99999.99 -99999.99
1/7/2023 9:45:00 PM -99999.99 -179968 -99999.99 -99999.99 -99999.99 -99999.99
1/7/2023 10:00:00 PM -99999.99 -179968 -99999.99 -99999.99 -99999.99 -99999.99
1/7/2023 10:15:00 PM -99999.99 -179968 -99999.99 -99999.99 -99999.99 -99999.99
1/7/2023 10:30:00 PM -99999.99 -179968 -99999.99 -99999.99 -99999.99 -99999.99
1/7/2023 10:45:00 PM -99999.99 -179968 -99999.99 -99999.99 -99999.99 -99999.99
1/7/2023 11:00:00 PM -99999.99 -179968 -99999.99 -99999.99 -99999.99 -99999.99
1/7/2023 11:15:00 PM -99999.99 -179968 -99999.99 -99999.99 -99999.99 -99999.99
1/7/2023 11:30:00 PM -99999.99 -179968 -99999.99 -99999.99 -99999.99 -99999.99
1/7/2023 11:45:00 PM -99999.99 -179968 -99999.99 -99999.99 -99999.99 -99999.99
1/8/2023 12:00:00 AM -99999.99 -179968 -99999.99 -99999.99 -99999.99 -99999.99
1/8/2023 12:15:00 AM -99999.99 -179968 -99999.99 -99999.99 -99999.99 -99999.99
1/8/2023 12:30:00 AM -99999.99 -179968 -99999.99 -99999.99 -99999.99 -99999.99
1/8/2023 12:45:00 AM -99999.99 -179968 -99999.99 -99999.99 -99999.99 -99999.99
1/8/2023 1:00:00 AM -99999.99 -179968 -99999.99 -99999.99 -99999.99 -99999.99
1/8/2023 1:15:00 AM -99999.99 -179968 -99999.99 -99999.99 -99999.99 -99999.99
1/8/2023 1:30:00 AM -99999.99 -179968 -99999.99 -99999.99 -99999.99 -99999.99
1/8/2023 1:45:00 AM -99999.99 -179968 -99999.99 -99999.99 -99999.99 -99999.99
1/8/2023 2:00:00 AM -99999.99 -179968 -99999.99 -99999.99 -99999.99 -99999.99
1/8/2023 2:15:00 AM -99999.99 -179968 -99999.99 -99999.99 -99999.99 -99999.99
1/8/2023 2:30:00 AM -99999.99 -179968 -99999.99 -99999.99 -99999.99 -99999.99
1/8/2023 2:45:00 AM -99999.99 -179968 -99999.99 -99999.99 -99999.99 -99999.99
1/8/2023 3:00:00 AM -99999.99 -179968 -99999.99 -99999.99 -99999.99 -99999.99
1/8/2023 3:15:00 AM -99999.99 -179968 -99999.99 -99999.99 -99999.99 -99999.99
1/8/2023 3:30:00 AM -99999.99 -179968 -99999.99 -99999.99 -99999.99 -99999.99
1/8/2023 3:45:00 AM -99999.99 -179968 -99999.99 -99999.99 -99999.99 -99999.99
1/8/2023 4:00:00 AM -99999.99 -179968 -99999.99 -99999.99 -99999.99 -99999.99
1/8/2023 4:15:00 AM -99999.99 -179968 -99999.99 -99999.99 -99999.99 -99999.99
1/8/2023 4:30:00 AM -99999.99 -179968 -99999.99 -99999.99 -99999.99 -99999.99
1/8/2023 4:45:00 AM -99999.99 -179968 -99999.99 -99999.99 -99999.99 -99999.99
1/8/2023 5:00:00 AM -99999.99 -179968 -99999.99 -99999.99 -99999.99 -99999.99
1/8/2023 5:15:00 AM -99999.99 -179968 -99999.99 -99999.99 -99999.99 -99999.99
1/8/2023 5:30:00 AM -99999.99 -179968 -99999.99 -99999.99 -99999.99 -99999.99
1/8/2023 5:45:00 AM -99999.99 -179968 -99999.99 -99999.99 -99999.99 -99999.99
1/8/2023 6:00:00 AM -99999.99 -179968 -99999.99 -99999.99 -99999.99 -99999.99
1/8/2023 6:15:00 AM -99999.99 -179968 -99999.99 -99999.99 -99999.99 -99999.99
1/8/2023 6:30:00 AM -99999.99 -179968 -99999.99 -99999.99 -99999.99 -99999.99
1/8/2023 6:45:00 AM -99999.99 -179968 -99999.99 -99999.99 -99999.99 -99999.99
1/8/2023 7:00:00 AM -99999.99 -179968 -99999.99 -99999.99 -99999.99 -99999.99
1/8/2023 7:15:00 AM -99999.99 -179968 -99999.99 -99999.99 -99999.99 -99999.99
1/8/2023 7:30:00 AM -99999.99 -179968 -99999.99 -99999.99 -99999.99 -99999.99
1/8/2023 7:45:00 AM -99999.99 -179968 -99999.99 -99999.99 -99999.99 -99999.99
1/8/2023 8:00:00 AM -99999.99 -179968 -99999.99 -99999.99 -99999.99 -99999.99
1/8/2023 8:15:00 AM -99999.99 -179968 -99999.99 -99999.99 -99999.99 -99999.99
1/8/2023 8:30:00 AM -99999.99 -179968 -99999.99 -99999.99 -99999.99 -99999.99
1/8/2023 8:45:00 AM -99999.99 -179968 -99999.99 -99999.99 -99999.99 -99999.99
1/8/2023 9:00:00 AM -99999.99 -179968 -99999.99 -99999.99 -99999.99 -99999.99
1/8/2023 9:15:00 AM -99999.99 -179968 -99999.99 -99999.99 -99999.99 -99999.99
1/8/2023 9:30:00 AM -99999.99 -179968 -99999.99 -99999.99 -99999.99 -99999.99
1/8/2023 9:45:00 AM -99999.99 -179968 -99999.99 -99999.99 -99999.99 -99999.99
1/8/2023 10:00:00 AM -99999.99 -179968 -99999.99 -99999.99 -99999.99 -99999.99
1/8/2023 10:15:00 AM -99999.99 -179968 -99999.99 -99999.99 -99999.99 -99999.99
1/8/2023 10:30:00 AM -99999.99 -179968 -99999.99 -99999.99 -99999.99 -99999.99
1/8/2023 10:45:00 AM -99999.99 -179968 -99999.99 -99999.99 -99999.99 -99999.99
1/8/2023 11:00:00 AM -99999.99 -179968 -99999.99 -99999.99 -99999.99 -99999.99
1/8/2023 11:15:00 AM -99999.99 -179968 -99999.99 -99999.99 -99999.99 -99999.99
1/8/2023 11:30:00 AM -99999.99 -179968 -99999.99 -99999.99 -99999.99 -99999.99
1/8/2023 11:45:00 AM -99999.99 -179968 -99999.99 -99999.99 -99999.99 -99999.99
1/8/2023 12:00:00 PM -99999.99 -179968 -99999.99 -99999.99 -99999.99 -99999.99
1/8/2023 12:15:00 PM -99999.99 -179968 -99999.99 -99999.99 -99999.99 -99999.99
1/8/2023 12:30:00 PM -99999.99 -179968 -99999.99 -99999.99 -99999.99 -99999.99
1/8/2023 12:45:00 PM -99999.99 -179968 -99999.99 -99999.99 -99999.99 -99999.99
1/8/2023 1:00:00 PM -99999.99 -179968 -99999.99 -99999.99 -99999.99 -99999.99
1/8/2023 1:15:00 PM -99999.99 -179968 -99999.99 -99999.99 -99999.99 -99999.99
1/8/2023 1:30:00 PM -99999.99 -179968 -99999.99 -99999.99 -99999.99 -99999.99
1/8/2023 1:45:00 PM -99999.99 -179968 -99999.99 -99999.99 -99999.99 -99999.99
1/8/2023 2:00:00 PM -99999.99 -179968 -99999.99 -99999.99 -99999.99 -99999.99
1/8/2023 2:15:00 PM -99999.99 -179968 -99999.99 -99999.99 -99999.99 -99999.99
1/8/2023 2:30:00 PM -99999.99 -179968 -99999.99 -99999.99 -99999.99 -99999.99
1/8/2023 2:45:00 PM -99999.99 -179968 -99999.99 -99999.99 -99999.99 -99999.99
1/8/2023 3:00:00 PM -99999.99 -179968 -99999.99 -99999.99 -99999.99 -99999.99
1/8/2023 3:15:00 PM -99999.99 -179968 -99999.99 -99999.99 -99999.99 -99999.99
1/8/2023 3:30:00 PM -99999.99 -179968 -99999.99 -99999.99 -99999.99 -99999.99
1/8/2023 3:45:00 PM -99999.99 -179968 -99999.99 -99999.99 -99999.99 -99999.99
1/8/2023 4:00:00 PM -99999.99 -179968 -99999.99 -99999.99 -99999.99 -99999.99
1/8/2023 4:15:00 PM -99999.99 -179968 -99999.99 -99999.99 -99999.99 -99999.99
1/8/2023 4:30:00 PM -99999.99 -179968 -99999.99 -99999.99 -99999.99 -99999.99
1/8/2023 4:45:00 PM -99999.99 -179968 -99999.99 -99999.99 -99999.99 -99999.99
1/8/2023 5:00:00 PM -99999.99 -179968 -99999.99 -99999.99 -99999.99 -99999.99
1/8/2023 5:15:00 PM -99999.99 -179968 -99999.99 -99999.99 -99999.99 -99999.99
1/8/2023 5:30:00 PM -99999.99 -179968 -99999.99 -99999.99 -99999.99 -99999.99
1/8/2023 5:45:00 PM -99999.99 -179968 -99999.99 -99999.99 -99999.99 -99999.99
1/8/2023 6:00:00 PM -99999.99 -179968 -99999.99 -99999.99 -99999.99 -99999.99
1/8/2023 6:15:00 PM -99999.99 -179968 -99999.99 -99999.99 -99999.99 -99999.99
1/8/2023 6:30:00 PM -99999.99 -179968 -99999.99 -99999.99 -99999.99 -99999.99
1/8/2023 6:45:00 PM -99999.99 -179968 -99999.99 -99999.99 -99999.99 -99999.99
1/8/2023 7:00:00 PM -99999.99 -179968 -99999.99 -99999.99 -99999.99 -99999.99
1/8/2023 7:15:00 PM -99999.99 -179968 -99999.99 -99999.99 -99999.99 -99999.99
1/8/2023 7:30:00 PM -99999.99 -179968 -99999.99 -99999.99 -99999.99 -99999.99
1/8/2023 7:45:00 PM -99999.99 -179968 -99999.99 -99999.99 -99999.99 -99999.99
1/8/2023 8:00:00 PM -99999.99 -179968 -99999.99 -99999.99 -99999.99 -99999.99
1/8/2023 8:15:00 PM -99999.99 -179968 -99999.99 -99999.99 -99999.99 -99999.99
1/8/2023 8:30:00 PM -99999.99 -179968 -99999.99 -99999.99 -99999.99 -99999.99
1/8/2023 8:45:00 PM -99999.99 -179968 -99999.99 -99999.99 -99999.99 -99999.99
1/8/2023 9:00:00 PM -99999.99 -179968 -99999.99 -99999.99 -99999.99 -99999.99
1/8/2023 9:15:00 PM -99999.99 -179968 -99999.99 -99999.99 -99999.99 -99999.99
1/8/2023 9:30:00 PM -99999.99 -179968 -99999.99 -99999.99 -99999.99 -99999.99
1/8/2023 9:45:00 PM -99999.99 -179968 -99999.99 -99999.99 -99999.99 -99999.99
1/8/2023 10:00:00 PM -99999.99 -179968 -99999.99 -99999.99 -99999.99 -99999.99
1/8/2023 10:15:00 PM -99999.99 -179968 -99999.99 -99999.99 -99999.99 -99999.99
1/8/2023 10:30:00 PM -99999.99 -179968 -99999.99 -99999.99 -99999.99 -99999.99
1/8/2023 10:45:00 PM -99999.99 -179968 -99999.99 -99999.99 -99999.99 -99999.99
1/8/2023 11:00:00 PM -99999.99 -179968 -99999.99 -99999.99 -99999.99 -99999.99
1/8/2023 11:15:00 PM -99999.99 -179968 -99999.99 -99999.99 -99999.99 -99999.99
1/8/2023 11:30:00 PM -99999.99 -179968 -99999.99 -99999.99 -99999.99 -99999.99
1/8/2023 11:45:00 PM -99999.99 -179968 -99999.99 -99999.99 -99999.99 -99999.99
1/9/2023 12:00:00 AM -99999.99 -179968 -99999.99 -99999.99 -99999.99 -99999.99
1/9/2023 12:15:00 AM -99999.99 -179968 -99999.99 -99999.99 -99999.99 -99999.99
1/9/2023 12:30:00 AM -99999.99 -179968 -99999.99 -99999.99 -99999.99 -99999.99
1/9/2023 12:45:00 AM -99999.99 -179968 -99999.99 -99999.99 -99999.99 -99999.99
1/9/2023 1:00:00 AM -99999.99 -179968 -99999.99 -99999.99 -99999.99 -99999.99
1/9/2023 1:15:00 AM -99999.99 -179968 -99999.99 -99999.99 -99999.99 -99999.99
1/9/2023 1:30:00 AM -99999.99 -179968 -99999.99 -99999.99 -99999.99 -99999.99
1/9/2023 1:45:00 AM -99999.99 -179968 -99999.99 -99999.99 -99999.99 -99999.99
1/9/2023 2:00:00 AM -99999.99 -179968 -99999.99 -99999.99 -99999.99 -99999.99
1/9/2023 2:15:00 AM -99999.99 -179968 -99999.99 -99999.99 -99999.99 -99999.99
1/9/2023 2:30:00 AM -99999.99 -179968 -99999.99 -99999.99 -99999.99 -99999.99
1/9/2023 2:45:00 AM -99999.99 -179968 -99999.99 -99999.99 -99999.99 -99999.99
1/9/2023 3:00:00 AM -99999.99 -179968 -99999.99 -99999.99 -99999.99 -99999.99
1/9/2023 3:15:00 AM -99999.99 -179968 -99999.99 -99999.99 -99999.99 -99999.99
1/9/2023 3:30:00 AM -99999.99 -179968 -99999.99 -99999.99 -99999.99 -99999.99
1/9/2023 3:45:00 AM -99999.99 -179968 -99999.99 -99999.99 -99999.99 -99999.99
1/9/2023 4:00:00 AM -99999.99 -179968 -99999.99 -99999.99 -99999.99 -99999.99
1/9/2023 4:15:00 AM -99999.99 -179968 -99999.99 -99999.99 -99999.99 -99999.99
1/9/2023 4:30:00 AM -99999.99 -179968 -99999.99 -99999.99 -99999.99 -99999.99
1/9/2023 4:45:00 AM -99999.99 -179968 -99999.99 -99999.99 -99999.99 -99999.99
1/9/2023 5:00:00 AM -99999.99 -179968 -99999.99 -99999.99 -99999.99 -99999.99
1/9/2023 5:15:00 AM -99999.99 -179968 -99999.99 -99999.99 -99999.99 -99999.99
1/9/2023 5:30:00 AM -99999.99 -179968 -99999.99 -99999.99 -99999.99 -99999.99
1/9/2023 5:45:00 AM -99999.99 -179968 -99999.99 -99999.99 -99999.99 -99999.99
1/9/2023 6:00:00 AM -99999.99 -179968 -99999.99 -99999.99 -99999.99 -99999.99
1/9/2023 6:15:00 AM -99999.99 -179968 -99999.99 -99999.99 -99999.99 -99999.99
1/9/2023 6:30:00 AM -99999.99 -179968 -99999.99 -99999.99 -99999.99 -99999.99
1/9/2023 6:45:00 AM -99999.99 -179968 -99999.99 -99999.99 -99999.99 -99999.99
1/9/2023 7:00:00 AM -99999.99 -179968 -99999.99 -99999.99 -99999.99 -99999.99
1/9/2023 7:15:00 AM -99999.99 -179968 -99999.99 -99999.99 -99999.99 -99999.99
1/9/2023 7:30:00 AM -99999.99 -179968 -99999.99 -99999.99 -99999.99 -99999.99
1/9/2023 7:45:00 AM -99999.99 -179968 -99999.99 -99999.99 -99999.99 -99999.99
1/9/2023 8:00:00 AM -99999.99 -179968 -99999.99 -99999.99 -99999.99 -99999.99
1/9/2023 8:15:00 AM -99999.99 -179968 -99999.99 -99999.99 -99999.99 -99999.99
1/9/2023 8:30:00 AM -99999.99 -179968 -99999.99 -99999.99 -99999.99 -99999.99
1/9/2023 8:45:00 AM -99999.99 -179968 -99999.99 -99999.99 -99999.99 -99999.99
1/9/2023 9:00:00 AM -99999.99 -179968 -99999.99 -99999.99 -99999.99 -99999.99
1/9/2023 9:15:00 AM -99999.99 -179968 -99999.99 -99999.99 -99999.99 -99999.99
1/9/2023 9:30:00 AM -99999.99 -179968 -99999.99 -99999.99 -99999.99 -99999.99
1/9/2023 9:45:00 AM -99999.99 -179968 -99999.99 -99999.99 -99999.99 -99999.99
1/9/2023 10:00:00 AM -99999.99 -179968 -99999.99 -99999.99 -99999.99 -99999.99
1/9/2023 10:15:00 AM -99999.99 -179968 -99999.99 -99999.99 -99999.99 -99999.99
1/9/2023 10:30:00 AM -99999.99 -179968 -99999.99 -99999.99 -99999.99 -99999.99
1/9/2023 10:45:00 AM -99999.99 -179968 -99999.99 -99999.99 -99999.99 -99999.99
1/9/2023 11:00:00 AM -99999.99 -179968 -99999.99 -99999.99 -99999.99 -99999.99
1/9/2023 11:15:00 AM -99999.99 -179968 -99999.99 -99999.99 -99999.99 -99999.99
1/9/2023 11:30:00 AM -99999.99 -179968 -99999.99 -99999.99 -99999.99 -99999.99
1/9/2023 11:45:00 AM -99999.99 -179968 -99999.99 -99999.99 -99999.99 -99999.99
1/9/2023 12:00:00 PM -99999.99 -179968 -99999.99 -99999.99 -99999.99 -99999.99
1/9/2023 12:15:00 PM -99999.99 -179968 -99999.99 -99999.99 -99999.99 -99999.99
1/9/2023 12:30:00 PM -99999.99 -179968 -99999.99 -99999.99 -99999.99 -99999.99
1/9/2023 12:45:00 PM -99999.99 -179968 -99999.99 -99999.99 -99999.99 -99999.99
1/9/2023 1:00:00 PM -99999.99 -179968 -99999.99 -99999.99 -99999.99 -99999.99
1/9/2023 1:15:00 PM -99999.99 -179968 -99999.99 -99999.99 -99999.99 -99999.99
1/9/2023 1:30:00 PM -99999.99 -179968 -99999.99 -99999.99 -99999.99 -99999.99
1/9/2023 1:45:00 PM -99999.99 -179968 -99999.99 -99999.99 -99999.99 -99999.99
1/9/2023 2:00:00 PM -99999.99 -179968 -99999.99 -99999.99 -99999.99 -99999.99
1/9/2023 2:15:00 PM -99999.99 -179968 -99999.99 -99999.99 -99999.99 -99999.99
1/9/2023 2:30:00 PM -99999.99 -179968 -99999.99 -99999.99 -99999.99 -99999.99
1/9/2023 2:45:00 PM -99999.99 -179968 -99999.99 -99999.99 -99999.99 -99999.99
1/9/2023 3:00:00 PM -99999.99 -179968 -99999.99 -99999.99 -99999.99 -99999.99
1/9/2023 3:15:00 PM -99999.99 -179968 -99999.99 -99999.99 -99999.99 -99999.99
1/9/2023 3:30:00 PM -99999.99 -179968 -99999.99 -99999.99 -99999.99 -99999.99
1/9/2023 3:45:00 PM -99999.99 -179968 -99999.99 -99999.99 -99999.99 -99999.99
1/9/2023 4:00:00 PM -99999.99 -179968 -99999.99 -99999.99 -99999.99 -99999.99
1/9/2023 4:15:00 PM -99999.99 -179968 -99999.99 -99999.99 -99999.99 -99999.99
1/9/2023 4:30:00 PM -99999.99 -179968 -99999.99 -99999.99 -99999.99 -99999.99
1/9/2023 4:45:00 PM -99999.99 -179968 -99999.99 -99999.99 -99999.99 -99999.99
1/9/2023 5:00:00 PM -99999.99 -179968 -99999.99 -99999.99 -99999.99 -99999.99
1/9/2023 5:15:00 PM -99999.99 -179968 -99999.99 -99999.99 -99999.99 -99999.99
1/9/2023 5:30:00 PM -99999.99 -179968 -99999.99 -99999.99 -99999.99 -99999.99
1/9/2023 5:45:00 PM -99999.99 -179968 -99999.99 -99999.99 -99999.99 -99999.99
1/9/2023 6:00:00 PM -99999.99 -179968 -99999.99 -99999.99 -99999.99 -99999.99
1/9/2023 6:15:00 PM -99999.99 -179968 -99999.99 -99999.99 -99999.99 -99999.99
1/9/2023 6:30:00 PM -99999.99 -179968 -99999.99 -99999.99 -99999.99 -99999.99
1/9/2023 6:45:00 PM -99999.99 -179968 -99999.99 -99999.99 -99999.99 -99999.99
1/9/2023 7:00:00 PM -99999.99 -179968 -99999.99 -99999.99 -99999.99 -99999.99
1/9/2023 7:15:00 PM -99999.99 -179968 -99999.99 -99999.99 -99999.99 -99999.99
1/9/2023 7:30:00 PM -99999.99 -179968 -99999.99 -99999.99 -99999.99 -99999.99
1/9/2023 7:45:00 PM -99999.99 -179968 -99999.99 -99999.99 -99999.99 -99999.99
1/9/2023 8:00:00 PM -99999.99 -179968 -99999.99 -99999.99 -99999.99 -99999.99
1/9/2023 8:15:00 PM -99999.99 -179968 -99999.99 -99999.99 -99999.99 -99999.99
1/9/2023 8:30:00 PM -99999.99 -179968 -99999.99 -99999.99 -99999.99 -99999.99
1/9/2023 8:45:00 PM -99999.99 -179968 -99999.99 -99999.99 -99999.99 -99999.99
1/9/2023 9:00:00 PM -99999.99 -179968 -99999.99 -99999.99 -99999.99 -99999.99
1/9/2023 9:15:00 PM -99999.99 -179968 -99999.99 -99999.99 -99999.99 -99999.99
1/9/2023 9:30:00 PM -99999.99 -179968 -99999.99 -99999.99 -99999.99 -99999.99
1/9/2023 9:45:00 PM -99999.99 -179968 -99999.99 -99999.99 -99999.99 -99999.99
1/9/2023 10:00:00 PM -99999.99 -179968 -99999.99 -99999.99 -99999.99 -99999.99
1/9/2023 10:15:00 PM -99999.99 -179968 -99999.99 -99999.99 -99999.99 -99999.99
1/9/2023 10:30:00 PM -99999.99 -179968 -99999.99 -99999.99 -99999.99 -99999.99
1/9/2023 10:45:00 PM -99999.99 -179968 -99999.99 -99999.99 -99999.99 -99999.99
1/9/2023 11:00:00 PM -99999.99 -179968 -99999.99 -99999.99 -99999.99 -99999.99
1/9/2023 11:15:00 PM -99999.99 -179968 -99999.99 -99999.99 -99999.99 -99999.99
1/9/2023 11:30:00 PM -99999.99 -179968 -99999.99 -99999.99 -99999.99 -99999.99
1/9/2023 11:45:00 PM -99999.99 -179968 -99999.99 -99999.99 -99999.99 -99999.99
1/10/2023 12:00:00 AM -99999.99 -179968 -99999.99 -99999.99 -99999.99 -99999.99
1/10/2023 12:15:00 AM -99999.99 -179968 -99999.99 -99999.99 -99999.99 -99999.99
1/10/2023 12:30:00 AM -99999.99 -179968 -99999.99 -99999.99 -99999.99 -99999.99
1/10/2023 12:45:00 AM -99999.99 -179968 -99999.99 -99999.99 -99999.99 -99999.99
1/10/2023 1:00:00 AM -99999.99 -179968 -99999.99 -99999.99 -99999.99 -99999.99
1/10/2023 1:15:00 AM -99999.99 -179968 -99999.99 -99999.99 -99999.99 -99999.99
1/10/2023 1:30:00 AM -99999.99 -179968 -99999.99 -99999.99 -99999.99 -99999.99
1/10/2023 1:45:00 AM -99999.99 -179968 -99999.99 -99999.99 -99999.99 -99999.99
1/10/2023 2:00:00 AM -99999.99 -179968 -99999.99 -99999.99 -99999.99 -99999.99
1/10/2023 2:15:00 AM -99999.99 -179968 -99999.99 -99999.99 -99999.99 -99999.99
1/10/2023 2:30:00 AM -99999.99 -179968 -99999.99 -99999.99 -99999.99 -99999.99
1/10/2023 2:45:00 AM -99999.99 -179968 -99999.99 -99999.99 -99999.99 -99999.99
1/10/2023 3:00:00 AM -99999.99 -179968 -99999.99 -99999.99 -99999.99 -99999.99
1/10/2023 3:15:00 AM -99999.99 -179968 -99999.99 -99999.99 -99999.99 -99999.99
1/10/2023 3:30:00 AM -99999.99 -179968 -99999.99 -99999.99 -99999.99 -99999.99
1/10/2023 3:45:00 AM -99999.99 -179968 -99999.99 -99999.99 -99999.99 -99999.99
1/10/2023 4:00:00 AM -99999.99 -179968 -99999.99 -99999.99 -99999.99 -99999.99
1/10/2023 4:15:00 AM -99999.99 -179968 -99999.99 -99999.99 -99999.99 -99999.99
1/10/2023 4:30:00 AM -99999.99 -179968 -99999.99 -99999.99 -99999.99 -99999.99
1/10/2023 4:45:00 AM -99999.99 -179968 -99999.99 -99999.99 -99999.99 -99999.99
1/10/2023 5:00:00 AM -99999.99 -179968 -99999.99 -99999.99 -99999.99 -99999.99
1/10/2023 5:15:00 AM -99999.99 -179968 -99999.99 -99999.99 -99999.99 -99999.99
1/10/2023 5:30:00 AM -99999.99 -179968 -99999.99 -99999.99 -99999.99 -99999.99
1/10/2023 5:45:00 AM -99999.99 -179968 -99999.99 -99999.99 -99999.99 -99999.99
1/10/2023 6:00:00 AM -99999.99 -179968 -99999.99 -99999.99 -99999.99 -99999.99
1/10/2023 6:15:00 AM -99999.99 -179968 -99999.99 -99999.99 -99999.99 -99999.99
1/10/2023 6:30:00 AM -99999.99 -179968 -99999.99 -99999.99 -99999.99 -99999.99
1/10/2023 6:45:00 AM -99999.99 -179968 -99999.99 -99999.99 -99999.99 -99999.99
1/10/2023 7:00:00 AM -99999.99 -179968 -99999.99 -99999.99 -99999.99 -99999.99
1/10/2023 7:15:00 AM -99999.99 -179968 -99999.99 -99999.99 -99999.99 -99999.99
1/10/2023 7:30:00 AM -99999.99 -179968 -99999.99 -99999.99 -99999.99 -99999.99
1/10/2023 7:45:00 AM -99999.99 -179968 -99999.99 -99999.99 -99999.99 -99999.99
1/10/2023 8:00:00 AM -99999.99 -179968 -99999.99 -99999.99 -99999.99 -99999.99
1/10/2023 8:15:00 AM -99999.99 -179968 -99999.99 -99999.99 -99999.99 -99999.99
1/10/2023 8:30:00 AM -99999.99 -179968 -99999.99 -99999.99 -99999.99 -99999.99
1/10/2023 8:45:00 AM -99999.99 -179968 -99999.99 -99999.99 -99999.99 -99999.99
1/10/2023 9:00:00 AM -99999.99 -179968 -99999.99 -99999.99 -99999.99 -99999.99
1/10/2023 9:15:00 AM -99999.99 -179968 -99999.99 -99999.99 -99999.99 -99999.99
1/10/2023 9:30:00 AM -99999.99 -179968 -99999.99 -99999.99 -99999.99 -99999.99
1/10/2023 9:45:00 AM -99999.99 -179968 -99999.99 -99999.99 -99999.99 -99999.99
1/10/2023 10:00:00 AM -99999.99 -179968 -99999.99 -99999.99 -99999.99 -99999.99
1/10/2023 10:15:00 AM -99999.99 -179968 -99999.99 -99999.99 -99999.99 -99999.99
1/10/2023 10:30:00 AM -99999.99 -179968 -99999.99 -99999.99 -99999.99 -99999.99
1/10/2023 10:45:00 AM -99999.99 -179968 -99999.99 -99999.99 -99999.99 -99999.99
1/10/2023 11:00:00 AM -99999.99 -179968 -99999.99 -99999.99 -99999.99 -99999.99
1/10/2023 11:15:00 AM -99999.99 -179968 -99999.99 -99999.99 -99999.99 -99999.99
1/10/2023 11:30:00 AM -99999.99 -179968 -99999.99 -99999.99 -99999.99 -99999.99
1/10/2023 11:45:00 AM -99999.99 -179968 -99999.99 -99999.99 -99999.99 -99999.99
1/10/2023 12:00:00 PM -99999.99 -179968 -99999.99 -99999.99 -99999.99 -99999.99
1/10/2023 12:15:00 PM -99999.99 -179968 -99999.99 -99999.99 -99999.99 -99999.99
1/10/2023 12:30:00 PM -99999.99 -179968 -99999.99 -99999.99 -99999.99 -99999.99
1/10/2023 12:45:00 PM -99999.99 -179968 -99999.99 -99999.99 -99999.99 -99999.99
1/10/2023 1:00:00 PM -99999.99 -179968 -99999.99 -99999.99 -99999.99 -99999.99
1/10/2023 1:15:00 PM -99999.99 -179968 -99999.99 -99999.99 -99999.99 -99999.99
1/10/2023 1:30:00 PM -99999.99 -179968 -99999.99 -99999.99 -99999.99 -99999.99
1/10/2023 1:45:00 PM -99999.99 -179968 -99999.99 -99999.99 -99999.99 -99999.99
1/10/2023 2:00:00 PM -99999.99 -179968 -99999.99 -99999.99 -99999.99 -99999.99
1/10/2023 2:15:00 PM -99999.99 -179968 -99999.99 -99999.99 -99999.99 -99999.99
1/10/2023 2:30:00 PM -99999.99 -179968 -99999.99 -99999.99 -99999.99 -99999.99
1/10/2023 2:45:00 PM -99999.99 -179968 -99999.99 -99999.99 -99999.99 -99999.99
1/10/2023 3:00:00 PM -99999.99 -179968 -99999.99 -99999.99 -99999.99 -99999.99
1/10/2023 3:15:00 PM -99999.99 -179968 -99999.99 -99999.99 -99999.99 -99999.99
1/10/2023 3:30:00 PM -99999.99 -179968 -99999.99 -99999.99 -99999.99 -99999.99
1/10/2023 3:45:00 PM -99999.99 -179968 -99999.99 -99999.99 -99999.99 -99999.99
1/10/2023 4:00:00 PM -99999.99 -179968 -99999.99 -99999.99 -99999.99 -99999.99
1/10/2023 4:15:00 PM -99999.99 -179968 -99999.99 -99999.99 -99999.99 -99999.99
1/10/2023 4:30:00 PM -99999.99 -179968 -99999.99 -99999.99 -99999.99 -99999.99
1/10/2023 4:45:00 PM -99999.99 -179968 -99999.99 -99999.99 -99999.99 -99999.99
1/10/2023 5:00:00 PM -99999.99 -179968 -99999.99 -99999.99 -99999.99 -99999.99
1/10/2023 5:15:00 PM -99999.99 -179968 -99999.99 -99999.99 -99999.99 -99999.99
1/10/2023 5:30:00 PM -99999.99 -179968 -99999.99 -99999.99 -99999.99 -99999.99
1/10/2023 5:45:00 PM -99999.99 -179968 -99999.99 -99999.99 -99999.99 -99999.99
1/10/2023 6:00:00 PM -99999.99 -179968 -99999.99 -99999.99 -99999.99 -99999.99
1/10/2023 6:15:00 PM -99999.99 -179968 -99999.99 -99999.99 -99999.99 -99999.99
1/10/2023 6:30:00 PM -99999.99 -179968 -99999.99 -99999.99 -99999.99 -99999.99
1/10/2023 6:45:00 PM -99999.99 -179968 -99999.99 -99999.99 -99999.99 -99999.99
1/10/2023 7:00:00 PM -99999.99 -179968 -99999.99 -99999.99 -99999.99 -99999.99
1/10/2023 7:15:00 PM -99999.99 -179968 -99999.99 -99999.99 -99999.99 -99999.99
1/10/2023 7:30:00 PM -99999.99 -179968 -99999.99 -99999.99 -99999.99 -99999.99
1/10/2023 7:45:00 PM -99999.99 -179968 -99999.99 -99999.99 -99999.99 -99999.99
1/10/2023 8:00:00 PM -99999.99 -179968 -99999.99 -99999.99 -99999.99 -99999.99
1/10/2023 8:15:00 PM -99999.99 -179968 -99999.99 -99999.99 -99999.99 -99999.99
1/10/2023 8:30:00 PM -99999.99 -179968 -99999.99 -99999.99 -99999.99 -99999.99
1/10/2023 8:45:00 PM -99999.99 -179968 -99999.99 -99999.99 -99999.99 -99999.99
1/10/2023 9:00:00 PM -99999.99 -179968 -99999.99 -99999.99 -99999.99 -99999.99
1/10/2023 9:15:00 PM -99999.99 -179968 -99999.99 -99999.99 -99999.99 -99999.99
1/10/2023 9:30:00 PM -99999.99 -179968 -99999.99 -99999.99 -99999.99 -99999.99
1/10/2023 9:45:00 PM -99999.99 -179968 -99999.99 -99999.99 -99999.99 -99999.99
1/10/2023 10:00:00 PM -99999.99 -179968 -99999.99 -99999.99 -99999.99 -99999.99
1/10/2023 10:15:00 PM -99999.99 -179968 -99999.99 -99999.99 -99999.99 -99999.99
1/10/2023 10:30:00 PM -99999.99 -179968 -99999.99 -99999.99 -99999.99 -99999.99
1/10/2023 10:45:00 PM -99999.99 -179968 -99999.99 -99999.99 -99999.99 -99999.99
1/10/2023 11:00:00 PM -99999.99 -179968 -99999.99 -99999.99 -99999.99 -99999.99
1/10/2023 11:15:00 PM -99999.99 -179968 -99999.99 -99999.99 -99999.99 -99999.99
1/10/2023 11:30:00 PM -99999.99 -179968 -99999.99 -99999.99 -99999.99 -99999.99
1/10/2023 11:45:00 PM -99999.99 -179968 -99999.99 -99999.99 -99999.99 -99999.99
1/11/2023 12:00:00 AM -99999.99 -179968 -99999.99 -99999.99 -99999.99 -99999.99
1/11/2023 12:15:00 AM -99999.99 -179968 -99999.99 -99999.99 -99999.99 -99999.99
1/11/2023 12:30:00 AM -99999.99 -179968 -99999.99 -99999.99 -99999.99 -99999.99
1/11/2023 12:45:00 AM -99999.99 -179968 -99999.99 -99999.99 -99999.99 -99999.99
1/11/2023 1:00:00 AM -99999.99 -179968 -99999.99 -99999.99 -99999.99 -99999.99
1/11/2023 1:15:00 AM -99999.99 -179968 -99999.99 -99999.99 -99999.99 -99999.99
1/11/2023 1:30:00 AM -99999.99 -179968 -99999.99 -99999.99 -99999.99 -99999.99
1/11/2023 1:45:00 AM -99999.99 -179968 -99999.99 -99999.99 -99999.99 -99999.99
1/11/2023 2:00:00 AM -99999.99 -179968 -99999.99 -99999.99 -99999.99 -99999.99
1/11/2023 2:15:00 AM -99999.99 -179968 -99999.99 -99999.99 -99999.99 -99999.99
1/11/2023 2:30:00 AM -99999.99 -179968 -99999.99 -99999.99 -99999.99 -99999.99
1/11/2023 2:45:00 AM -99999.99 -179968 -99999.99 -99999.99 -99999.99 -99999.99
1/11/2023 3:00:00 AM -99999.99 -179968 -99999.99 -99999.99 -99999.99 -99999.99
1/11/2023 3:15:00 AM -99999.99 -179968 -99999.99 -99999.99 -99999.99 -99999.99
1/11/2023 3:30:00 AM -99999.99 -179968 -99999.99 -99999.99 -99999.99 -99999.99
1/11/2023 3:45:00 AM -99999.99 -179968 -99999.99 -99999.99 -99999.99 -99999.99
1/11/2023 4:00:00 AM -99999.99 -179968 -99999.99 -99999.99 -99999.99 -99999.99
1/11/2023 4:15:00 AM -99999.99 -179968 -99999.99 -99999.99 -99999.99 -99999.99
1/11/2023 4:30:00 AM -99999.99 -179968 -99999.99 -99999.99 -99999.99 -99999.99
1/11/2023 4:45:00 AM -99999.99 -179968 -99999.99 -99999.99 -99999.99 -99999.99
1/11/2023 5:00:00 AM -99999.99 -179968 -99999.99 -99999.99 -99999.99 -99999.99
1/11/2023 5:15:00 AM -99999.99 -179968 -99999.99 -99999.99 -99999.99 -99999.99
1/11/2023 5:30:00 AM -99999.99 -179968 -99999.99 -99999.99 -99999.99 -99999.99
1/11/2023 5:45:00 AM -99999.99 -179968 -99999.99 -99999.99 -99999.99 -99999.99
1/11/2023 6:00:00 AM -99999.99 -179968 -99999.99 -99999.99 -99999.99 -99999.99
1/11/2023 6:15:00 AM -99999.99 -179968 -99999.99 -99999.99 -99999.99 -99999.99
1/11/2023 6:30:00 AM -99999.99 -179968 -99999.99 -99999.99 -99999.99 -99999.99
1/11/2023 6:45:00 AM -99999.99 -179968 -99999.99 -99999.99 -99999.99 -99999.99
1/11/2023 7:00:00 AM -99999.99 -179968 -99999.99 -99999.99 -99999.99 -99999.99
1/11/2023 7:15:00 AM -99999.99 -179968 -99999.99 -99999.99 -99999.99 -99999.99
1/11/2023 7:30:00 AM -99999.99 -179968 -99999.99 -99999.99 -99999.99 -99999.99
1/11/2023 7:45:00 AM -99999.99 -179968 -99999.99 -99999.99 -99999.99 -99999.99
1/11/2023 8:00:00 AM -99999.99 -179968 -99999.99 -99999.99 -99999.99 -99999.99
1/11/2023 8:15:00 AM -99999.99 -179968 -99999.99 -99999.99 -99999.99 -99999.99
1/11/2023 8:30:00 AM -99999.99 -179968 -99999.99 -99999.99 -99999.99 -99999.99
1/11/2023 8:45:00 AM -99999.99 -179968 -99999.99 -99999.99 -99999.99 -99999.99
1/11/2023 9:00:00 AM -99999.99 -179968 -99999.99 -99999.99 -99999.99 -99999.99
1/11/2023 9:15:00 AM -99999.99 -179968 -99999.99 -99999.99 -99999.99 -99999.99
1/11/2023 9:30:00 AM -99999.99 -179968 -99999.99 -99999.99 -99999.99 -99999.99
1/11/2023 9:45:00 AM -99999.99 -179968 -99999.99 -99999.99 -99999.99 -99999.99
1/11/2023 10:00:00 AM -99999.99 -179968 -99999.99 -99999.99 -99999.99 -99999.99
1/11/2023 10:15:00 AM -99999.99 -179968 -99999.99 -99999.99 -99999.99 -99999.99
1/11/2023 10:30:00 AM -99999.99 -179968 -99999.99 -99999.99 -99999.99 -99999.99
1/11/2023 10:45:00 AM -99999.99 -179968 -99999.99 -99999.99 -99999.99 -99999.99
1/11/2023 11:00:00 AM -99999.99 -179968 -99999.99 -99999.99 -99999.99 -99999.99
1/11/2023 11:15:00 AM -99999.99 -179968 -99999.99 -99999.99 -99999.99 -99999.99
1/11/2023 11:30:00 AM -99999.99 -179968 -99999.99 -99999.99 -99999.99 -99999.99
1/11/2023 11:45:00 AM -99999.99 -179968 -99999.99 -99999.99 -99999.99 -99999.99
1/11/2023 12:00:00 PM -99999.99 -179968 -99999.99 -99999.99 -99999.99 -99999.99
1/11/2023 12:15:00 PM -99999.99 -179968 -99999.99 -99999.99 -99999.99 -99999.99
1/11/2023 12:30:00 PM -99999.99 -179968 -99999.99 -99999.99 -99999.99 -99999.99
1/11/2023 12:45:00 PM -99999.99 -179968 -99999.99 -99999.99 -99999.99 -99999.99
1/11/2023 1:00:00 PM -99999.99 -179968 -99999.99 -99999.99 -99999.99 -99999.99
1/11/2023 1:15:00 PM -99999.99 -179968 -99999.99 -99999.99 -99999.99 -99999.99
1/11/2023 1:30:00 PM -99999.99 -179968 -99999.99 -99999.99 -99999.99 -99999.99
1/11/2023 1:45:00 PM -99999.99 -179968 -99999.99 -99999.99 -99999.99 -99999.99
1/11/2023 2:00:00 PM -99999.99 -179968 -99999.99 -99999.99 -99999.99 -99999.99
1/11/2023 2:15:00 PM -99999.99 -179968 -99999.99 -99999.99 -99999.99 -99999.99
1/11/2023 2:30:00 PM -99999.99 -179968 -99999.99 -99999.99 -99999.99 -99999.99
1/11/2023 2:45:00 PM -99999.99 -179968 -99999.99 -99999.99 -99999.99 -99999.99
1/11/2023 3:00:00 PM -99999.99 -179968 -99999.99 -99999.99 -99999.99 -99999.99
1/11/2023 3:15:00 PM -99999.99 -179968 -99999.99 -99999.99 -99999.99 -99999.99
1/11/2023 3:30:00 PM -99999.99 -179968 -99999.99 -99999.99 -99999.99 -99999.99
1/11/2023 3:45:00 PM -99999.99 -179968 -99999.99 -99999.99 -99999.99 -99999.99
1/11/2023 4:00:00 PM -99999.99 -179968 -99999.99 -99999.99 -99999.99 -99999.99
1/11/2023 4:15:00 PM -99999.99 -179968 -99999.99 -99999.99 -99999.99 -99999.99
1/11/2023 4:30:00 PM -99999.99 -179968 -99999.99 -99999.99 -99999.99 -99999.99
1/11/2023 4:45:00 PM -99999.99 -179968 -99999.99 -99999.99 -99999.99 -99999.99
1/11/2023 5:00:00 PM -99999.99 -179968 -99999.99 -99999.99 -99999.99 -99999.99
1/11/2023 5:15:00 PM -99999.99 -179968 -99999.99 -99999.99 -99999.99 -99999.99
1/11/2023 5:30:00 PM -99999.99 -179968 -99999.99 -99999.99 -99999.99 -99999.99
1/11/2023 5:45:00 PM -99999.99 -179968 -99999.99 -99999.99 -99999.99 -99999.99
1/11/2023 6:00:00 PM -99999.99 -179968 -99999.99 -99999.99 -99999.99 -99999.99
1/11/2023 6:15:00 PM -99999.99 -179968 -99999.99 -99999.99 -99999.99 -99999.99
1/11/2023 6:30:00 PM -99999.99 -179968 -99999.99 -99999.99 -99999.99 -99999.99
1/11/2023 6:45:00 PM -99999.99 -179968 -99999.99 -99999.99 -99999.99 -99999.99
1/11/2023 7:00:00 PM -99999.99 -179968 -99999.99 -99999.99 -99999.99 -99999.99
1/11/2023 7:15:00 PM -99999.99 -179968 -99999.99 -99999.99 -99999.99 -99999.99
1/11/2023 7:30:00 PM -99999.99 -179968 -99999.99 -99999.99 -99999.99 -99999.99
1/11/2023 7:45:00 PM -99999.99 -179968 -99999.99 -99999.99 -99999.99 -99999.99
1/11/2023 8:00:00 PM -99999.99 -179968 -99999.99 -99999.99 -99999.99 -99999.99
1/11/2023 8:15:00 PM -99999.99 -179968 -99999.99 -99999.99 -99999.99 -99999.99
1/11/2023 8:30:00 PM -99999.99 -179968 -99999.99 -99999.99 -99999.99 -99999.99
1/11/2023 8:45:00 PM -99999.99 -179968 -99999.99 -99999.99 -99999.99 -99999.99
1/11/2023 9:00:00 PM -99999.99 -179968 -99999.99 -99999.99 -99999.99 -99999.99
1/11/2023 9:15:00 PM -99999.99 -179968 -99999.99 -99999.99 -99999.99 -99999.99
1/11/2023 9:30:00 PM -99999.99 -179968 -99999.99 -99999.99 -99999.99 -99999.99
1/11/2023 9:45:00 PM -99999.99 -179968 -99999.99 -99999.99 -99999.99 -99999.99
1/11/2023 10:00:00 PM -99999.99 -179968 -99999.99 -99999.99 -99999.99 -99999.99
1/11/2023 10:15:00 PM -99999.99 -179968 -99999.99 -99999.99 -99999.99 -99999.99
1/11/2023 10:30:00 PM -99999.99 -179968 -99999.99 -99999.99 -99999.99 -99999.99
1/11/2023 10:45:00 PM -99999.99 -179968 -99999.99 -99999.99 -99999.99 -99999.99
1/11/2023 11:00:00 PM -99999.99 -179968 -99999.99 -99999.99 -99999.99 -99999.99
1/11/2023 11:15:00 PM -99999.99 -179968 -99999.99 -99999.99 -99999.99 -99999.99
1/11/2023 11:30:00 PM -99999.99 -179968 -99999.99 -99999.99 -99999.99 -99999.99
1/11/2023 11:45:00 PM -99999.99 -179968 -99999.99 -99999.99 -99999.99 -99999.99
1/12/2023 12:00:00 AM -99999.99 -179968 -99999.99 -99999.99 -99999.99 -99999.99
1/12/2023 12:15:00 AM -99999.99 -179968 -99999.99 -99999.99 -99999.99 -99999.99
1/12/2023 12:30:00 AM -99999.99 -179968 -99999.99 -99999.99 -99999.99 -99999.99
1/12/2023 12:45:00 AM -99999.99 -179968 -99999.99 -99999.99 -99999.99 -99999.99
1/12/2023 1:00:00 AM -99999.99 -179968 -99999.99 -99999.99 -99999.99 -99999.99
1/12/2023 1:15:00 AM -99999.99 -179968 -99999.99 -99999.99 -99999.99 -99999.99
1/12/2023 1:30:00 AM -99999.99 -179968 -99999.99 -99999.99 -99999.99 -99999.99
1/12/2023 1:45:00 AM -99999.99 -179968 -99999.99 -99999.99 -99999.99 -99999.99
1/12/2023 2:00:00 AM -99999.99 -179968 -99999.99 -99999.99 -99999.99 -99999.99
1/12/2023 2:15:00 AM -99999.99 -179968 -99999.99 -99999.99 -99999.99 -99999.99
1/12/2023 2:30:00 AM -99999.99 -179968 -99999.99 -99999.99 -99999.99 -99999.99
1/12/2023 2:45:00 AM -99999.99 -179968 -99999.99 -99999.99 -99999.99 -99999.99
1/12/2023 3:00:00 AM -99999.99 -179968 -99999.99 -99999.99 -99999.99 -99999.99
1/12/2023 3:15:00 AM -99999.99 -179968 -99999.99 -99999.99 -99999.99 -99999.99
1/12/2023 3:30:00 AM -99999.99 -179968 -99999.99 -99999.99 -99999.99 -99999.99
1/12/2023 3:45:00 AM -99999.99 -179968 -99999.99 -99999.99 -99999.99 -99999.99
1/12/2023 4:00:00 AM -99999.99 -179968 -99999.99 -99999.99 -99999.99 -99999.99
1/12/2023 4:15:00 AM -99999.99 -179968 -99999.99 -99999.99 -99999.99 -99999.99
1/12/2023 4:30:00 AM -99999.99 -179968 -99999.99 -99999.99 -99999.99 -99999.99
1/12/2023 4:45:00 AM -99999.99 -179968 -99999.99 -99999.99 -99999.99 -99999.99
1/12/2023 5:00:00 AM -99999.99 -179968 -99999.99 -99999.99 -99999.99 -99999.99
1/12/2023 5:15:00 AM -99999.99 -179968 -99999.99 -99999.99 -99999.99 -99999.99
1/12/2023 5:30:00 AM -99999.99 -179968 -99999.99 -99999.99 -99999.99 -99999.99
1/12/2023 5:45:00 AM -99999.99 -179968 -99999.99 -99999.99 -99999.99 -99999.99
1/12/2023 6:00:00 AM -99999.99 -179968 -99999.99 -99999.99 -99999.99 -99999.99
1/12/2023 6:15:00 AM -99999.99 -179968 -99999.99 -99999.99 -99999.99 -99999.99
1/12/2023 6:30:00 AM -99999.99 -179968 -99999.99 -99999.99 -99999.99 -99999.99
1/12/2023 6:45:00 AM -99999.99 -179968 -99999.99 -99999.99 -99999.99 -99999.99
1/12/2023 7:00:00 AM -99999.99 -179968 -99999.99 -99999.99 -99999.99 -99999.99
1/12/2023 7:15:00 AM -99999.99 -179968 -99999.99 -99999.99 -99999.99 -99999.99
1/12/2023 7:30:00 AM -99999.99 -179968 -99999.99 -99999.99 -99999.99 -99999.99
1/12/2023 7:45:00 AM -99999.99 -179968 -99999.99 -99999.99 -99999.99 -99999.99
1/12/2023 8:00:00 AM -99999.99 -179968 -99999.99 -99999.99 -99999.99 -99999.99
1/12/2023 8:15:00 AM -99999.99 -179968 -99999.99 -99999.99 -99999.99 -99999.99
1/12/2023 8:30:00 AM -99999.99 -179968 -99999.99 -99999.99 -99999.99 -99999.99
1/12/2023 8:45:00 AM -99999.99 -179968 -99999.99 -99999.99 -99999.99 -99999.99
1/12/2023 9:00:00 AM -99999.99 -179968 -99999.99 -99999.99 -99999.99 -99999.99
1/12/2023 9:15:00 AM -99999.99 -179968 -99999.99 -99999.99 -99999.99 -99999.99
1/12/2023 9:30:00 AM -99999.99 -179968 -99999.99 -99999.99 -99999.99 -99999.99
1/12/2023 9:45:00 AM -99999.99 -179968 -99999.99 -99999.99 -99999.99 -99999.99
1/12/2023 10:00:00 AM -99999.99 -179968 -99999.99 -99999.99 -99999.99 -99999.99
1/12/2023 10:15:00 AM -99999.99 -179968 -99999.99 -99999.99 -99999.99 -99999.99
1/12/2023 10:30:00 AM -99999.99 -179968 -99999.99 -99999.99 -99999.99 -99999.99
1/12/2023 10:45:00 AM -99999.99 -179968 -99999.99 -99999.99 -99999.99 -99999.99
1/12/2023 11:00:00 AM -99999.99 -179968 -99999.99 -99999.99 -99999.99 -99999.99
1/12/2023 11:15:00 AM -99999.99 -179968 -99999.99 -99999.99 -99999.99 -99999.99
1/12/2023 11:30:00 AM -99999.99 -179968 -99999.99 -99999.99 -99999.99 -99999.99
1/12/2023 11:45:00 AM -99999.99 -179968 -99999.99 -99999.99 -99999.99 -99999.99
1/12/2023 12:00:00 PM -99999.99 -179968 -99999.99 -99999.99 -99999.99 -99999.99
1/12/2023 12:15:00 PM -99999.99 -179968 -99999.99 -99999.99 -99999.99 -99999.99
1/12/2023 12:30:00 PM -99999.99 -179968 -99999.99 -99999.99 -99999.99 -99999.99
1/12/2023 12:45:00 PM -99999.99 -179968 -99999.99 -99999.99 -99999.99 -99999.99
1/12/2023 1:00:00 PM -99999.99 -179968 -99999.99 -99999.99 -99999.99 -99999.99
1/12/2023 1:15:00 PM -99999.99 -179968 -99999.99 -99999.99 -99999.99 -99999.99
1/12/2023 1:30:00 PM -99999.99 -179968 -99999.99 -99999.99 -99999.99 -99999.99
1/12/2023 1:45:00 PM -99999.99 -179968 -99999.99 -99999.99 -99999.99 -99999.99
1/12/2023 2:00:00 PM -99999.99 -179968 -99999.99 -99999.99 -99999.99 -99999.99
1/12/2023 2:15:00 PM -99999.99 -179968 -99999.99 -99999.99 -99999.99 -99999.99
1/12/2023 2:30:00 PM -99999.99 -179968 -99999.99 -99999.99 -99999.99 -99999.99
1/12/2023 2:45:00 PM -99999.99 -179968 -99999.99 -99999.99 -99999.99 -99999.99
1/12/2023 3:00:00 PM -99999.99 -179968 -99999.99 -99999.99 -99999.99 -99999.99
1/12/2023 3:15:00 PM -99999.99 -179968 -99999.99 -99999.99 -99999.99 -99999.99
1/12/2023 3:30:00 PM -99999.99 -179968 -99999.99 -99999.99 -99999.99 -99999.99
1/12/2023 3:45:00 PM -99999.99 -179968 -99999.99 -99999.99 -99999.99 -99999.99
1/12/2023 4:00:00 PM -99999.99 -179968 -99999.99 -99999.99 -99999.99 -99999.99
1/12/2023 4:15:00 PM -99999.99 -179968 -99999.99 -99999.99 -99999.99 -99999.99
1/12/2023 4:30:00 PM -99999.99 -179968 -99999.99 -99999.99 -99999.99 -99999.99
1/12/2023 4:45:00 PM -99999.99 -179968 -99999.99 -99999.99 -99999.99 -99999.99
1/12/2023 5:00:00 PM -99999.99 -179968 -99999.99 -99999.99 -99999.99 -99999.99
1/12/2023 5:15:00 PM -99999.99 -179968 -99999.99 -99999.99 -99999.99 -99999.99
1/12/2023 5:30:00 PM -99999.99 -179968 -99999.99 -99999.99 -99999.99 -99999.99
1/12/2023 5:45:00 PM -99999.99 -179968 -99999.99 -99999.99 -99999.99 -99999.99
1/12/2023 6:00:00 PM -99999.99 -179968 -99999.99 -99999.99 -99999.99 -99999.99
1/12/2023 6:15:00 PM -99999.99 -179968 -99999.99 -99999.99 -99999.99 -99999.99
1/12/2023 6:30:00 PM -99999.99 -179968 -99999.99 -99999.99 -99999.99 -99999.99
1/12/2023 6:45:00 PM -99999.99 -179968 -99999.99 -99999.99 -99999.99 -99999.99
1/12/2023 7:00:00 PM -99999.99 -179968 -99999.99 -99999.99 -99999.99 -99999.99
1/12/2023 7:15:00 PM -99999.99 -179968 -99999.99 -99999.99 -99999.99 -99999.99
1/12/2023 7:30:00 PM -99999.99 -179968 -99999.99 -99999.99 -99999.99 -99999.99
1/12/2023 7:45:00 PM -99999.99 -179968 -99999.99 -99999.99 -99999.99 -99999.99
1/12/2023 8:00:00 PM -99999.99 -179968 -99999.99 -99999.99 -99999.99 -99999.99
1/12/2023 8:15:00 PM -99999.99 -179968 -99999.99 -99999.99 -99999.99 -99999.99
1/12/2023 8:30:00 PM -99999.99 -179968 -99999.99 -99999.99 -99999.99 -99999.99
1/12/2023 8:45:00 PM -99999.99 -179968 -99999.99 -99999.99 -99999.99 -99999.99
1/12/2023 9:00:00 PM -99999.99 -179968 -99999.99 -99999.99 -99999.99 -99999.99
1/12/2023 9:15:00 PM -99999.99 -179968 -99999.99 -99999.99 -99999.99 -99999.99
1/12/2023 9:30:00 PM -99999.99 -179968 -99999.99 -99999.99 -99999.99 -99999.99
1/12/2023 9:45:00 PM -99999.99 -179968 -99999.99 -99999.99 -99999.99 -99999.99
1/12/2023 10:00:00 PM -99999.99 -179968 -99999.99 -99999.99 -99999.99 -99999.99
1/12/2023 10:15:00 PM -99999.99 -179968 -99999.99 -99999.99 -99999.99 -99999.99
1/12/2023 10:30:00 PM -99999.99 -179968 -99999.99 -99999.99 -99999.99 -99999.99
1/12/2023 10:45:00 PM -99999.99 -179968 -99999.99 -99999.99 -99999.99 -99999.99
1/12/2023 11:00:00 PM -99999.99 -179968 -99999.99 -99999.99 -99999.99 -99999.99
1/12/2023 11:15:00 PM -99999.99 -179968 -99999.99 -99999.99 -99999.99 -99999.99
1/12/2023 11:30:00 PM -99999.99 -179968 -99999.99 -99999.99 -99999.99 -99999.99
1/12/2023 11:45:00 PM -99999.99 -179968 -99999.99 -99999.99 -99999.99 -99999.99
1/13/2023 12:00:00 AM -99999.99 -179968 -99999.99 -99999.99 -99999.99 -99999.99
1/13/2023 12:15:00 AM -99999.99 -179968 -99999.99 -99999.99 -99999.99 -99999.99
1/13/2023 12:30:00 AM -99999.99 -179968 -99999.99 -99999.99 -99999.99 -99999.99
1/13/2023 12:45:00 AM -99999.99 -179968 -99999.99 -99999.99 -99999.99 -99999.99
1/13/2023 1:00:00 AM -99999.99 -179968 -99999.99 -99999.99 -99999.99 -99999.99
1/13/2023 1:15:00 AM -99999.99 -179968 -99999.99 -99999.99 -99999.99 -99999.99
1/13/2023 1:30:00 AM -99999.99 -179968 -99999.99 -99999.99 -99999.99 -99999.99
1/13/2023 1:45:00 AM -99999.99 -179968 -99999.99 -99999.99 -99999.99 -99999.99
1/13/2023 2:00:00 AM -99999.99 -179968 -99999.99 -99999.99 -99999.99 -99999.99
1/13/2023 2:15:00 AM -99999.99 -179968 -99999.99 -99999.99 -99999.99 -99999.99
1/13/2023 2:30:00 AM -99999.99 -179968 -99999.99 -99999.99 -99999.99 -99999.99
1/13/2023 2:45:00 AM -99999.99 -179968 -99999.99 -99999.99 -99999.99 -99999.99
1/13/2023 3:00:00 AM -99999.99 -179968 -99999.99 -99999.99 -99999.99 -99999.99
1/13/2023 3:15:00 AM -99999.99 -179968 -99999.99 -99999.99 -99999.99 -99999.99
1/13/2023 3:30:00 AM -99999.99 -179968 -99999.99 -99999.99 -99999.99 -99999.99
1/13/2023 3:45:00 AM -99999.99 -179968 -99999.99 -99999.99 -99999.99 -99999.99
1/13/2023 4:00:00 AM -99999.99 -179968 -99999.99 -99999.99 -99999.99 -99999.99
1/13/2023 4:15:00 AM -99999.99 -179968 -99999.99 -99999.99 -99999.99 -99999.99
1/13/2023 4:30:00 AM -99999.99 -179968 -99999.99 -99999.99 -99999.99 -99999.99
1/13/2023 4:45:00 AM -99999.99 -179968 -99999.99 -99999.99 -99999.99 -99999.99
1/13/2023 5:00:00 AM -99999.99 -179968 -99999.99 -99999.99 -99999.99 -99999.99
1/13/2023 5:15:00 AM -99999.99 -179968 -99999.99 -99999.99 -99999.99 -99999.99
1/13/2023 5:30:00 AM -99999.99 -179968 -99999.99 -99999.99 -99999.99 -99999.99
1/13/2023 5:45:00 AM -99999.99 -179968 -99999.99 -99999.99 -99999.99 -99999.99
1/13/2023 6:00:00 AM -99999.99 -179968 -99999.99 -99999.99 -99999.99 -99999.99
1/13/2023 6:15:00 AM -99999.99 -179968 -99999.99 -99999.99 -99999.99 -99999.99
1/13/2023 6:30:00 AM -99999.99 -179968 -99999.99 -99999.99 -99999.99 -99999.99
1/13/2023 6:45:00 AM -99999.99 -179968 -99999.99 -99999.99 -99999.99 -99999.99
1/13/2023 7:00:00 AM -99999.99 -179968 -99999.99 -99999.99 -99999.99 -99999.99
1/13/2023 7:15:00 AM -99999.99 -179968 -99999.99 -99999.99 -99999.99 -99999.99
1/13/2023 7:30:00 AM -99999.99 -179968 -99999.99 -99999.99 -99999.99 -99999.99
1/13/2023 7:45:00 AM -99999.99 -179968 -99999.99 -99999.99 -99999.99 -99999.99
1/13/2023 8:00:00 AM -99999.99 -179968 -99999.99 -99999.99 -99999.99 -99999.99
1/13/2023 8:15:00 AM -99999.99 -179968 -99999.99 -99999.99 -99999.99 -99999.99
1/13/2023 8:30:00 AM -99999.99 -179968 -99999.99 -99999.99 -99999.99 -99999.99
1/13/2023 8:45:00 AM -99999.99 -179968 -99999.99 -99999.99 -99999.99 -99999.99
1/13/2023 9:00:00 AM -99999.99 -179968 -99999.99 -99999.99 -99999.99 -99999.99
1/13/2023 9:15:00 AM -99999.99 -179968 -99999.99 -99999.99 -99999.99 -99999.99
1/13/2023 9:30:00 AM -99999.99 -179968 -99999.99 -99999.99 -99999.99 -99999.99
1/13/2023 9:45:00 AM -99999.99 -179968 -99999.99 -99999.99 -99999.99 -99999.99
1/13/2023 10:00:00 AM -99999.99 -179968 -99999.99 -99999.99 -99999.99 -99999.99
1/13/2023 10:15:00 AM -99999.99 -179968 -99999.99 -99999.99 -99999.99 -99999.99
1/13/2023 10:30:00 AM -99999.99 -179968 -99999.99 -99999.99 -99999.99 -99999.99
1/13/2023 10:45:00 AM -99999.99 -179968 -99999.99 -99999.99 -99999.99 -99999.99
1/13/2023 11:00:00 AM -99999.99 -179968 -99999.99 -99999.99 -99999.99 -99999.99
1/13/2023 11:15:00 AM -99999.99 -179968 -99999.99 -99999.99 -99999.99 -99999.99
1/13/2023 11:30:00 AM -99999.99 -179968 -99999.99 -99999.99 -99999.99 -99999.99
1/13/2023 11:45:00 AM -99999.99 -179968 -99999.99 -99999.99 -99999.99 -99999.99
1/13/2023 12:00:00 PM -99999.99 -179968 -99999.99 -99999.99 -99999.99 -99999.99
1/13/2023 12:15:00 PM -99999.99 -179968 -99999.99 -99999.99 -99999.99 -99999.99
1/13/2023 12:30:00 PM -99999.99 -179968 -99999.99 -99999.99 -99999.99 -99999.99
1/13/2023 12:45:00 PM -99999.99 -179968 -99999.99 -99999.99 -99999.99 -99999.99
1/13/2023 1:00:00 PM -99999.99 -179968 -99999.99 -99999.99 -99999.99 -99999.99
1/13/2023 1:15:00 PM -99999.99 -179968 -99999.99 -99999.99 -99999.99 -99999.99
1/13/2023 1:30:00 PM -99999.99 -179968 -99999.99 -99999.99 -99999.99 -99999.99
1/13/2023 1:45:00 PM -99999.99 -179968 -99999.99 -99999.99 -99999.99 -99999.99
1/13/2023 2:00:00 PM -99999.99 -179968 -99999.99 -99999.99 -99999.99 -99999.99
1/13/2023 2:15:00 PM -99999.99 -179968 -99999.99 -99999.99 -99999.99 -99999.99
1/13/2023 2:30:00 PM -99999.99 -179968 -99999.99 -99999.99 -99999.99 -99999.99
1/13/2023 2:45:00 PM -99999.99 -179968 -99999.99 -99999.99 -99999.99 -99999.99
1/13/2023 3:00:00 PM -99999.99 -179968 -99999.99 -99999.99 -99999.99 -99999.99
1/13/2023 3:15:00 PM -99999.99 -179968 -99999.99 -99999.99 -99999.99 -99999.99
1/13/2023 3:30:00 PM -99999.99 -179968 -99999.99 -99999.99 -99999.99 -99999.99
1/13/2023 3:45:00 PM -99999.99 -179968 -99999.99 -99999.99 -99999.99 -99999.99
1/13/2023 4:00:00 PM -99999.99 -179968 -99999.99 -99999.99 -99999.99 -99999.99
1/13/2023 4:15:00 PM -99999.99 -179968 -99999.99 -99999.99 -99999.99 -99999.99
1/13/2023 4:30:00 PM -99999.99 -179968 -99999.99 -99999.99 -99999.99 -99999.99
1/13/2023 4:45:00 PM -99999.99 -179968 -99999.99 -99999.99 -99999.99 -99999.99
1/13/2023 5:00:00 PM -99999.99 -179968 -99999.99 -99999.99 -99999.99 -99999.99
1/13/2023 5:15:00 PM -99999.99 -179968 -99999.99 -99999.99 -99999.99 -99999.99
1/13/2023 5:30:00 PM -99999.99 -179968 -99999.99 -99999.99 -99999.99 -99999.99
1/13/2023 5:45:00 PM -99999.99 -179968 -99999.99 -99999.99 -99999.99 -99999.99
1/13/2023 6:00:00 PM -99999.99 -179968 -99999.99 -99999.99 -99999.99 -99999.99
1/13/2023 6:15:00 PM -99999.99 -179968 -99999.99 -99999.99 -99999.99 -99999.99
1/13/2023 6:30:00 PM -99999.99 -179968 -99999.99 -99999.99 -99999.99 -99999.99
1/13/2023 6:45:00 PM -99999.99 -179968 -99999.99 -99999.99 -99999.99 -99999.99
1/13/2023 7:00:00 PM -99999.99 -179968 -99999.99 -99999.99 -99999.99 -99999.99
1/13/2023 7:15:00 PM -99999.99 -179968 -99999.99 -99999.99 -99999.99 -99999.99
1/13/2023 7:30:00 PM -99999.99 -179968 -99999.99 -99999.99 -99999.99 -99999.99
1/13/2023 7:45:00 PM -99999.99 -179968 -99999.99 -99999.99 -99999.99 -99999.99
1/13/2023 8:00:00 PM -99999.99 -179968 -99999.99 -99999.99 -99999.99 -99999.99
1/13/2023 8:15:00 PM -99999.99 -179968 -99999.99 -99999.99 -99999.99 -99999.99
1/13/2023 8:30:00 PM -99999.99 -179968 -99999.99 -99999.99 -99999.99 -99999.99
1/13/2023 8:45:00 PM -99999.99 -179968 -99999.99 -99999.99 -99999.99 -99999.99
1/13/2023 9:00:00 PM -99999.99 -179968 -99999.99 -99999.99 -99999.99 -99999.99
1/13/2023 9:15:00 PM -99999.99 -179968 -99999.99 -99999.99 -99999.99 -99999.99
1/13/2023 9:30:00 PM -99999.99 -179968 -99999.99 -99999.99 -99999.99 -99999.99
1/13/2023 9:45:00 PM -99999.99 -179968 -99999.99 -99999.99 -99999.99 -99999.99
1/13/2023 10:00:00 PM -99999.99 -179968 -99999.99 -99999.99 -99999.99 -99999.99
1/13/2023 10:15:00 PM -99999.99 -179968 -99999.99 -99999.99 -99999.99 -99999.99
1/13/2023 10:30:00 PM -99999.99 -179968 -99999.99 -99999.99 -99999.99 -99999.99
1/13/2023 10:45:00 PM -99999.99 -179968 -99999.99 -99999.99 -99999.99 -99999.99
1/13/2023 11:00:00 PM -99999.99 -179968 -99999.99 -99999.99 -99999.99 -99999.99
1/13/2023 11:15:00 PM -99999.99 -179968 -99999.99 -99999.99 -99999.99 -99999.99
1/13/2023 11:30:00 PM -99999.99 -179968 -99999.99 -99999.99 -99999.99 -99999.99
1/13/2023 11:45:00 PM -99999.99 -179968 -99999.99 -99999.99 -99999.99 -99999.99
1/14/2023 12:00:00 AM -99999.99 -179968 -99999.99 -99999.99 -99999.99 -99999.99
1/14/2023 12:15:00 AM -99999.99 -179968 -99999.99 -99999.99 -99999.99 -99999.99
1/14/2023 12:30:00 AM -99999.99 -179968 -99999.99 -99999.99 -99999.99 -99999.99
1/14/2023 12:45:00 AM -99999.99 -179968 -99999.99 -99999.99 -99999.99 -99999.99
1/14/2023 1:00:00 AM -99999.99 -179968 -99999.99 -99999.99 -99999.99 -99999.99
1/14/2023 1:15:00 AM -99999.99 -179968 -99999.99 -99999.99 -99999.99 -99999.99
1/14/2023 1:30:00 AM -99999.99 -179968 -99999.99 -99999.99 -99999.99 -99999.99
1/14/2023 1:45:00 AM -99999.99 -179968 -99999.99 -99999.99 -99999.99 -99999.99
1/14/2023 2:00:00 AM -99999.99 -179968 -99999.99 -99999.99 -99999.99 -99999.99
1/14/2023 2:15:00 AM -99999.99 -179968 -99999.99 -99999.99 -99999.99 -99999.99
1/14/2023 2:30:00 AM -99999.99 -179968 -99999.99 -99999.99 -99999.99 -99999.99
1/14/2023 2:45:00 AM -99999.99 -179968 -99999.99 -99999.99 -99999.99 -99999.99
1/14/2023 3:00:00 AM -99999.99 -179968 -99999.99 -99999.99 -99999.99 -99999.99
1/14/2023 3:15:00 AM -99999.99 -179968 -99999.99 -99999.99 -99999.99 -99999.99
1/14/2023 3:30:00 AM -99999.99 -179968 -99999.99 -99999.99 -99999.99 -99999.99
1/14/2023 3:45:00 AM -99999.99 -179968 -99999.99 -99999.99 -99999.99 -99999.99
1/14/2023 4:00:00 AM -99999.99 -179968 -99999.99 -99999.99 -99999.99 -99999.99
1/14/2023 4:15:00 AM -99999.99 -179968 -99999.99 -99999.99 -99999.99 -99999.99
1/14/2023 4:30:00 AM -99999.99 -179968 -99999.99 -99999.99 -99999.99 -99999.99
1/14/2023 4:45:00 AM -99999.99 -179968 -99999.99 -99999.99 -99999.99 -99999.99
1/14/2023 5:00:00 AM -99999.99 -179968 -99999.99 -99999.99 -99999.99 -99999.99
1/14/2023 5:15:00 AM -99999.99 -179968 -99999.99 -99999.99 -99999.99 -99999.99
1/14/2023 5:30:00 AM -99999.99 -179968 -99999.99 -99999.99 -99999.99 -99999.99
1/14/2023 5:45:00 AM -99999.99 -179968 -99999.99 -99999.99 -99999.99 -99999.99
1/14/2023 6:00:00 AM -99999.99 -179968 -99999.99 -99999.99 -99999.99 -99999.99
1/14/2023 6:15:00 AM -99999.99 -179968 -99999.99 -99999.99 -99999.99 -99999.99
1/14/2023 6:30:00 AM -99999.99 -179968 -99999.99 -99999.99 -99999.99 -99999.99
1/14/2023 6:45:00 AM -99999.99 -179968 -99999.99 -99999.99 -99999.99 -99999.99
1/14/2023 7:00:00 AM -99999.99 -179968 -99999.99 -99999.99 -99999.99 -99999.99
1/14/2023 7:15:00 AM -99999.99 -179968 -99999.99 -99999.99 -99999.99 -99999.99
1/14/2023 7:30:00 AM -99999.99 -179968 -99999.99 -99999.99 -99999.99 -99999.99
1/14/2023 7:45:00 AM -99999.99 -179968 -99999.99 -99999.99 -99999.99 -99999.99
1/14/2023 8:00:00 AM -99999.99 -179968 -99999.99 -99999.99 -99999.99 -99999.99
1/14/2023 8:15:00 AM -99999.99 -179968 -99999.99 -99999.99 -99999.99 -99999.99
1/14/2023 8:30:00 AM -99999.99 -179968 -99999.99 -99999.99 -99999.99 -99999.99
1/14/2023 8:45:00 AM -99999.99 -179968 -99999.99 -99999.99 -99999.99 -99999.99
1/14/2023 9:00:00 AM -99999.99 -179968 -99999.99 -99999.99 -99999.99 -99999.99
1/14/2023 9:15:00 AM -99999.99 -179968 -99999.99 -99999.99 -99999.99 -99999.99
1/14/2023 9:30:00 AM -99999.99 -179968 -99999.99 -99999.99 -99999.99 -99999.99
1/14/2023 9:45:00 AM -99999.99 -179968 -99999.99 -99999.99 -99999.99 -99999.99
1/14/2023 10:00:00 AM -99999.99 -179968 -99999.99 -99999.99 -99999.99 -99999.99
1/14/2023 10:15:00 AM -99999.99 -179968 -99999.99 -99999.99 -99999.99 -99999.99
1/14/2023 10:30:00 AM -99999.99 -179968 -99999.99 -99999.99 -99999.99 -99999.99
1/14/2023 10:45:00 AM -99999.99 -179968 -99999.99 -99999.99 -99999.99 -99999.99
1/14/2023 11:00:00 AM -99999.99 -179968 -99999.99 -99999.99 -99999.99 -99999.99
1/14/2023 11:15:00 AM -99999.99 -179968 -99999.99 -99999.99 -99999.99 -99999.99
1/14/2023 11:30:00 AM -99999.99 -179968 -99999.99 -99999.99 -99999.99 -99999.99
1/14/2023 11:45:00 AM -99999.99 -179968 -99999.99 -99999.99 -99999.99 -99999.99
1/14/2023 12:00:00 PM -99999.99 -179968 -99999.99 -99999.99 -99999.99 -99999.99
1/14/2023 12:15:00 PM -99999.99 -179968 -99999.99 -99999.99 -99999.99 -99999.99
1/14/2023 12:30:00 PM -99999.99 -179968 -99999.99 -99999.99 -99999.99 -99999.99
1/14/2023 12:45:00 PM -99999.99 -179968 -99999.99 -99999.99 -99999.99 -99999.99
1/14/2023 1:00:00 PM -99999.99 -179968 -99999.99 -99999.99 -99999.99 -99999.99
1/14/2023 1:15:00 PM -99999.99 -179968 -99999.99 -99999.99 -99999.99 -99999.99
1/14/2023 1:30:00 PM -99999.99 -179968 -99999.99 -99999.99 -99999.99 -99999.99
1/14/2023 1:45:00 PM -99999.99 -179968 -99999.99 -99999.99 -99999.99 -99999.99
1/14/2023 2:00:00 PM -99999.99 -179968 -99999.99 -99999.99 -99999.99 -99999.99
1/14/2023 2:15:00 PM -99999.99 -179968 -99999.99 -99999.99 -99999.99 -99999.99
1/14/2023 2:30:00 PM -99999.99 -179968 -99999.99 -99999.99 -99999.99 -99999.99
1/14/2023 2:45:00 PM -99999.99 -179968 -99999.99 -99999.99 -99999.99 -99999.99
1/14/2023 3:00:00 PM -99999.99 -179968 -99999.99 -99999.99 -99999.99 -99999.99
1/14/2023 3:15:00 PM -99999.99 -179968 -99999.99 -99999.99 -99999.99 -99999.99
1/14/2023 3:30:00 PM -99999.99 -179968 -99999.99 -99999.99 -99999.99 -99999.99
1/14/2023 3:45:00 PM -99999.99 -179968 -99999.99 -99999.99 -99999.99 -99999.99
1/14/2023 4:00:00 PM -99999.99 -179968 -99999.99 -99999.99 -99999.99 -99999.99
1/14/2023 4:15:00 PM -99999.99 -179968 -99999.99 -99999.99 -99999.99 -99999.99
1/14/2023 4:30:00 PM -99999.99 -179968 -99999.99 -99999.99 -99999.99 -99999.99
1/14/2023 4:45:00 PM -99999.99 -179968 -99999.99 -99999.99 -99999.99 -99999.99
1/14/2023 5:00:00 PM -99999.99 -179968 -99999.99 -99999.99 -99999.99 -99999.99
1/14/2023 5:15:00 PM -99999.99 -179968 -99999.99 -99999.99 -99999.99 -99999.99
1/14/2023 5:30:00 PM -99999.99 -179968 -99999.99 -99999.99 -99999.99 -99999.99
1/14/2023 5:45:00 PM -99999.99 -179968 -99999.99 -99999.99 -99999.99 -99999.99
1/14/2023 6:00:00 PM -99999.99 -179968 -99999.99 -99999.99 -99999.99 -99999.99
1/14/2023 6:15:00 PM -99999.99 -179968 -99999.99 -99999.99 -99999.99 -99999.99
1/14/2023 6:30:00 PM -99999.99 -179968 -99999.99 -99999.99 -99999.99 -99999.99
1/14/2023 6:45:00 PM -99999.99 -179968 -99999.99 -99999.99 -99999.99 -99999.99
1/14/2023 7:00:00 PM -99999.99 -179968 -99999.99 -99999.99 -99999.99 -99999.99
1/14/2023 7:15:00 PM -99999.99 -179968 -99999.99 -99999.99 -99999.99 -99999.99
1/14/2023 7:30:00 PM -99999.99 -179968 -99999.99 -99999.99 -99999.99 -99999.99
1/14/2023 7:45:00 PM -99999.99 -179968 -99999.99 -99999.99 -99999.99 -99999.99
1/14/2023 8:00:00 PM -99999.99 -179968 -99999.99 -99999.99 -99999.99 -99999.99
1/14/2023 8:15:00 PM -99999.99 -179968 -99999.99 -99999.99 -99999.99 -99999.99
1/14/2023 8:30:00 PM -99999.99 -179968 -99999.99 -99999.99 -99999.99 -99999.99
1/14/2023 8:45:00 PM -99999.99 -179968 -99999.99 -99999.99 -99999.99 -99999.99
1/14/2023 9:00:00 PM -99999.99 -179968 -99999.99 -99999.99 -99999.99 -99999.99
1/14/2023 9:15:00 PM -99999.99 -179968 -99999.99 -99999.99 -99999.99 -99999.99
1/14/2023 9:30:00 PM -99999.99 -179968 -99999.99 -99999.99 -99999.99 -99999.99
1/14/2023 9:45:00 PM -99999.99 -179968 -99999.99 -99999.99 -99999.99 -99999.99
1/14/2023 10:00:00 PM -99999.99 -179968 -99999.99 -99999.99 -99999.99 -99999.99
1/14/2023 10:15:00 PM -99999.99 -179968 -99999.99 -99999.99 -99999.99 -99999.99
1/14/2023 10:30:00 PM -99999.99 -179968 -99999.99 -99999.99 -99999.99 -99999.99
1/14/2023 10:45:00 PM -99999.99 -179968 -99999.99 -99999.99 -99999.99 -99999.99
1/14/2023 11:00:00 PM -99999.99 -179968 -99999.99 -99999.99 -99999.99 -99999.99
1/14/2023 11:15:00 PM -99999.99 -179968 -99999.99 -99999.99 -99999.99 -99999.99
1/14/2023 11:30:00 PM -99999.99 -179968 -99999.99 -99999.99 -99999.99 -99999.99
1/14/2023 11:45:00 PM -99999.99 -179968 -99999.99 -99999.99 -99999.99 -99999.99
1/15/2023 12:00:00 AM -99999.99 -179968 -99999.99 -99999.99 -99999.99 -99999.99
1/15/2023 12:15:00 AM -99999.99 -179968 -99999.99 -99999.99 -99999.99 -99999.99
1/15/2023 12:30:00 AM -99999.99 -179968 -99999.99 -99999.99 -99999.99 -99999.99
1/15/2023 12:45:00 AM -99999.99 -179968 -99999.99 -99999.99 -99999.99 -99999.99
1/15/2023 1:00:00 AM -99999.99 -179968 -99999.99 -99999.99 -99999.99 -99999.99
1/15/2023 1:15:00 AM -99999.99 -179968 -99999.99 -99999.99 -99999.99 -99999.99
1/15/2023 1:30:00 AM -99999.99 -179968 -99999.99 -99999.99 -99999.99 -99999.99
1/15/2023 1:45:00 AM -99999.99 -179968 -99999.99 -99999.99 -99999.99 -99999.99
1/15/2023 2:00:00 AM -99999.99 -179968 -99999.99 -99999.99 -99999.99 -99999.99
1/15/2023 2:15:00 AM -99999.99 -179968 -99999.99 -99999.99 -99999.99 -99999.99
1/15/2023 2:30:00 AM -99999.99 -179968 -99999.99 -99999.99 -99999.99 -99999.99
1/15/2023 2:45:00 AM -99999.99 -179968 -99999.99 -99999.99 -99999.99 -99999.99
1/15/2023 3:00:00 AM -99999.99 -179968 -99999.99 -99999.99 -99999.99 -99999.99
1/15/2023 3:15:00 AM -99999.99 -179968 -99999.99 -99999.99 -99999.99 -99999.99
1/15/2023 3:30:00 AM -99999.99 -179968 -99999.99 -99999.99 -99999.99 -99999.99
1/15/2023 3:45:00 AM -99999.99 -179968 -99999.99 -99999.99 -99999.99 -99999.99
1/15/2023 4:00:00 AM -99999.99 -179968 -99999.99 -99999.99 -99999.99 -99999.99
1/15/2023 4:15:00 AM -99999.99 -179968 -99999.99 -99999.99 -99999.99 -99999.99
1/15/2023 4:30:00 AM -99999.99 -179968 -99999.99 -99999.99 -99999.99 -99999.99
1/15/2023 4:45:00 AM -99999.99 -179968 -99999.99 -99999.99 -99999.99 -99999.99
1/15/2023 5:00:00 AM -99999.99 -179968 -99999.99 -99999.99 -99999.99 -99999.99
1/15/2023 5:15:00 AM -99999.99 -179968 -99999.99 -99999.99 -99999.99 -99999.99
1/15/2023 5:30:00 AM -99999.99 -179968 -99999.99 -99999.99 -99999.99 -99999.99
1/15/2023 5:45:00 AM -99999.99 -179968 -99999.99 -99999.99 -99999.99 -99999.99
1/15/2023 6:00:00 AM -99999.99 -179968 -99999.99 -99999.99 -99999.99 -99999.99
1/15/2023 6:15:00 AM -99999.99 -179968 -99999.99 -99999.99 -99999.99 -99999.99
1/15/2023 6:30:00 AM -99999.99 -179968 -99999.99 -99999.99 -99999.99 -99999.99
1/15/2023 6:45:00 AM -99999.99 -179968 -99999.99 -99999.99 -99999.99 -99999.99
1/15/2023 7:00:00 AM -99999.99 -179968 -99999.99 -99999.99 -99999.99 -99999.99
1/15/2023 7:15:00 AM -99999.99 -179968 -99999.99 -99999.99 -99999.99 -99999.99
1/15/2023 7:30:00 AM -99999.99 -179968 -99999.99 -99999.99 -99999.99 -99999.99
1/15/2023 7:45:00 AM -99999.99 -179968 -99999.99 -99999.99 -99999.99 -99999.99
1/15/2023 8:00:00 AM -99999.99 -179968 -99999.99 -99999.99 -99999.99 -99999.99
1/15/2023 8:15:00 AM -99999.99 -179968 -99999.99 -99999.99 -99999.99 -99999.99
1/15/2023 8:30:00 AM -99999.99 -179968 -99999.99 -99999.99 -99999.99 -99999.99
1/15/2023 8:45:00 AM -99999.99 -179968 -99999.99 -99999.99 -99999.99 -99999.99
1/15/2023 9:00:00 AM -99999.99 -179968 -99999.99 -99999.99 -99999.99 -99999.99
1/15/2023 9:15:00 AM -99999.99 -179968 -99999.99 -99999.99 -99999.99 -99999.99
1/15/2023 9:30:00 AM -99999.99 -179968 -99999.99 -99999.99 -99999.99 -99999.99
1/15/2023 9:45:00 AM -99999.99 -179968 -99999.99 -99999.99 -99999.99 -99999.99
1/15/2023 10:00:00 AM -99999.99 -179968 -99999.99 -99999.99 -99999.99 -99999.99
1/15/2023 10:15:00 AM -99999.99 -179968 -99999.99 -99999.99 -99999.99 -99999.99
1/15/2023 10:30:00 AM -99999.99 -179968 -99999.99 -99999.99 -99999.99 -99999.99
1/15/2023 10:45:00 AM -99999.99 -179968 -99999.99 -99999.99 -99999.99 -99999.99
1/15/2023 11:00:00 AM -99999.99 -179968 -99999.99 -99999.99 -99999.99 -99999.99
1/15/2023 11:15:00 AM -99999.99 -179968 -99999.99 -99999.99 -99999.99 -99999.99
1/15/2023 11:30:00 AM -99999.99 -179968 -99999.99 -99999.99 -99999.99 -99999.99
1/15/2023 11:45:00 AM -99999.99 -179968 -99999.99 -99999.99 -99999.99 -99999.99
1/15/2023 12:00:00 PM -99999.99 -179968 -99999.99 -99999.99 -99999.99 -99999.99
1/15/2023 12:15:00 PM -99999.99 -179968 -99999.99 -99999.99 -99999.99 -99999.99
1/15/2023 12:30:00 PM -99999.99 -179968 -99999.99 -99999.99 -99999.99 -99999.99
1/15/2023 12:45:00 PM -99999.99 -179968 -99999.99 -99999.99 -99999.99 -99999.99
1/15/2023 1:00:00 PM -99999.99 -179968 -99999.99 -99999.99 -99999.99 -99999.99
1/15/2023 1:15:00 PM -99999.99 -179968 -99999.99 -99999.99 -99999.99 -99999.99
1/15/2023 1:30:00 PM -99999.99 -179968 -99999.99 -99999.99 -99999.99 -99999.99
1/15/2023 1:45:00 PM -99999.99 -179968 -99999.99 -99999.99 -99999.99 -99999.99
1/15/2023 2:00:00 PM -99999.99 -179968 -99999.99 -99999.99 -99999.99 -99999.99
1/15/2023 2:15:00 PM -99999.99 -179968 -99999.99 -99999.99 -99999.99 -99999.99
1/15/2023 2:30:00 PM -99999.99 -179968 -99999.99 -99999.99 -99999.99 -99999.99
1/15/2023 2:45:00 PM -99999.99 -179968 -99999.99 -99999.99 -99999.99 -99999.99
1/15/2023 3:00:00 PM -99999.99 -179968 -99999.99 -99999.99 -99999.99 -99999.99
1/15/2023 3:15:00 PM -99999.99 -179968 -99999.99 -99999.99 -99999.99 -99999.99
1/15/2023 3:30:00 PM -99999.99 -179968 -99999.99 -99999.99 -99999.99 -99999.99
1/15/2023 3:45:00 PM -99999.99 -179968 -99999.99 -99999.99 -99999.99 -99999.99
1/15/2023 4:00:00 PM -99999.99 -179968 -99999.99 -99999.99 -99999.99 -99999.99
1/15/2023 4:15:00 PM -99999.99 -179968 -99999.99 -99999.99 -99999.99 -99999.99
1/15/2023 4:30:00 PM -99999.99 -179968 -99999.99 -99999.99 -99999.99 -99999.99
1/15/2023 4:45:00 PM -99999.99 -179968 -99999.99 -99999.99 -99999.99 -99999.99
1/15/2023 5:00:00 PM -99999.99 -179968 -99999.99 -99999.99 -99999.99 -99999.99
1/15/2023 5:15:00 PM -99999.99 -179968 -99999.99 -99999.99 -99999.99 -99999.99
1/15/2023 5:30:00 PM -99999.99 -179968 -99999.99 -99999.99 -99999.99 -99999.99
1/15/2023 5:45:00 PM -99999.99 -179968 -99999.99 -99999.99 -99999.99 -99999.99
1/15/2023 6:00:00 PM -99999.99 -179968 -99999.99 -99999.99 -99999.99 -99999.99
1/15/2023 6:15:00 PM -99999.99 -179968 -99999.99 -99999.99 -99999.99 -99999.99
1/15/2023 6:30:00 PM -99999.99 -179968 -99999.99 -99999.99 -99999.99 -99999.99
1/15/2023 6:45:00 PM -99999.99 -179968 -99999.99 -99999.99 -99999.99 -99999.99
1/15/2023 7:00:00 PM -99999.99 -179968 -99999.99 -99999.99 -99999.99 -99999.99
1/15/2023 7:15:00 PM -99999.99 -179968 -99999.99 -99999.99 -99999.99 -99999.99
1/15/2023 7:30:00 PM -99999.99 -179968 -99999.99 -99999.99 -99999.99 -99999.99